<?xml version="1.0" encoding="UTF-8" standalone="no" ?>
<gpx xmlns="http://www.topografix.com/GPX/1/1" xmlns:xsi="http://www.w3.org/2001/XMLSchema-instance" xsi:schemaLocation="http://www.topografix.com/GPX/1/1 http://www.topografix.com/GPX/1/1/gpx.xsd" version="1.1" creator="VisuGPX - https://www.visugpx.com">
  <metadata>
    <name>Champsaur par Le golf de Bayard, Laye, St Bonnet etc</name>
    <desc><![CDATA[Champsaur par Le golf de Bayard, Laye, St Bonnet etc 2 Jours]]></desc>
  </metadata>
  <trk>
    <name><![CDATA[20190517073726-moYNJ]]></name>
    <trkseg>
      <trkpt lat="44.62055" lon="6.08346">
        <ele>1252</ele>
        <time>2018-11-09T17:24:09Z</time>
      </trkpt>
      <trkpt lat="44.62055" lon="6.08346">
        <ele>1252</ele>
        <time>2018-11-09T17:24:09Z</time>
      </trkpt>
      <trkpt lat="44.62055" lon="6.08346">
        <ele>1252</ele>
        <time>2018-11-09T17:24:09Z</time>
      </trkpt>
      <trkpt lat="44.62055" lon="6.08346">
        <ele>1252</ele>
        <time>2018-11-09T17:24:09Z</time>
      </trkpt>
      <trkpt lat="44.62012" lon="6.08325">
        <ele>1252</ele>
        <time>2018-11-09T17:25:09Z</time>
      </trkpt>
      <trkpt lat="44.61984" lon="6.08338">
        <ele>1253</ele>
        <time>2018-11-09T17:26:09Z</time>
      </trkpt>
      <trkpt lat="44.61909" lon="6.08359">
        <ele>1256</ele>
        <time>2018-11-09T17:27:09Z</time>
      </trkpt>
      <trkpt lat="44.61855" lon="6.0838">
        <ele>1258</ele>
        <time>2018-11-09T17:28:09Z</time>
      </trkpt>
      <trkpt lat="44.61788" lon="6.08398">
        <ele>1261</ele>
        <time>2018-11-09T17:29:09Z</time>
      </trkpt>
      <trkpt lat="44.61728" lon="6.08336">
        <ele>1262</ele>
        <time>2018-11-09T17:30:09Z</time>
      </trkpt>
      <trkpt lat="44.6167" lon="6.08316">
        <ele>1263</ele>
        <time>2018-11-09T17:31:09Z</time>
      </trkpt>
      <trkpt lat="44.61656" lon="6.08318">
        <ele>1264</ele>
        <time>2018-11-09T17:32:09Z</time>
      </trkpt>
      <trkpt lat="44.61587" lon="6.08278">
        <ele>1269</ele>
        <time>2018-11-09T17:33:09Z</time>
      </trkpt>
      <trkpt lat="44.61536" lon="6.08242">
        <ele>1271</ele>
        <time>2018-11-09T17:34:09Z</time>
      </trkpt>
      <trkpt lat="44.61447" lon="6.08199">
        <ele>1269</ele>
        <time>2018-11-09T17:35:09Z</time>
      </trkpt>
      <trkpt lat="44.61406" lon="6.08188">
        <ele>1267</ele>
        <time>2018-11-09T17:36:09Z</time>
      </trkpt>
      <trkpt lat="44.61381" lon="6.08157">
        <ele>1261</ele>
        <time>2018-11-09T17:37:09Z</time>
      </trkpt>
      <trkpt lat="44.61357" lon="6.08149">
        <ele>1259</ele>
        <time>2018-11-09T17:38:09Z</time>
      </trkpt>
      <trkpt lat="44.61314" lon="6.08137">
        <ele>1256</ele>
        <time>2018-11-09T17:39:09Z</time>
      </trkpt>
      <trkpt lat="44.61253" lon="6.08132">
        <ele>1258</ele>
        <time>2018-11-09T17:40:09Z</time>
      </trkpt>
      <trkpt lat="44.61186" lon="6.08122">
        <ele>1258</ele>
        <time>2018-11-09T17:41:09Z</time>
      </trkpt>
      <trkpt lat="44.61159" lon="6.08124">
        <ele>1259</ele>
        <time>2018-11-09T17:42:09Z</time>
      </trkpt>
      <trkpt lat="44.6108" lon="6.08136">
        <ele>1258</ele>
        <time>2018-11-09T17:43:09Z</time>
      </trkpt>
      <trkpt lat="44.61032" lon="6.08141">
        <ele>1259</ele>
        <time>2018-11-09T17:44:09Z</time>
      </trkpt>
      <trkpt lat="44.6095" lon="6.08136">
        <ele>1257</ele>
        <time>2018-11-09T17:45:09Z</time>
      </trkpt>
      <trkpt lat="44.60907" lon="6.08141">
        <ele>1257</ele>
        <time>2018-11-09T17:46:09Z</time>
      </trkpt>
      <trkpt lat="44.60875" lon="6.0812">
        <ele>1251</ele>
        <time>2018-11-09T17:47:09Z</time>
      </trkpt>
      <trkpt lat="44.6087" lon="6.08094">
        <ele>1247</ele>
        <time>2018-11-09T17:48:09Z</time>
      </trkpt>
      <trkpt lat="44.60843" lon="6.08068">
        <ele>1242</ele>
        <time>2018-11-09T17:49:09Z</time>
      </trkpt>
      <trkpt lat="44.60841" lon="6.08055">
        <ele>1241</ele>
        <time>2018-11-09T17:50:09Z</time>
      </trkpt>
      <trkpt lat="44.60734" lon="6.0807">
        <ele>1235</ele>
        <time>2018-11-09T17:51:09Z</time>
      </trkpt>
      <trkpt lat="44.60717" lon="6.08054">
        <ele>1232</ele>
        <time>2018-11-09T17:52:09Z</time>
      </trkpt>
      <trkpt lat="44.60622" lon="6.08031">
        <ele>1223</ele>
        <time>2018-11-09T17:53:09Z</time>
      </trkpt>
      <trkpt lat="44.60573" lon="6.08026">
        <ele>1218</ele>
        <time>2018-11-09T17:54:09Z</time>
      </trkpt>
      <trkpt lat="44.6059" lon="6.07966">
        <ele>1216</ele>
        <time>2018-11-09T17:55:09Z</time>
      </trkpt>
      <trkpt lat="44.60611" lon="6.07928">
        <ele>1216</ele>
        <time>2018-11-09T17:56:09Z</time>
      </trkpt>
      <trkpt lat="44.60635" lon="6.07914">
        <ele>1217</ele>
        <time>2018-11-09T17:57:09Z</time>
      </trkpt>
      <trkpt lat="44.60762" lon="6.07899">
        <ele>1225</ele>
        <time>2018-11-09T17:58:09Z</time>
      </trkpt>
      <trkpt lat="44.6077" lon="6.07868">
        <ele>1226</ele>
        <time>2018-11-09T17:59:09Z</time>
      </trkpt>
      <trkpt lat="44.60725" lon="6.07787">
        <ele>1225</ele>
        <time>2018-11-09T18:00:09Z</time>
      </trkpt>
      <trkpt lat="44.60739" lon="6.07708">
        <ele>1228</ele>
        <time>2018-11-09T18:01:09Z</time>
      </trkpt>
      <trkpt lat="44.60727" lon="6.07638">
        <ele>1229</ele>
        <time>2018-11-09T18:02:09Z</time>
      </trkpt>
      <trkpt lat="44.60677" lon="6.07637">
        <ele>1229</ele>
        <time>2018-11-09T18:03:09Z</time>
      </trkpt>
      <trkpt lat="44.60646" lon="6.07553">
        <ele>1234</ele>
        <time>2018-11-09T18:04:09Z</time>
      </trkpt>
      <trkpt lat="44.60649" lon="6.07518">
        <ele>1238</ele>
        <time>2018-11-09T18:05:09Z</time>
      </trkpt>
      <trkpt lat="44.60686" lon="6.07473">
        <ele>1245</ele>
        <time>2018-11-09T18:06:09Z</time>
      </trkpt>
      <trkpt lat="44.60712" lon="6.07468">
        <ele>1246</ele>
        <time>2018-11-09T18:07:09Z</time>
      </trkpt>
      <trkpt lat="44.60705" lon="6.07434">
        <ele>1253</ele>
        <time>2018-11-09T18:08:09Z</time>
      </trkpt>
      <trkpt lat="44.60681" lon="6.07426">
        <ele>1256</ele>
        <time>2018-11-09T18:09:09Z</time>
      </trkpt>
      <trkpt lat="44.60586" lon="6.07375">
        <ele>1266</ele>
        <time>2018-11-09T18:10:09Z</time>
      </trkpt>
      <trkpt lat="44.60534" lon="6.07381">
        <ele>1264</ele>
        <time>2018-11-09T18:11:09Z</time>
      </trkpt>
      <trkpt lat="44.60479" lon="6.07357">
        <ele>1265</ele>
        <time>2018-11-09T18:12:09Z</time>
      </trkpt>
      <trkpt lat="44.60428" lon="6.07281">
        <ele>1270</ele>
        <time>2018-11-09T18:13:09Z</time>
      </trkpt>
      <trkpt lat="44.60417" lon="6.0718">
        <ele>1278</ele>
        <time>2018-11-09T18:14:09Z</time>
      </trkpt>
      <trkpt lat="44.60402" lon="6.07148">
        <ele>1280</ele>
        <time>2018-11-09T18:15:09Z</time>
      </trkpt>
      <trkpt lat="44.60304" lon="6.07024">
        <ele>1287</ele>
        <time>2018-11-09T18:16:09Z</time>
      </trkpt>
      <trkpt lat="44.60244" lon="6.06966">
        <ele>1291</ele>
        <time>2018-11-09T18:17:09Z</time>
      </trkpt>
      <trkpt lat="44.60233" lon="6.06936">
        <ele>1293</ele>
        <time>2018-11-09T18:18:09Z</time>
      </trkpt>
      <trkpt lat="44.6023" lon="6.0687">
        <ele>1301</ele>
        <time>2018-11-09T18:19:09Z</time>
      </trkpt>
      <trkpt lat="44.60183" lon="6.06831">
        <ele>1303</ele>
        <time>2018-11-09T18:20:09Z</time>
      </trkpt>
      <trkpt lat="44.60133" lon="6.06807">
        <ele>1302</ele>
        <time>2018-11-09T18:21:09Z</time>
      </trkpt>
      <trkpt lat="44.60113" lon="6.06792">
        <ele>1302</ele>
        <time>2018-11-09T18:22:09Z</time>
      </trkpt>
      <trkpt lat="44.60128" lon="6.06768">
        <ele>1305</ele>
        <time>2018-11-09T18:23:09Z</time>
      </trkpt>
      <trkpt lat="44.60176" lon="6.06781">
        <ele>1309</ele>
        <time>2018-11-09T18:24:09Z</time>
      </trkpt>
      <trkpt lat="44.60199" lon="6.06771">
        <ele>1311</ele>
        <time>2018-11-09T18:25:09Z</time>
      </trkpt>
      <trkpt lat="44.60209" lon="6.06739">
        <ele>1315</ele>
        <time>2018-11-09T18:26:09Z</time>
      </trkpt>
      <trkpt lat="44.60181" lon="6.06609">
        <ele>1325</ele>
        <time>2018-11-09T18:27:09Z</time>
      </trkpt>
      <trkpt lat="44.60189" lon="6.06395">
        <ele>1350</ele>
        <time>2018-11-09T18:28:09Z</time>
      </trkpt>
      <trkpt lat="44.60199" lon="6.06363">
        <ele>1356</ele>
        <time>2018-11-09T18:29:09Z</time>
      </trkpt>
      <trkpt lat="44.6022" lon="6.0635">
        <ele>1358</ele>
        <time>2018-11-09T18:30:09Z</time>
      </trkpt>
      <trkpt lat="44.60269" lon="6.06341">
        <ele>1364</ele>
        <time>2018-11-09T18:31:09Z</time>
      </trkpt>
      <trkpt lat="44.60289" lon="6.06323">
        <ele>1371</ele>
        <time>2018-11-09T18:32:09Z</time>
      </trkpt>
      <trkpt lat="44.60168" lon="6.06261">
        <ele>1375</ele>
        <time>2018-11-09T18:33:09Z</time>
      </trkpt>
      <trkpt lat="44.6012" lon="6.06247">
        <ele>1376</ele>
        <time>2018-11-09T18:34:09Z</time>
      </trkpt>
      <trkpt lat="44.6014" lon="6.06223">
        <ele>1382</ele>
        <time>2018-11-09T18:35:09Z</time>
      </trkpt>
      <trkpt lat="44.6022" lon="6.06218">
        <ele>1388</ele>
        <time>2018-11-09T18:36:09Z</time>
      </trkpt>
      <trkpt lat="44.60218" lon="6.06185">
        <ele>1396</ele>
        <time>2018-11-09T18:37:09Z</time>
      </trkpt>
      <trkpt lat="44.60175" lon="6.06154">
        <ele>1401</ele>
        <time>2018-11-09T18:38:09Z</time>
      </trkpt>
      <trkpt lat="44.60221" lon="6.06156">
        <ele>1405</ele>
        <time>2018-11-09T18:39:09Z</time>
      </trkpt>
      <trkpt lat="44.6027" lon="6.06146">
        <ele>1416</ele>
        <time>2018-11-09T18:40:09Z</time>
      </trkpt>
      <trkpt lat="44.60316" lon="6.06156">
        <ele>1425</ele>
        <time>2018-11-09T18:41:09Z</time>
      </trkpt>
      <trkpt lat="44.60359" lon="6.06182">
        <ele>1426</ele>
        <time>2018-11-09T18:42:09Z</time>
      </trkpt>
      <trkpt lat="44.6043" lon="6.0617">
        <ele>1444</ele>
        <time>2018-11-09T18:43:09Z</time>
      </trkpt>
      <trkpt lat="44.60454" lon="6.06175">
        <ele>1444</ele>
        <time>2018-11-09T18:44:09Z</time>
      </trkpt>
      <trkpt lat="44.60496" lon="6.06152">
        <ele>1453</ele>
        <time>2018-11-09T18:45:09Z</time>
      </trkpt>
      <trkpt lat="44.60538" lon="6.06176">
        <ele>1457</ele>
        <time>2018-11-09T18:46:09Z</time>
      </trkpt>
      <trkpt lat="44.60571" lon="6.06222">
        <ele>1454</ele>
        <time>2018-11-09T18:47:09Z</time>
      </trkpt>
      <trkpt lat="44.60584" lon="6.0625">
        <ele>1450</ele>
        <time>2018-11-09T18:48:09Z</time>
      </trkpt>
      <trkpt lat="44.60677" lon="6.06233">
        <ele>1466</ele>
        <time>2018-11-09T18:49:09Z</time>
      </trkpt>
      <trkpt lat="44.60722" lon="6.06214">
        <ele>1474</ele>
        <time>2018-11-09T18:50:09Z</time>
      </trkpt>
      <trkpt lat="44.6084" lon="6.06206">
        <ele>1486</ele>
        <time>2018-11-09T18:51:09Z</time>
      </trkpt>
      <trkpt lat="44.60886" lon="6.06197">
        <ele>1490</ele>
        <time>2018-11-09T18:52:09Z</time>
      </trkpt>
      <trkpt lat="44.6093" lon="6.06172">
        <ele>1496</ele>
        <time>2018-11-09T18:53:09Z</time>
      </trkpt>
      <trkpt lat="44.60947" lon="6.06149">
        <ele>1501</ele>
        <time>2018-11-09T18:54:09Z</time>
      </trkpt>
      <trkpt lat="44.60902" lon="6.06126">
        <ele>1508</ele>
        <time>2018-11-09T18:55:09Z</time>
      </trkpt>
      <trkpt lat="44.60855" lon="6.06113">
        <ele>1512</ele>
        <time>2018-11-09T18:56:09Z</time>
      </trkpt>
      <trkpt lat="44.607" lon="6.06018">
        <ele>1527</ele>
        <time>2018-11-09T18:57:09Z</time>
      </trkpt>
      <trkpt lat="44.60651" lon="6.06023">
        <ele>1521</ele>
        <time>2018-11-09T18:58:09Z</time>
      </trkpt>
      <trkpt lat="44.60628" lon="6.06007">
        <ele>1522</ele>
        <time>2018-11-09T18:59:09Z</time>
      </trkpt>
      <trkpt lat="44.60561" lon="6.05907">
        <ele>1533</ele>
        <time>2018-11-09T19:00:09Z</time>
      </trkpt>
      <trkpt lat="44.60531" lon="6.05847">
        <ele>1540</ele>
        <time>2018-11-09T19:01:09Z</time>
      </trkpt>
      <trkpt lat="44.60508" lon="6.05832">
        <ele>1538</ele>
        <time>2018-11-09T19:02:09Z</time>
      </trkpt>
      <trkpt lat="44.60531" lon="6.05827">
        <ele>1544</ele>
        <time>2018-11-09T19:03:09Z</time>
      </trkpt>
      <trkpt lat="44.60593" lon="6.05914">
        <ele>1538</ele>
        <time>2018-11-09T19:04:09Z</time>
      </trkpt>
      <trkpt lat="44.60621" lon="6.05927">
        <ele>1538</ele>
        <time>2018-11-09T19:05:09Z</time>
      </trkpt>
      <trkpt lat="44.60644" lon="6.05926">
        <ele>1541</ele>
        <time>2018-11-09T19:06:09Z</time>
      </trkpt>
      <trkpt lat="44.60693" lon="6.05852">
        <ele>1557</ele>
        <time>2018-11-09T19:07:09Z</time>
      </trkpt>
      <trkpt lat="44.60715" lon="6.0584">
        <ele>1559</ele>
        <time>2018-11-09T19:08:09Z</time>
      </trkpt>
      <trkpt lat="44.60737" lon="6.05854">
        <ele>1557</ele>
        <time>2018-11-09T19:09:09Z</time>
      </trkpt>
      <trkpt lat="44.60762" lon="6.05857">
        <ele>1556</ele>
        <time>2018-11-09T19:10:09Z</time>
      </trkpt>
      <trkpt lat="44.60779" lon="6.05837">
        <ele>1559</ele>
        <time>2018-11-09T19:11:09Z</time>
      </trkpt>
      <trkpt lat="44.60778" lon="6.05804">
        <ele>1563</ele>
        <time>2018-11-09T19:12:09Z</time>
      </trkpt>
      <trkpt lat="44.60765" lon="6.05775">
        <ele>1567</ele>
        <time>2018-11-09T19:13:09Z</time>
      </trkpt>
      <trkpt lat="44.60765" lon="6.05742">
        <ele>1571</ele>
        <time>2018-11-09T19:14:09Z</time>
      </trkpt>
      <trkpt lat="44.60831" lon="6.05706">
        <ele>1578</ele>
        <time>2018-11-09T19:15:09Z</time>
      </trkpt>
      <trkpt lat="44.6087" lon="6.05664">
        <ele>1584</ele>
        <time>2018-11-09T19:16:09Z</time>
      </trkpt>
      <trkpt lat="44.60949" lon="6.05601">
        <ele>1592</ele>
        <time>2018-11-09T19:17:09Z</time>
      </trkpt>
      <trkpt lat="44.60972" lon="6.05594">
        <ele>1592</ele>
        <time>2018-11-09T19:18:09Z</time>
      </trkpt>
      <trkpt lat="44.61097" lon="6.05494">
        <ele>1610</ele>
        <time>2018-11-09T19:19:09Z</time>
      </trkpt>
      <trkpt lat="44.61189" lon="6.05467">
        <ele>1608</ele>
        <time>2018-11-09T19:20:09Z</time>
      </trkpt>
      <trkpt lat="44.61212" lon="6.05452">
        <ele>1610</ele>
        <time>2018-11-09T19:21:09Z</time>
      </trkpt>
      <trkpt lat="44.61259" lon="6.05382">
        <ele>1619</ele>
        <time>2018-11-09T19:22:09Z</time>
      </trkpt>
      <trkpt lat="44.61235" lon="6.05373">
        <ele>1624</ele>
        <time>2018-11-09T19:23:09Z</time>
      </trkpt>
      <trkpt lat="44.61192" lon="6.054">
        <ele>1625</ele>
        <time>2018-11-09T19:24:09Z</time>
      </trkpt>
      <trkpt lat="44.61143" lon="6.05413">
        <ele>1627</ele>
        <time>2018-11-09T19:25:09Z</time>
      </trkpt>
      <trkpt lat="44.61158" lon="6.05387">
        <ele>1632</ele>
        <time>2018-11-09T19:26:09Z</time>
      </trkpt>
      <trkpt lat="44.61189" lon="6.05361">
        <ele>1633</ele>
        <time>2018-11-09T19:27:09Z</time>
      </trkpt>
      <trkpt lat="44.61212" lon="6.05327">
        <ele>1637</ele>
        <time>2018-11-09T19:28:09Z</time>
      </trkpt>
      <trkpt lat="44.61257" lon="6.05306">
        <ele>1636</ele>
        <time>2018-11-09T19:29:09Z</time>
      </trkpt>
      <trkpt lat="44.61273" lon="6.0528">
        <ele>1644</ele>
        <time>2018-11-09T19:30:09Z</time>
      </trkpt>
      <trkpt lat="44.61365" lon="6.05259">
        <ele>1645</ele>
        <time>2018-11-09T19:31:09Z</time>
      </trkpt>
      <trkpt lat="44.61409" lon="6.05225">
        <ele>1655</ele>
        <time>2018-11-09T19:32:09Z</time>
      </trkpt>
      <trkpt lat="44.61476" lon="6.05192">
        <ele>1664</ele>
        <time>2018-11-09T19:33:09Z</time>
      </trkpt>
      <trkpt lat="44.61595" lon="6.05168">
        <ele>1669</ele>
        <time>2018-11-09T19:34:09Z</time>
      </trkpt>
      <trkpt lat="44.61732" lon="6.05117">
        <ele>1679</ele>
        <time>2018-11-09T19:35:09Z</time>
      </trkpt>
      <trkpt lat="44.61868" lon="6.05054">
        <ele>1687</ele>
        <time>2018-11-09T19:36:09Z</time>
      </trkpt>
      <trkpt lat="44.61984" lon="6.05011">
        <ele>1690</ele>
        <time>2018-11-09T19:37:09Z</time>
      </trkpt>
      <trkpt lat="44.62049" lon="6.04959">
        <ele>1698</ele>
        <time>2018-11-09T19:38:09Z</time>
      </trkpt>
      <trkpt lat="44.62143" lon="6.04913">
        <ele>1695</ele>
        <time>2018-11-09T19:39:09Z</time>
      </trkpt>
      <trkpt lat="44.62179" lon="6.04869">
        <ele>1698</ele>
        <time>2018-11-09T19:40:09Z</time>
      </trkpt>
      <trkpt lat="44.62213" lon="6.04809">
        <ele>1701</ele>
        <time>2018-11-09T19:41:09Z</time>
      </trkpt>
      <trkpt lat="44.62282" lon="6.04799">
        <ele>1697</ele>
        <time>2018-11-09T19:42:09Z</time>
      </trkpt>
      <trkpt lat="44.62295" lon="6.04796">
        <ele>1699</ele>
        <time>2018-11-09T19:43:09Z</time>
      </trkpt>
      <trkpt lat="44.62302" lon="6.04793">
        <ele>1701</ele>
        <time>2018-11-09T19:44:09Z</time>
      </trkpt>
      <trkpt lat="44.62318" lon="6.04788">
        <ele>1703</ele>
        <time>2018-11-09T19:45:09Z</time>
      </trkpt>
      <trkpt lat="44.62336" lon="6.0479">
        <ele>1706</ele>
        <time>2018-11-09T19:46:09Z</time>
      </trkpt>
      <trkpt lat="44.62342" lon="6.04794">
        <ele>1707</ele>
        <time>2018-11-09T19:47:09Z</time>
      </trkpt>
      <trkpt lat="44.62351" lon="6.04804">
        <ele>1709</ele>
        <time>2018-11-09T19:48:09Z</time>
      </trkpt>
      <trkpt lat="44.62356" lon="6.04817">
        <ele>1708</ele>
        <time>2018-11-09T19:49:09Z</time>
      </trkpt>
      <trkpt lat="44.62355" lon="6.04846">
        <ele>1703</ele>
        <time>2018-11-09T19:50:09Z</time>
      </trkpt>
      <trkpt lat="44.62354" lon="6.04863">
        <ele>1701</ele>
        <time>2018-11-09T19:51:09Z</time>
      </trkpt>
      <trkpt lat="44.62356" lon="6.04878">
        <ele>1699</ele>
        <time>2018-11-09T19:52:09Z</time>
      </trkpt>
      <trkpt lat="44.62357" lon="6.04901">
        <ele>1697</ele>
        <time>2018-11-09T19:53:09Z</time>
      </trkpt>
      <trkpt lat="44.62353" lon="6.0492">
        <ele>1693</ele>
        <time>2018-11-09T19:54:09Z</time>
      </trkpt>
      <trkpt lat="44.62353" lon="6.04931">
        <ele>1692</ele>
        <time>2018-11-09T19:55:09Z</time>
      </trkpt>
      <trkpt lat="44.62354" lon="6.0494">
        <ele>1691</ele>
        <time>2018-11-09T19:56:09Z</time>
      </trkpt>
      <trkpt lat="44.6236" lon="6.04964">
        <ele>1691</ele>
        <time>2018-11-09T19:57:09Z</time>
      </trkpt>
      <trkpt lat="44.62366" lon="6.04977">
        <ele>1692</ele>
        <time>2018-11-09T19:58:09Z</time>
      </trkpt>
      <trkpt lat="44.62368" lon="6.04988">
        <ele>1692</ele>
        <time>2018-11-09T19:59:09Z</time>
      </trkpt>
      <trkpt lat="44.6237" lon="6.05011">
        <ele>1690</ele>
        <time>2018-11-09T20:00:09Z</time>
      </trkpt>
      <trkpt lat="44.62373" lon="6.05015">
        <ele>1691</ele>
        <time>2018-11-09T20:01:09Z</time>
      </trkpt>
      <trkpt lat="44.62375" lon="6.0502">
        <ele>1691</ele>
        <time>2018-11-09T20:02:09Z</time>
      </trkpt>
      <trkpt lat="44.62393" lon="6.05048">
        <ele>1694</ele>
        <time>2018-11-09T20:03:09Z</time>
      </trkpt>
      <trkpt lat="44.62395" lon="6.05049">
        <ele>1695</ele>
        <time>2018-11-09T20:04:09Z</time>
      </trkpt>
      <trkpt lat="44.62396" lon="6.05055">
        <ele>1695</ele>
        <time>2018-11-09T20:05:09Z</time>
      </trkpt>
      <trkpt lat="44.62398" lon="6.05061">
        <ele>1695</ele>
        <time>2018-11-09T20:06:09Z</time>
      </trkpt>
      <trkpt lat="44.62408" lon="6.05075">
        <ele>1696</ele>
        <time>2018-11-09T20:07:09Z</time>
      </trkpt>
      <trkpt lat="44.62421" lon="6.0509">
        <ele>1698</ele>
        <time>2018-11-09T20:08:09Z</time>
      </trkpt>
      <trkpt lat="44.62427" lon="6.05097">
        <ele>1699</ele>
        <time>2018-11-09T20:09:09Z</time>
      </trkpt>
      <trkpt lat="44.62446" lon="6.05111">
        <ele>1702</ele>
        <time>2018-11-09T20:10:09Z</time>
      </trkpt>
      <trkpt lat="44.62449" lon="6.05115">
        <ele>1702</ele>
        <time>2018-11-09T20:11:09Z</time>
      </trkpt>
      <trkpt lat="44.62455" lon="6.05125">
        <ele>1702</ele>
        <time>2018-11-09T20:12:09Z</time>
      </trkpt>
      <trkpt lat="44.62457" lon="6.05148">
        <ele>1698</ele>
        <time>2018-11-09T20:13:09Z</time>
      </trkpt>
      <trkpt lat="44.6246" lon="6.05169">
        <ele>1694</ele>
        <time>2018-11-09T20:14:09Z</time>
      </trkpt>
      <trkpt lat="44.62464" lon="6.0519">
        <ele>1693</ele>
        <time>2018-11-09T20:15:09Z</time>
      </trkpt>
      <trkpt lat="44.62469" lon="6.05196">
        <ele>1693</ele>
        <time>2018-11-09T20:16:09Z</time>
      </trkpt>
      <trkpt lat="44.6247" lon="6.05208">
        <ele>1692</ele>
        <time>2018-11-09T20:17:09Z</time>
      </trkpt>
      <trkpt lat="44.6248" lon="6.0526">
        <ele>1689</ele>
        <time>2018-11-09T20:18:09Z</time>
      </trkpt>
      <trkpt lat="44.62481" lon="6.05264">
        <ele>1689</ele>
        <time>2018-11-09T20:19:09Z</time>
      </trkpt>
      <trkpt lat="44.62486" lon="6.05278">
        <ele>1689</ele>
        <time>2018-11-09T20:20:09Z</time>
      </trkpt>
      <trkpt lat="44.62491" lon="6.05297">
        <ele>1689</ele>
        <time>2018-11-09T20:21:09Z</time>
      </trkpt>
      <trkpt lat="44.62495" lon="6.05308">
        <ele>1690</ele>
        <time>2018-11-09T20:22:09Z</time>
      </trkpt>
      <trkpt lat="44.62497" lon="6.05314">
        <ele>1690</ele>
        <time>2018-11-09T20:23:09Z</time>
      </trkpt>
      <trkpt lat="44.62499" lon="6.05331">
        <ele>1689</ele>
        <time>2018-11-09T20:24:09Z</time>
      </trkpt>
      <trkpt lat="44.62498" lon="6.05352">
        <ele>1688</ele>
        <time>2018-11-09T20:25:09Z</time>
      </trkpt>
      <trkpt lat="44.62498" lon="6.05357">
        <ele>1687</ele>
        <time>2018-11-09T20:26:09Z</time>
      </trkpt>
      <trkpt lat="44.62505" lon="6.05379">
        <ele>1688</ele>
        <time>2018-11-09T20:27:09Z</time>
      </trkpt>
      <trkpt lat="44.62509" lon="6.05391">
        <ele>1688</ele>
        <time>2018-11-09T20:28:09Z</time>
      </trkpt>
      <trkpt lat="44.62511" lon="6.05395">
        <ele>1688</ele>
        <time>2018-11-09T20:29:09Z</time>
      </trkpt>
      <trkpt lat="44.62517" lon="6.05405">
        <ele>1689</ele>
        <time>2018-11-09T20:30:09Z</time>
      </trkpt>
      <trkpt lat="44.62526" lon="6.05427">
        <ele>1688</ele>
        <time>2018-11-09T20:31:09Z</time>
      </trkpt>
      <trkpt lat="44.62531" lon="6.05434">
        <ele>1688</ele>
        <time>2018-11-09T20:32:09Z</time>
      </trkpt>
      <trkpt lat="44.62533" lon="6.05446">
        <ele>1688</ele>
        <time>2018-11-09T20:33:09Z</time>
      </trkpt>
      <trkpt lat="44.62535" lon="6.05451">
        <ele>1687</ele>
        <time>2018-11-09T20:34:09Z</time>
      </trkpt>
      <trkpt lat="44.62546" lon="6.05457">
        <ele>1688</ele>
        <time>2018-11-09T20:35:09Z</time>
      </trkpt>
      <trkpt lat="44.62567" lon="6.0548">
        <ele>1688</ele>
        <time>2018-11-09T20:36:09Z</time>
      </trkpt>
      <trkpt lat="44.62578" lon="6.05486">
        <ele>1688</ele>
        <time>2018-11-09T20:37:09Z</time>
      </trkpt>
      <trkpt lat="44.62588" lon="6.05485">
        <ele>1690</ele>
        <time>2018-11-09T20:38:09Z</time>
      </trkpt>
      <trkpt lat="44.62603" lon="6.05497">
        <ele>1689</ele>
        <time>2018-11-09T20:39:09Z</time>
      </trkpt>
      <trkpt lat="44.62613" lon="6.05502">
        <ele>1689</ele>
        <time>2018-11-09T20:40:09Z</time>
      </trkpt>
      <trkpt lat="44.62628" lon="6.05513">
        <ele>1688</ele>
        <time>2018-11-09T20:41:09Z</time>
      </trkpt>
      <trkpt lat="44.62642" lon="6.05507">
        <ele>1690</ele>
        <time>2018-11-09T20:42:09Z</time>
      </trkpt>
      <trkpt lat="44.62648" lon="6.05504">
        <ele>1691</ele>
        <time>2018-11-09T20:43:09Z</time>
      </trkpt>
      <trkpt lat="44.62659" lon="6.05505">
        <ele>1692</ele>
        <time>2018-11-09T20:44:09Z</time>
      </trkpt>
      <trkpt lat="44.62684" lon="6.05502">
        <ele>1693</ele>
        <time>2018-11-09T20:45:09Z</time>
      </trkpt>
      <trkpt lat="44.62692" lon="6.05505">
        <ele>1692</ele>
        <time>2018-11-09T20:46:09Z</time>
      </trkpt>
      <trkpt lat="44.62707" lon="6.05504">
        <ele>1692</ele>
        <time>2018-11-09T20:47:09Z</time>
      </trkpt>
      <trkpt lat="44.62717" lon="6.05506">
        <ele>1691</ele>
        <time>2018-11-09T20:48:09Z</time>
      </trkpt>
      <trkpt lat="44.62728" lon="6.05509">
        <ele>1690</ele>
        <time>2018-11-09T20:49:09Z</time>
      </trkpt>
      <trkpt lat="44.62736" lon="6.05514">
        <ele>1688</ele>
        <time>2018-11-09T20:50:09Z</time>
      </trkpt>
      <trkpt lat="44.62745" lon="6.05516">
        <ele>1687</ele>
        <time>2018-11-09T20:51:09Z</time>
      </trkpt>
      <trkpt lat="44.62756" lon="6.05524">
        <ele>1684</ele>
        <time>2018-11-09T20:52:09Z</time>
      </trkpt>
      <trkpt lat="44.62764" lon="6.0553">
        <ele>1681</ele>
        <time>2018-11-09T20:53:09Z</time>
      </trkpt>
      <trkpt lat="44.6278" lon="6.05536">
        <ele>1679</ele>
        <time>2018-11-09T20:54:09Z</time>
      </trkpt>
      <trkpt lat="44.62785" lon="6.05538">
        <ele>1678</ele>
        <time>2018-11-09T20:55:09Z</time>
      </trkpt>
      <trkpt lat="44.62802" lon="6.05534">
        <ele>1678</ele>
        <time>2018-11-09T20:56:09Z</time>
      </trkpt>
      <trkpt lat="44.62808" lon="6.05536">
        <ele>1677</ele>
        <time>2018-11-09T20:57:09Z</time>
      </trkpt>
      <trkpt lat="44.62815" lon="6.05534">
        <ele>1678</ele>
        <time>2018-11-09T20:58:09Z</time>
      </trkpt>
      <trkpt lat="44.62827" lon="6.0553">
        <ele>1678</ele>
        <time>2018-11-09T20:59:09Z</time>
      </trkpt>
      <trkpt lat="44.6284" lon="6.05529">
        <ele>1678</ele>
        <time>2018-11-09T21:00:09Z</time>
      </trkpt>
      <trkpt lat="44.62856" lon="6.05526">
        <ele>1678</ele>
        <time>2018-11-09T21:01:09Z</time>
      </trkpt>
      <trkpt lat="44.62873" lon="6.05531">
        <ele>1677</ele>
        <time>2018-11-09T21:02:09Z</time>
      </trkpt>
      <trkpt lat="44.62887" lon="6.05535">
        <ele>1676</ele>
        <time>2018-11-09T21:03:09Z</time>
      </trkpt>
      <trkpt lat="44.62898" lon="6.05541">
        <ele>1675</ele>
        <time>2018-11-09T21:04:09Z</time>
      </trkpt>
      <trkpt lat="44.6293" lon="6.05553">
        <ele>1672</ele>
        <time>2018-11-09T21:05:09Z</time>
      </trkpt>
      <trkpt lat="44.62937" lon="6.05559">
        <ele>1671</ele>
        <time>2018-11-09T21:06:09Z</time>
      </trkpt>
      <trkpt lat="44.62944" lon="6.05559">
        <ele>1671</ele>
        <time>2018-11-09T21:07:09Z</time>
      </trkpt>
      <trkpt lat="44.62952" lon="6.05556">
        <ele>1672</ele>
        <time>2018-11-09T21:08:09Z</time>
      </trkpt>
      <trkpt lat="44.62978" lon="6.05535">
        <ele>1675</ele>
        <time>2018-11-09T21:09:09Z</time>
      </trkpt>
      <trkpt lat="44.62983" lon="6.05534">
        <ele>1675</ele>
        <time>2018-11-09T21:10:09Z</time>
      </trkpt>
      <trkpt lat="44.6299" lon="6.05539">
        <ele>1674</ele>
        <time>2018-11-09T21:11:09Z</time>
      </trkpt>
      <trkpt lat="44.62998" lon="6.05537">
        <ele>1674</ele>
        <time>2018-11-09T21:12:09Z</time>
      </trkpt>
      <trkpt lat="44.63" lon="6.05534">
        <ele>1675</ele>
        <time>2018-11-09T21:13:09Z</time>
      </trkpt>
      <trkpt lat="44.63006" lon="6.05535">
        <ele>1674</ele>
        <time>2018-11-09T21:14:09Z</time>
      </trkpt>
      <trkpt lat="44.63018" lon="6.05534">
        <ele>1674</ele>
        <time>2018-11-09T21:15:09Z</time>
      </trkpt>
      <trkpt lat="44.6303" lon="6.05536">
        <ele>1674</ele>
        <time>2018-11-09T21:16:09Z</time>
      </trkpt>
      <trkpt lat="44.63049" lon="6.05544">
        <ele>1672</ele>
        <time>2018-11-09T21:17:09Z</time>
      </trkpt>
      <trkpt lat="44.63051" lon="6.05546">
        <ele>1672</ele>
        <time>2018-11-09T21:18:09Z</time>
      </trkpt>
      <trkpt lat="44.63055" lon="6.05556">
        <ele>1671</ele>
        <time>2018-11-09T21:19:09Z</time>
      </trkpt>
      <trkpt lat="44.63051" lon="6.05572">
        <ele>1669</ele>
        <time>2018-11-09T21:20:09Z</time>
      </trkpt>
      <trkpt lat="44.6305" lon="6.05578">
        <ele>1668</ele>
        <time>2018-11-09T21:21:09Z</time>
      </trkpt>
      <trkpt lat="44.63053" lon="6.05608">
        <ele>1665</ele>
        <time>2018-11-09T21:22:09Z</time>
      </trkpt>
      <trkpt lat="44.6306" lon="6.05625">
        <ele>1664</ele>
        <time>2018-11-09T21:23:09Z</time>
      </trkpt>
      <trkpt lat="44.63064" lon="6.05639">
        <ele>1663</ele>
        <time>2018-11-09T21:24:09Z</time>
      </trkpt>
      <trkpt lat="44.63064" lon="6.05661">
        <ele>1661</ele>
        <time>2018-11-09T21:25:09Z</time>
      </trkpt>
      <trkpt lat="44.63067" lon="6.05674">
        <ele>1659</ele>
        <time>2018-11-09T21:26:09Z</time>
      </trkpt>
      <trkpt lat="44.63066" lon="6.0568">
        <ele>1658</ele>
        <time>2018-11-09T21:27:09Z</time>
      </trkpt>
      <trkpt lat="44.63064" lon="6.05683">
        <ele>1658</ele>
        <time>2018-11-09T21:28:09Z</time>
      </trkpt>
      <trkpt lat="44.63061" lon="6.05703">
        <ele>1655</ele>
        <time>2018-11-09T21:29:09Z</time>
      </trkpt>
      <trkpt lat="44.63059" lon="6.05706">
        <ele>1655</ele>
        <time>2018-11-09T21:30:09Z</time>
      </trkpt>
      <trkpt lat="44.63049" lon="6.05726">
        <ele>1652</ele>
        <time>2018-11-09T21:31:09Z</time>
      </trkpt>
      <trkpt lat="44.63044" lon="6.05731">
        <ele>1651</ele>
        <time>2018-11-09T21:32:09Z</time>
      </trkpt>
      <trkpt lat="44.63031" lon="6.05742">
        <ele>1650</ele>
        <time>2018-11-09T21:33:09Z</time>
      </trkpt>
      <trkpt lat="44.63026" lon="6.05746">
        <ele>1649</ele>
        <time>2018-11-09T21:34:09Z</time>
      </trkpt>
      <trkpt lat="44.63014" lon="6.05751">
        <ele>1649</ele>
        <time>2018-11-09T21:35:09Z</time>
      </trkpt>
      <trkpt lat="44.63014" lon="6.05748">
        <ele>1649</ele>
        <time>2018-11-09T21:36:09Z</time>
      </trkpt>
      <trkpt lat="44.63006" lon="6.05749">
        <ele>1649</ele>
        <time>2018-11-09T21:37:09Z</time>
      </trkpt>
      <trkpt lat="44.63004" lon="6.05745">
        <ele>1650</ele>
        <time>2018-11-09T21:38:09Z</time>
      </trkpt>
      <trkpt lat="44.63002" lon="6.05744">
        <ele>1650</ele>
        <time>2018-11-09T21:39:09Z</time>
      </trkpt>
      <trkpt lat="44.62993" lon="6.0575">
        <ele>1647</ele>
        <time>2018-11-09T21:40:09Z</time>
      </trkpt>
      <trkpt lat="44.62983" lon="6.05753">
        <ele>1644</ele>
        <time>2018-11-09T21:41:09Z</time>
      </trkpt>
      <trkpt lat="44.62973" lon="6.05753">
        <ele>1642</ele>
        <time>2018-11-09T21:42:09Z</time>
      </trkpt>
      <trkpt lat="44.62965" lon="6.05747">
        <ele>1641</ele>
        <time>2018-11-09T21:43:09Z</time>
      </trkpt>
      <trkpt lat="44.62961" lon="6.05733">
        <ele>1643</ele>
        <time>2018-11-09T21:44:09Z</time>
      </trkpt>
      <trkpt lat="44.62945" lon="6.05727">
        <ele>1641</ele>
        <time>2018-11-09T21:45:09Z</time>
      </trkpt>
      <trkpt lat="44.6292" lon="6.05735">
        <ele>1633</ele>
        <time>2018-11-09T21:46:09Z</time>
      </trkpt>
      <trkpt lat="44.62908" lon="6.05733">
        <ele>1632</ele>
        <time>2018-11-09T21:47:09Z</time>
      </trkpt>
      <trkpt lat="44.62903" lon="6.05728">
        <ele>1632</ele>
        <time>2018-11-09T21:48:09Z</time>
      </trkpt>
      <trkpt lat="44.62893" lon="6.05724">
        <ele>1632</ele>
        <time>2018-11-09T21:49:09Z</time>
      </trkpt>
      <trkpt lat="44.6289" lon="6.0572">
        <ele>1632</ele>
        <time>2018-11-09T21:50:09Z</time>
      </trkpt>
      <trkpt lat="44.62887" lon="6.05717">
        <ele>1633</ele>
        <time>2018-11-09T21:51:09Z</time>
      </trkpt>
      <trkpt lat="44.62884" lon="6.0571">
        <ele>1634</ele>
        <time>2018-11-09T21:52:09Z</time>
      </trkpt>
      <trkpt lat="44.62881" lon="6.05705">
        <ele>1635</ele>
        <time>2018-11-09T21:53:09Z</time>
      </trkpt>
      <trkpt lat="44.62872" lon="6.057">
        <ele>1635</ele>
        <time>2018-11-09T21:54:09Z</time>
      </trkpt>
      <trkpt lat="44.62858" lon="6.05701">
        <ele>1632</ele>
        <time>2018-11-09T21:55:09Z</time>
      </trkpt>
      <trkpt lat="44.62846" lon="6.05705">
        <ele>1630</ele>
        <time>2018-11-09T21:56:09Z</time>
      </trkpt>
      <trkpt lat="44.62827" lon="6.05704">
        <ele>1628</ele>
        <time>2018-11-09T21:57:09Z</time>
      </trkpt>
      <trkpt lat="44.62812" lon="6.05703">
        <ele>1628</ele>
        <time>2018-11-09T21:58:09Z</time>
      </trkpt>
      <trkpt lat="44.62794" lon="6.05701">
        <ele>1628</ele>
        <time>2018-11-09T21:59:09Z</time>
      </trkpt>
      <trkpt lat="44.62791" lon="6.05701">
        <ele>1628</ele>
        <time>2018-11-09T22:00:09Z</time>
      </trkpt>
      <trkpt lat="44.62788" lon="6.057">
        <ele>1628</ele>
        <time>2018-11-09T22:01:09Z</time>
      </trkpt>
      <trkpt lat="44.62774" lon="6.05702">
        <ele>1628</ele>
        <time>2018-11-09T22:02:09Z</time>
      </trkpt>
      <trkpt lat="44.62766" lon="6.05704">
        <ele>1627</ele>
        <time>2018-11-09T22:03:09Z</time>
      </trkpt>
      <trkpt lat="44.62745" lon="6.05711">
        <ele>1625</ele>
        <time>2018-11-09T22:04:09Z</time>
      </trkpt>
      <trkpt lat="44.62734" lon="6.05722">
        <ele>1624</ele>
        <time>2018-11-09T22:05:09Z</time>
      </trkpt>
      <trkpt lat="44.62721" lon="6.05737">
        <ele>1621</ele>
        <time>2018-11-09T22:06:09Z</time>
      </trkpt>
      <trkpt lat="44.62711" lon="6.05751">
        <ele>1619</ele>
        <time>2018-11-09T22:07:09Z</time>
      </trkpt>
      <trkpt lat="44.62703" lon="6.05767">
        <ele>1616</ele>
        <time>2018-11-09T22:08:09Z</time>
      </trkpt>
      <trkpt lat="44.62702" lon="6.05771">
        <ele>1615</ele>
        <time>2018-11-09T22:09:09Z</time>
      </trkpt>
      <trkpt lat="44.627" lon="6.05793">
        <ele>1611</ele>
        <time>2018-11-09T22:10:09Z</time>
      </trkpt>
      <trkpt lat="44.62699" lon="6.05808">
        <ele>1607</ele>
        <time>2018-11-09T22:11:09Z</time>
      </trkpt>
      <trkpt lat="44.627" lon="6.05822">
        <ele>1604</ele>
        <time>2018-11-09T22:12:09Z</time>
      </trkpt>
      <trkpt lat="44.62704" lon="6.05841">
        <ele>1599</ele>
        <time>2018-11-09T22:13:09Z</time>
      </trkpt>
      <trkpt lat="44.62713" lon="6.05863">
        <ele>1594</ele>
        <time>2018-11-09T22:14:09Z</time>
      </trkpt>
      <trkpt lat="44.62715" lon="6.05865">
        <ele>1594</ele>
        <time>2018-11-09T22:15:09Z</time>
      </trkpt>
      <trkpt lat="44.6273" lon="6.05869">
        <ele>1592</ele>
        <time>2018-11-09T22:16:09Z</time>
      </trkpt>
      <trkpt lat="44.62731" lon="6.0587">
        <ele>1592</ele>
        <time>2018-11-09T22:17:09Z</time>
      </trkpt>
      <trkpt lat="44.62732" lon="6.05872">
        <ele>1591</ele>
        <time>2018-11-09T22:18:09Z</time>
      </trkpt>
      <trkpt lat="44.62735" lon="6.05886">
        <ele>1588</ele>
        <time>2018-11-09T22:19:09Z</time>
      </trkpt>
      <trkpt lat="44.62735" lon="6.05887">
        <ele>1588</ele>
        <time>2018-11-09T22:20:09Z</time>
      </trkpt>
      <trkpt lat="44.62743" lon="6.05879">
        <ele>1589</ele>
        <time>2018-11-09T22:21:09Z</time>
      </trkpt>
      <trkpt lat="44.6275" lon="6.05868">
        <ele>1591</ele>
        <time>2018-11-09T22:22:09Z</time>
      </trkpt>
      <trkpt lat="44.62753" lon="6.05863">
        <ele>1592</ele>
        <time>2018-11-09T22:23:09Z</time>
      </trkpt>
      <trkpt lat="44.62757" lon="6.05841">
        <ele>1595</ele>
        <time>2018-11-09T22:24:09Z</time>
      </trkpt>
      <trkpt lat="44.62759" lon="6.05833">
        <ele>1597</ele>
        <time>2018-11-09T22:25:09Z</time>
      </trkpt>
      <trkpt lat="44.62767" lon="6.05832">
        <ele>1597</ele>
        <time>2018-11-09T22:26:09Z</time>
      </trkpt>
      <trkpt lat="44.62771" lon="6.05833">
        <ele>1597</ele>
        <time>2018-11-09T22:27:09Z</time>
      </trkpt>
      <trkpt lat="44.62777" lon="6.05839">
        <ele>1595</ele>
        <time>2018-11-09T22:28:09Z</time>
      </trkpt>
      <trkpt lat="44.62784" lon="6.0584">
        <ele>1595</ele>
        <time>2018-11-09T22:29:09Z</time>
      </trkpt>
      <trkpt lat="44.628" lon="6.05847">
        <ele>1593</ele>
        <time>2018-11-09T22:30:09Z</time>
      </trkpt>
      <trkpt lat="44.62812" lon="6.05858">
        <ele>1590</ele>
        <time>2018-11-09T22:31:09Z</time>
      </trkpt>
      <trkpt lat="44.6282" lon="6.05866">
        <ele>1587</ele>
        <time>2018-11-09T22:32:09Z</time>
      </trkpt>
      <trkpt lat="44.62825" lon="6.05868">
        <ele>1586</ele>
        <time>2018-11-09T22:33:09Z</time>
      </trkpt>
      <trkpt lat="44.62827" lon="6.0587">
        <ele>1586</ele>
        <time>2018-11-09T22:34:09Z</time>
      </trkpt>
      <trkpt lat="44.62836" lon="6.05878">
        <ele>1584</ele>
        <time>2018-11-09T22:35:09Z</time>
      </trkpt>
      <trkpt lat="44.62841" lon="6.05887">
        <ele>1582</ele>
        <time>2018-11-09T22:36:09Z</time>
      </trkpt>
      <trkpt lat="44.62847" lon="6.05891">
        <ele>1582</ele>
        <time>2018-11-09T22:37:09Z</time>
      </trkpt>
      <trkpt lat="44.62853" lon="6.05898">
        <ele>1581</ele>
        <time>2018-11-09T22:38:09Z</time>
      </trkpt>
      <trkpt lat="44.62852" lon="6.05901">
        <ele>1580</ele>
        <time>2018-11-09T22:39:09Z</time>
      </trkpt>
      <trkpt lat="44.62853" lon="6.05902">
        <ele>1580</ele>
        <time>2018-11-09T22:40:09Z</time>
      </trkpt>
      <trkpt lat="44.62857" lon="6.05906">
        <ele>1579</ele>
        <time>2018-11-09T22:41:09Z</time>
      </trkpt>
      <trkpt lat="44.62868" lon="6.05914">
        <ele>1579</ele>
        <time>2018-11-09T22:42:09Z</time>
      </trkpt>
      <trkpt lat="44.62875" lon="6.05924">
        <ele>1579</ele>
        <time>2018-11-09T22:43:09Z</time>
      </trkpt>
      <trkpt lat="44.62879" lon="6.0593">
        <ele>1578</ele>
        <time>2018-11-09T22:44:09Z</time>
      </trkpt>
      <trkpt lat="44.6288" lon="6.05953">
        <ele>1574</ele>
        <time>2018-11-09T22:45:09Z</time>
      </trkpt>
      <trkpt lat="44.62878" lon="6.05972">
        <ele>1570</ele>
        <time>2018-11-09T22:46:09Z</time>
      </trkpt>
      <trkpt lat="44.62877" lon="6.06002">
        <ele>1564</ele>
        <time>2018-11-09T22:47:09Z</time>
      </trkpt>
      <trkpt lat="44.62877" lon="6.06005">
        <ele>1564</ele>
        <time>2018-11-09T22:48:09Z</time>
      </trkpt>
      <trkpt lat="44.62886" lon="6.06023">
        <ele>1562</ele>
        <time>2018-11-09T22:49:09Z</time>
      </trkpt>
      <trkpt lat="44.62899" lon="6.06034">
        <ele>1561</ele>
        <time>2018-11-09T22:50:09Z</time>
      </trkpt>
      <trkpt lat="44.62905" lon="6.06038">
        <ele>1561</ele>
        <time>2018-11-09T22:51:09Z</time>
      </trkpt>
      <trkpt lat="44.62914" lon="6.06038">
        <ele>1562</ele>
        <time>2018-11-09T22:52:09Z</time>
      </trkpt>
      <trkpt lat="44.62921" lon="6.06037">
        <ele>1563</ele>
        <time>2018-11-09T22:53:09Z</time>
      </trkpt>
      <trkpt lat="44.62931" lon="6.06033">
        <ele>1563</ele>
        <time>2018-11-09T22:54:09Z</time>
      </trkpt>
      <trkpt lat="44.6294" lon="6.06032">
        <ele>1564</ele>
        <time>2018-11-09T22:55:09Z</time>
      </trkpt>
      <trkpt lat="44.62949" lon="6.0603">
        <ele>1564</ele>
        <time>2018-11-09T22:56:09Z</time>
      </trkpt>
      <trkpt lat="44.62957" lon="6.06027">
        <ele>1565</ele>
        <time>2018-11-09T22:57:09Z</time>
      </trkpt>
      <trkpt lat="44.62969" lon="6.06028">
        <ele>1565</ele>
        <time>2018-11-09T22:58:09Z</time>
      </trkpt>
      <trkpt lat="44.62988" lon="6.06026">
        <ele>1565</ele>
        <time>2018-11-09T22:59:09Z</time>
      </trkpt>
      <trkpt lat="44.62992" lon="6.06025">
        <ele>1565</ele>
        <time>2018-11-09T23:00:09Z</time>
      </trkpt>
      <trkpt lat="44.62999" lon="6.06023">
        <ele>1566</ele>
        <time>2018-11-09T23:01:09Z</time>
      </trkpt>
      <trkpt lat="44.63004" lon="6.06023">
        <ele>1566</ele>
        <time>2018-11-09T23:02:09Z</time>
      </trkpt>
      <trkpt lat="44.63009" lon="6.06016">
        <ele>1567</ele>
        <time>2018-11-09T23:03:09Z</time>
      </trkpt>
      <trkpt lat="44.63024" lon="6.0601">
        <ele>1568</ele>
        <time>2018-11-09T23:04:09Z</time>
      </trkpt>
      <trkpt lat="44.63029" lon="6.06006">
        <ele>1569</ele>
        <time>2018-11-09T23:05:09Z</time>
      </trkpt>
      <trkpt lat="44.63043" lon="6.06003">
        <ele>1569</ele>
        <time>2018-11-09T23:06:09Z</time>
      </trkpt>
      <trkpt lat="44.63054" lon="6.05991">
        <ele>1572</ele>
        <time>2018-11-09T23:07:09Z</time>
      </trkpt>
      <trkpt lat="44.63066" lon="6.0599">
        <ele>1572</ele>
        <time>2018-11-09T23:08:09Z</time>
      </trkpt>
      <trkpt lat="44.63078" lon="6.05991">
        <ele>1571</ele>
        <time>2018-11-09T23:09:09Z</time>
      </trkpt>
      <trkpt lat="44.63084" lon="6.0599">
        <ele>1571</ele>
        <time>2018-11-09T23:10:09Z</time>
      </trkpt>
      <trkpt lat="44.63092" lon="6.0599">
        <ele>1572</ele>
        <time>2018-11-09T23:11:09Z</time>
      </trkpt>
      <trkpt lat="44.63102" lon="6.05984">
        <ele>1575</ele>
        <time>2018-11-09T23:12:09Z</time>
      </trkpt>
      <trkpt lat="44.63113" lon="6.05973">
        <ele>1579</ele>
        <time>2018-11-09T23:13:09Z</time>
      </trkpt>
      <trkpt lat="44.6312" lon="6.05963">
        <ele>1582</ele>
        <time>2018-11-09T23:14:09Z</time>
      </trkpt>
      <trkpt lat="44.6312" lon="6.05965">
        <ele>1581</ele>
        <time>2018-11-09T23:15:09Z</time>
      </trkpt>
      <trkpt lat="44.63125" lon="6.05976">
        <ele>1579</ele>
        <time>2018-11-09T23:16:09Z</time>
      </trkpt>
      <trkpt lat="44.63127" lon="6.05981">
        <ele>1577</ele>
        <time>2018-11-09T23:17:09Z</time>
      </trkpt>
      <trkpt lat="44.63133" lon="6.06003">
        <ele>1572</ele>
        <time>2018-11-09T23:18:09Z</time>
      </trkpt>
      <trkpt lat="44.63134" lon="6.06003">
        <ele>1572</ele>
        <time>2018-11-09T23:19:09Z</time>
      </trkpt>
      <trkpt lat="44.63131" lon="6.06015">
        <ele>1569</ele>
        <time>2018-11-09T23:20:09Z</time>
      </trkpt>
      <trkpt lat="44.63138" lon="6.06035">
        <ele>1566</ele>
        <time>2018-11-09T23:21:09Z</time>
      </trkpt>
      <trkpt lat="44.63151" lon="6.06049">
        <ele>1564</ele>
        <time>2018-11-09T23:22:09Z</time>
      </trkpt>
      <trkpt lat="44.63151" lon="6.0605">
        <ele>1564</ele>
        <time>2018-11-09T23:23:09Z</time>
      </trkpt>
      <trkpt lat="44.63153" lon="6.0605">
        <ele>1564</ele>
        <time>2018-11-09T23:24:09Z</time>
      </trkpt>
      <trkpt lat="44.63156" lon="6.06049">
        <ele>1565</ele>
        <time>2018-11-09T23:25:09Z</time>
      </trkpt>
      <trkpt lat="44.63162" lon="6.06053">
        <ele>1565</ele>
        <time>2018-11-09T23:26:09Z</time>
      </trkpt>
      <trkpt lat="44.63172" lon="6.06053">
        <ele>1565</ele>
        <time>2018-11-09T23:27:09Z</time>
      </trkpt>
      <trkpt lat="44.63184" lon="6.06061">
        <ele>1564</ele>
        <time>2018-11-09T23:28:09Z</time>
      </trkpt>
      <trkpt lat="44.63199" lon="6.06062">
        <ele>1564</ele>
        <time>2018-11-09T23:29:09Z</time>
      </trkpt>
      <trkpt lat="44.63203" lon="6.06063">
        <ele>1563</ele>
        <time>2018-11-09T23:30:09Z</time>
      </trkpt>
      <trkpt lat="44.63214" lon="6.06058">
        <ele>1565</ele>
        <time>2018-11-09T23:31:09Z</time>
      </trkpt>
      <trkpt lat="44.63216" lon="6.06056">
        <ele>1565</ele>
        <time>2018-11-09T23:32:09Z</time>
      </trkpt>
      <trkpt lat="44.63224" lon="6.06056">
        <ele>1565</ele>
        <time>2018-11-09T23:33:09Z</time>
      </trkpt>
      <trkpt lat="44.63241" lon="6.06047">
        <ele>1567</ele>
        <time>2018-11-09T23:34:09Z</time>
      </trkpt>
      <trkpt lat="44.63241" lon="6.06048">
        <ele>1567</ele>
        <time>2018-11-09T23:35:09Z</time>
      </trkpt>
      <trkpt lat="44.63243" lon="6.06049">
        <ele>1567</ele>
        <time>2018-11-09T23:36:09Z</time>
      </trkpt>
      <trkpt lat="44.63255" lon="6.06034">
        <ele>1570</ele>
        <time>2018-11-09T23:37:09Z</time>
      </trkpt>
      <trkpt lat="44.63262" lon="6.06029">
        <ele>1571</ele>
        <time>2018-11-09T23:38:09Z</time>
      </trkpt>
      <trkpt lat="44.63265" lon="6.06021">
        <ele>1572</ele>
        <time>2018-11-09T23:39:09Z</time>
      </trkpt>
      <trkpt lat="44.6328" lon="6.06012">
        <ele>1574</ele>
        <time>2018-11-09T23:40:09Z</time>
      </trkpt>
      <trkpt lat="44.63284" lon="6.06009">
        <ele>1575</ele>
        <time>2018-11-09T23:41:09Z</time>
      </trkpt>
      <trkpt lat="44.63291" lon="6.06008">
        <ele>1575</ele>
        <time>2018-11-09T23:42:09Z</time>
      </trkpt>
      <trkpt lat="44.63291" lon="6.06008">
        <ele>1575</ele>
        <time>2018-11-09T23:43:09Z</time>
      </trkpt>
      <trkpt lat="44.63296" lon="6.06014">
        <ele>1574</ele>
        <time>2018-11-09T23:44:09Z</time>
      </trkpt>
      <trkpt lat="44.63298" lon="6.06016">
        <ele>1574</ele>
        <time>2018-11-09T23:45:09Z</time>
      </trkpt>
      <trkpt lat="44.63297" lon="6.06022">
        <ele>1573</ele>
        <time>2018-11-09T23:46:09Z</time>
      </trkpt>
      <trkpt lat="44.63296" lon="6.06036">
        <ele>1570</ele>
        <time>2018-11-09T23:47:09Z</time>
      </trkpt>
      <trkpt lat="44.63299" lon="6.06052">
        <ele>1568</ele>
        <time>2018-11-09T23:48:09Z</time>
      </trkpt>
      <trkpt lat="44.63303" lon="6.06061">
        <ele>1566</ele>
        <time>2018-11-09T23:49:09Z</time>
      </trkpt>
      <trkpt lat="44.63299" lon="6.0608">
        <ele>1563</ele>
        <time>2018-11-09T23:50:09Z</time>
      </trkpt>
      <trkpt lat="44.63298" lon="6.06084">
        <ele>1562</ele>
        <time>2018-11-09T23:51:09Z</time>
      </trkpt>
      <trkpt lat="44.63298" lon="6.06088">
        <ele>1562</ele>
        <time>2018-11-09T23:52:09Z</time>
      </trkpt>
      <trkpt lat="44.63295" lon="6.06101">
        <ele>1560</ele>
        <time>2018-11-09T23:53:09Z</time>
      </trkpt>
      <trkpt lat="44.63295" lon="6.06112">
        <ele>1558</ele>
        <time>2018-11-09T23:54:09Z</time>
      </trkpt>
      <trkpt lat="44.63295" lon="6.06131">
        <ele>1555</ele>
        <time>2018-11-09T23:55:09Z</time>
      </trkpt>
      <trkpt lat="44.63292" lon="6.06151">
        <ele>1552</ele>
        <time>2018-11-09T23:56:09Z</time>
      </trkpt>
      <trkpt lat="44.63293" lon="6.06169">
        <ele>1549</ele>
        <time>2018-11-09T23:57:09Z</time>
      </trkpt>
      <trkpt lat="44.63295" lon="6.06176">
        <ele>1549</ele>
        <time>2018-11-09T23:58:09Z</time>
      </trkpt>
      <trkpt lat="44.63301" lon="6.06199">
        <ele>1547</ele>
        <time>2018-11-09T23:59:09Z</time>
      </trkpt>
      <trkpt lat="44.63306" lon="6.06205">
        <ele>1547</ele>
        <time>2018-11-10T00:00:09Z</time>
      </trkpt>
      <trkpt lat="44.6331" lon="6.06214">
        <ele>1547</ele>
        <time>2018-11-10T00:01:09Z</time>
      </trkpt>
      <trkpt lat="44.63323" lon="6.06249">
        <ele>1547</ele>
        <time>2018-11-10T00:02:09Z</time>
      </trkpt>
      <trkpt lat="44.63324" lon="6.06252">
        <ele>1546</ele>
        <time>2018-11-10T00:03:09Z</time>
      </trkpt>
      <trkpt lat="44.6332" lon="6.06267">
        <ele>1544</ele>
        <time>2018-11-10T00:04:09Z</time>
      </trkpt>
      <trkpt lat="44.63314" lon="6.06287">
        <ele>1540</ele>
        <time>2018-11-10T00:05:09Z</time>
      </trkpt>
      <trkpt lat="44.63313" lon="6.06297">
        <ele>1539</ele>
        <time>2018-11-10T00:06:09Z</time>
      </trkpt>
      <trkpt lat="44.63317" lon="6.06296">
        <ele>1540</ele>
        <time>2018-11-10T00:07:09Z</time>
      </trkpt>
      <trkpt lat="44.63317" lon="6.06296">
        <ele>1540</ele>
        <time>2018-11-10T00:08:09Z</time>
      </trkpt>
      <trkpt lat="44.63314" lon="6.06302">
        <ele>1538</ele>
        <time>2018-11-10T00:09:09Z</time>
      </trkpt>
      <trkpt lat="44.63309" lon="6.06315">
        <ele>1536</ele>
        <time>2018-11-10T00:10:09Z</time>
      </trkpt>
      <trkpt lat="44.63305" lon="6.06339">
        <ele>1532</ele>
        <time>2018-11-10T00:11:09Z</time>
      </trkpt>
      <trkpt lat="44.63304" lon="6.06342">
        <ele>1531</ele>
        <time>2018-11-10T00:12:09Z</time>
      </trkpt>
      <trkpt lat="44.63315" lon="6.06348">
        <ele>1533</ele>
        <time>2018-11-10T00:13:09Z</time>
      </trkpt>
      <trkpt lat="44.6332" lon="6.06343">
        <ele>1535</ele>
        <time>2018-11-10T00:14:09Z</time>
      </trkpt>
      <trkpt lat="44.63331" lon="6.06335">
        <ele>1539</ele>
        <time>2018-11-10T00:15:09Z</time>
      </trkpt>
      <trkpt lat="44.63344" lon="6.06345">
        <ele>1542</ele>
        <time>2018-11-10T00:16:09Z</time>
      </trkpt>
      <trkpt lat="44.63346" lon="6.06366">
        <ele>1540</ele>
        <time>2018-11-10T00:17:09Z</time>
      </trkpt>
      <trkpt lat="44.63344" lon="6.06396">
        <ele>1535</ele>
        <time>2018-11-10T00:18:09Z</time>
      </trkpt>
      <trkpt lat="44.63344" lon="6.06407">
        <ele>1534</ele>
        <time>2018-11-10T00:19:09Z</time>
      </trkpt>
      <trkpt lat="44.63348" lon="6.06426">
        <ele>1532</ele>
        <time>2018-11-10T00:20:09Z</time>
      </trkpt>
      <trkpt lat="44.63348" lon="6.06443">
        <ele>1529</ele>
        <time>2018-11-10T00:21:09Z</time>
      </trkpt>
      <trkpt lat="44.63349" lon="6.06449">
        <ele>1528</ele>
        <time>2018-11-10T00:22:09Z</time>
      </trkpt>
      <trkpt lat="44.63359" lon="6.06465">
        <ele>1530</ele>
        <time>2018-11-10T00:23:09Z</time>
      </trkpt>
      <trkpt lat="44.63369" lon="6.06494">
        <ele>1529</ele>
        <time>2018-11-10T00:24:09Z</time>
      </trkpt>
      <trkpt lat="44.63373" lon="6.06506">
        <ele>1528</ele>
        <time>2018-11-10T00:25:09Z</time>
      </trkpt>
      <trkpt lat="44.63375" lon="6.06508">
        <ele>1529</ele>
        <time>2018-11-10T00:26:09Z</time>
      </trkpt>
      <trkpt lat="44.63379" lon="6.06518">
        <ele>1529</ele>
        <time>2018-11-10T00:27:09Z</time>
      </trkpt>
      <trkpt lat="44.6338" lon="6.06525">
        <ele>1527</ele>
        <time>2018-11-10T00:28:09Z</time>
      </trkpt>
      <trkpt lat="44.63383" lon="6.06535">
        <ele>1526</ele>
        <time>2018-11-10T00:29:09Z</time>
      </trkpt>
      <trkpt lat="44.63386" lon="6.06556">
        <ele>1523</ele>
        <time>2018-11-10T00:30:09Z</time>
      </trkpt>
      <trkpt lat="44.63386" lon="6.06566">
        <ele>1520</ele>
        <time>2018-11-10T00:31:09Z</time>
      </trkpt>
      <trkpt lat="44.63391" lon="6.06585">
        <ele>1518</ele>
        <time>2018-11-10T00:32:09Z</time>
      </trkpt>
      <trkpt lat="44.63393" lon="6.06593">
        <ele>1517</ele>
        <time>2018-11-10T00:33:09Z</time>
      </trkpt>
      <trkpt lat="44.63397" lon="6.06603">
        <ele>1516</ele>
        <time>2018-11-10T00:34:09Z</time>
      </trkpt>
      <trkpt lat="44.63401" lon="6.06614">
        <ele>1516</ele>
        <time>2018-11-10T00:35:09Z</time>
      </trkpt>
      <trkpt lat="44.6341" lon="6.06634">
        <ele>1515</ele>
        <time>2018-11-10T00:36:09Z</time>
      </trkpt>
      <trkpt lat="44.63416" lon="6.06653">
        <ele>1512</ele>
        <time>2018-11-10T00:37:09Z</time>
      </trkpt>
      <trkpt lat="44.63426" lon="6.06664">
        <ele>1513</ele>
        <time>2018-11-10T00:38:09Z</time>
      </trkpt>
      <trkpt lat="44.63434" lon="6.06672">
        <ele>1515</ele>
        <time>2018-11-10T00:39:09Z</time>
      </trkpt>
      <trkpt lat="44.63443" lon="6.06686">
        <ele>1515</ele>
        <time>2018-11-10T00:40:09Z</time>
      </trkpt>
      <trkpt lat="44.63448" lon="6.06692">
        <ele>1515</ele>
        <time>2018-11-10T00:41:09Z</time>
      </trkpt>
      <trkpt lat="44.63461" lon="6.06719">
        <ele>1514</ele>
        <time>2018-11-10T00:42:09Z</time>
      </trkpt>
      <trkpt lat="44.63466" lon="6.06725">
        <ele>1514</ele>
        <time>2018-11-10T00:43:09Z</time>
      </trkpt>
      <trkpt lat="44.63478" lon="6.0675">
        <ele>1511</ele>
        <time>2018-11-10T00:44:09Z</time>
      </trkpt>
      <trkpt lat="44.63492" lon="6.0677">
        <ele>1508</ele>
        <time>2018-11-10T00:45:09Z</time>
      </trkpt>
      <trkpt lat="44.63494" lon="6.06772">
        <ele>1508</ele>
        <time>2018-11-10T00:46:09Z</time>
      </trkpt>
      <trkpt lat="44.63501" lon="6.06782">
        <ele>1507</ele>
        <time>2018-11-10T00:47:09Z</time>
      </trkpt>
      <trkpt lat="44.63512" lon="6.06808">
        <ele>1500</ele>
        <time>2018-11-10T00:48:09Z</time>
      </trkpt>
      <trkpt lat="44.63525" lon="6.06828">
        <ele>1495</ele>
        <time>2018-11-10T00:49:09Z</time>
      </trkpt>
      <trkpt lat="44.63535" lon="6.06835">
        <ele>1495</ele>
        <time>2018-11-10T00:50:09Z</time>
      </trkpt>
      <trkpt lat="44.6354" lon="6.06834">
        <ele>1496</ele>
        <time>2018-11-10T00:51:09Z</time>
      </trkpt>
      <trkpt lat="44.6354" lon="6.06832">
        <ele>1496</ele>
        <time>2018-11-10T00:52:09Z</time>
      </trkpt>
      <trkpt lat="44.6354" lon="6.06833">
        <ele>1496</ele>
        <time>2018-11-10T00:53:09Z</time>
      </trkpt>
      <trkpt lat="44.63542" lon="6.06835">
        <ele>1496</ele>
        <time>2018-11-10T00:54:09Z</time>
      </trkpt>
      <trkpt lat="44.63544" lon="6.06834">
        <ele>1496</ele>
        <time>2018-11-10T00:55:09Z</time>
      </trkpt>
      <trkpt lat="44.63551" lon="6.06827">
        <ele>1500</ele>
        <time>2018-11-10T00:56:09Z</time>
      </trkpt>
      <trkpt lat="44.63553" lon="6.06824">
        <ele>1501</ele>
        <time>2018-11-10T00:57:09Z</time>
      </trkpt>
      <trkpt lat="44.63561" lon="6.06813">
        <ele>1506</ele>
        <time>2018-11-10T00:58:09Z</time>
      </trkpt>
      <trkpt lat="44.63576" lon="6.06798">
        <ele>1514</ele>
        <time>2018-11-10T00:59:09Z</time>
      </trkpt>
      <trkpt lat="44.63578" lon="6.06795">
        <ele>1515</ele>
        <time>2018-11-10T01:00:09Z</time>
      </trkpt>
      <trkpt lat="44.63589" lon="6.06783">
        <ele>1519</ele>
        <time>2018-11-10T01:01:09Z</time>
      </trkpt>
      <trkpt lat="44.6359" lon="6.06782">
        <ele>1519</ele>
        <time>2018-11-10T01:02:09Z</time>
      </trkpt>
      <trkpt lat="44.63595" lon="6.06775">
        <ele>1521</ele>
        <time>2018-11-10T01:03:09Z</time>
      </trkpt>
      <trkpt lat="44.63599" lon="6.06772">
        <ele>1521</ele>
        <time>2018-11-10T01:04:09Z</time>
      </trkpt>
      <trkpt lat="44.63607" lon="6.06766">
        <ele>1522</ele>
        <time>2018-11-10T01:05:09Z</time>
      </trkpt>
      <trkpt lat="44.63613" lon="6.06763">
        <ele>1522</ele>
        <time>2018-11-10T01:06:09Z</time>
      </trkpt>
      <trkpt lat="44.63622" lon="6.06753">
        <ele>1524</ele>
        <time>2018-11-10T01:07:09Z</time>
      </trkpt>
      <trkpt lat="44.63633" lon="6.06744">
        <ele>1524</ele>
        <time>2018-11-10T01:08:09Z</time>
      </trkpt>
      <trkpt lat="44.63648" lon="6.06734">
        <ele>1524</ele>
        <time>2018-11-10T01:09:09Z</time>
      </trkpt>
      <trkpt lat="44.63651" lon="6.06731">
        <ele>1524</ele>
        <time>2018-11-10T01:10:09Z</time>
      </trkpt>
      <trkpt lat="44.63655" lon="6.06724">
        <ele>1525</ele>
        <time>2018-11-10T01:11:09Z</time>
      </trkpt>
      <trkpt lat="44.63665" lon="6.06714">
        <ele>1526</ele>
        <time>2018-11-10T01:12:09Z</time>
      </trkpt>
      <trkpt lat="44.63667" lon="6.06709">
        <ele>1527</ele>
        <time>2018-11-10T01:13:09Z</time>
      </trkpt>
      <trkpt lat="44.63666" lon="6.067">
        <ele>1530</ele>
        <time>2018-11-10T01:14:09Z</time>
      </trkpt>
      <trkpt lat="44.63667" lon="6.06685">
        <ele>1534</ele>
        <time>2018-11-10T01:15:09Z</time>
      </trkpt>
      <trkpt lat="44.63669" lon="6.0668">
        <ele>1535</ele>
        <time>2018-11-10T01:16:09Z</time>
      </trkpt>
      <trkpt lat="44.63668" lon="6.06674">
        <ele>1537</ele>
        <time>2018-11-10T01:17:09Z</time>
      </trkpt>
      <trkpt lat="44.6368" lon="6.06643">
        <ele>1539</ele>
        <time>2018-11-10T01:18:09Z</time>
      </trkpt>
      <trkpt lat="44.6369" lon="6.06629">
        <ele>1539</ele>
        <time>2018-11-10T01:19:09Z</time>
      </trkpt>
      <trkpt lat="44.63702" lon="6.06624">
        <ele>1537</ele>
        <time>2018-11-10T01:20:09Z</time>
      </trkpt>
      <trkpt lat="44.63722" lon="6.06625">
        <ele>1532</ele>
        <time>2018-11-10T01:21:09Z</time>
      </trkpt>
      <trkpt lat="44.63737" lon="6.06627">
        <ele>1529</ele>
        <time>2018-11-10T01:22:09Z</time>
      </trkpt>
      <trkpt lat="44.63754" lon="6.06632">
        <ele>1524</ele>
        <time>2018-11-10T01:23:09Z</time>
      </trkpt>
      <trkpt lat="44.63756" lon="6.06633">
        <ele>1523</ele>
        <time>2018-11-10T01:24:09Z</time>
      </trkpt>
      <trkpt lat="44.63769" lon="6.0664">
        <ele>1517</ele>
        <time>2018-11-10T01:25:09Z</time>
      </trkpt>
      <trkpt lat="44.63772" lon="6.06642">
        <ele>1515</ele>
        <time>2018-11-10T01:26:09Z</time>
      </trkpt>
      <trkpt lat="44.63775" lon="6.06646">
        <ele>1514</ele>
        <time>2018-11-10T01:27:09Z</time>
      </trkpt>
      <trkpt lat="44.6378" lon="6.0665">
        <ele>1511</ele>
        <time>2018-11-10T01:28:09Z</time>
      </trkpt>
      <trkpt lat="44.63795" lon="6.06671">
        <ele>1503</ele>
        <time>2018-11-10T01:29:09Z</time>
      </trkpt>
      <trkpt lat="44.63797" lon="6.06674">
        <ele>1502</ele>
        <time>2018-11-10T01:30:09Z</time>
      </trkpt>
      <trkpt lat="44.63798" lon="6.06684">
        <ele>1499</ele>
        <time>2018-11-10T01:31:09Z</time>
      </trkpt>
      <trkpt lat="44.638" lon="6.06685">
        <ele>1498</ele>
        <time>2018-11-10T01:32:09Z</time>
      </trkpt>
      <trkpt lat="44.63801" lon="6.06684">
        <ele>1498</ele>
        <time>2018-11-10T01:33:09Z</time>
      </trkpt>
      <trkpt lat="44.63801" lon="6.06669">
        <ele>1501</ele>
        <time>2018-11-10T01:34:09Z</time>
      </trkpt>
      <trkpt lat="44.63801" lon="6.06666">
        <ele>1501</ele>
        <time>2018-11-10T01:35:09Z</time>
      </trkpt>
      <trkpt lat="44.63798" lon="6.06641">
        <ele>1502</ele>
        <time>2018-11-10T01:36:09Z</time>
      </trkpt>
      <trkpt lat="44.63794" lon="6.06631">
        <ele>1504</ele>
        <time>2018-11-10T01:37:09Z</time>
      </trkpt>
      <trkpt lat="44.63788" lon="6.06624">
        <ele>1506</ele>
        <time>2018-11-10T01:38:09Z</time>
      </trkpt>
      <trkpt lat="44.63783" lon="6.06616">
        <ele>1509</ele>
        <time>2018-11-10T01:39:09Z</time>
      </trkpt>
      <trkpt lat="44.63779" lon="6.06608">
        <ele>1511</ele>
        <time>2018-11-10T01:40:09Z</time>
      </trkpt>
      <trkpt lat="44.63778" lon="6.06601">
        <ele>1511</ele>
        <time>2018-11-10T01:41:09Z</time>
      </trkpt>
      <trkpt lat="44.6378" lon="6.06586">
        <ele>1510</ele>
        <time>2018-11-10T01:42:09Z</time>
      </trkpt>
      <trkpt lat="44.63779" lon="6.06581">
        <ele>1510</ele>
        <time>2018-11-10T01:43:09Z</time>
      </trkpt>
      <trkpt lat="44.63776" lon="6.06566">
        <ele>1511</ele>
        <time>2018-11-10T01:44:09Z</time>
      </trkpt>
      <trkpt lat="44.63775" lon="6.06563">
        <ele>1511</ele>
        <time>2018-11-10T01:45:09Z</time>
      </trkpt>
      <trkpt lat="44.63771" lon="6.06556">
        <ele>1513</ele>
        <time>2018-11-10T01:46:09Z</time>
      </trkpt>
      <trkpt lat="44.63766" lon="6.06547">
        <ele>1515</ele>
        <time>2018-11-10T01:47:09Z</time>
      </trkpt>
      <trkpt lat="44.63762" lon="6.06536">
        <ele>1516</ele>
        <time>2018-11-10T01:48:09Z</time>
      </trkpt>
      <trkpt lat="44.63759" lon="6.0653">
        <ele>1517</ele>
        <time>2018-11-10T01:49:09Z</time>
      </trkpt>
      <trkpt lat="44.63754" lon="6.06498">
        <ele>1518</ele>
        <time>2018-11-10T01:50:09Z</time>
      </trkpt>
      <trkpt lat="44.63755" lon="6.06476">
        <ele>1516</ele>
        <time>2018-11-10T01:51:09Z</time>
      </trkpt>
      <trkpt lat="44.63755" lon="6.06465">
        <ele>1516</ele>
        <time>2018-11-10T01:52:09Z</time>
      </trkpt>
      <trkpt lat="44.63757" lon="6.06452">
        <ele>1514</ele>
        <time>2018-11-10T01:53:09Z</time>
      </trkpt>
      <trkpt lat="44.63763" lon="6.06423">
        <ele>1510</ele>
        <time>2018-11-10T01:54:09Z</time>
      </trkpt>
      <trkpt lat="44.63762" lon="6.06413">
        <ele>1510</ele>
        <time>2018-11-10T01:55:09Z</time>
      </trkpt>
      <trkpt lat="44.63773" lon="6.06389">
        <ele>1505</ele>
        <time>2018-11-10T01:56:09Z</time>
      </trkpt>
      <trkpt lat="44.63779" lon="6.0638">
        <ele>1503</ele>
        <time>2018-11-10T01:57:09Z</time>
      </trkpt>
      <trkpt lat="44.63788" lon="6.06371">
        <ele>1499</ele>
        <time>2018-11-10T01:58:09Z</time>
      </trkpt>
      <trkpt lat="44.63801" lon="6.06363">
        <ele>1494</ele>
        <time>2018-11-10T01:59:09Z</time>
      </trkpt>
      <trkpt lat="44.63811" lon="6.0636">
        <ele>1490</ele>
        <time>2018-11-10T02:00:09Z</time>
      </trkpt>
      <trkpt lat="44.63816" lon="6.06366">
        <ele>1487</ele>
        <time>2018-11-10T02:01:09Z</time>
      </trkpt>
      <trkpt lat="44.6382" lon="6.06375">
        <ele>1485</ele>
        <time>2018-11-10T02:02:09Z</time>
      </trkpt>
      <trkpt lat="44.63821" lon="6.06373">
        <ele>1485</ele>
        <time>2018-11-10T02:03:09Z</time>
      </trkpt>
      <trkpt lat="44.63821" lon="6.06374">
        <ele>1485</ele>
        <time>2018-11-10T02:04:09Z</time>
      </trkpt>
      <trkpt lat="44.63825" lon="6.06369">
        <ele>1483</ele>
        <time>2018-11-10T02:05:09Z</time>
      </trkpt>
      <trkpt lat="44.63824" lon="6.06364">
        <ele>1484</ele>
        <time>2018-11-10T02:06:09Z</time>
      </trkpt>
      <trkpt lat="44.63824" lon="6.06352">
        <ele>1485</ele>
        <time>2018-11-10T02:07:09Z</time>
      </trkpt>
      <trkpt lat="44.63822" lon="6.06346">
        <ele>1486</ele>
        <time>2018-11-10T02:08:09Z</time>
      </trkpt>
      <trkpt lat="44.63821" lon="6.06334">
        <ele>1488</ele>
        <time>2018-11-10T02:09:09Z</time>
      </trkpt>
      <trkpt lat="44.63821" lon="6.06331">
        <ele>1488</ele>
        <time>2018-11-10T02:10:09Z</time>
      </trkpt>
      <trkpt lat="44.63821" lon="6.06314">
        <ele>1492</ele>
        <time>2018-11-10T02:11:09Z</time>
      </trkpt>
      <trkpt lat="44.63825" lon="6.06305">
        <ele>1492</ele>
        <time>2018-11-10T02:12:09Z</time>
      </trkpt>
      <trkpt lat="44.63833" lon="6.06299">
        <ele>1491</ele>
        <time>2018-11-10T02:13:09Z</time>
      </trkpt>
      <trkpt lat="44.63842" lon="6.06291">
        <ele>1491</ele>
        <time>2018-11-10T02:14:09Z</time>
      </trkpt>
      <trkpt lat="44.63861" lon="6.06289">
        <ele>1489</ele>
        <time>2018-11-10T02:15:09Z</time>
      </trkpt>
      <trkpt lat="44.63863" lon="6.06288">
        <ele>1489</ele>
        <time>2018-11-10T02:16:09Z</time>
      </trkpt>
      <trkpt lat="44.63882" lon="6.06277">
        <ele>1490</ele>
        <time>2018-11-10T02:17:09Z</time>
      </trkpt>
      <trkpt lat="44.63891" lon="6.06271">
        <ele>1490</ele>
        <time>2018-11-10T02:18:09Z</time>
      </trkpt>
      <trkpt lat="44.63908" lon="6.06262">
        <ele>1491</ele>
        <time>2018-11-10T02:19:09Z</time>
      </trkpt>
      <trkpt lat="44.63914" lon="6.06259">
        <ele>1491</ele>
        <time>2018-11-10T02:20:09Z</time>
      </trkpt>
      <trkpt lat="44.63925" lon="6.06252">
        <ele>1492</ele>
        <time>2018-11-10T02:21:09Z</time>
      </trkpt>
      <trkpt lat="44.63927" lon="6.06251">
        <ele>1492</ele>
        <time>2018-11-10T02:22:09Z</time>
      </trkpt>
      <trkpt lat="44.63932" lon="6.06242">
        <ele>1494</ele>
        <time>2018-11-10T02:23:09Z</time>
      </trkpt>
      <trkpt lat="44.63935" lon="6.06233">
        <ele>1496</ele>
        <time>2018-11-10T02:24:09Z</time>
      </trkpt>
      <trkpt lat="44.63938" lon="6.0623">
        <ele>1497</ele>
        <time>2018-11-10T02:25:09Z</time>
      </trkpt>
      <trkpt lat="44.63949" lon="6.06217">
        <ele>1499</ele>
        <time>2018-11-10T02:26:09Z</time>
      </trkpt>
      <trkpt lat="44.63957" lon="6.06196">
        <ele>1504</ele>
        <time>2018-11-10T02:27:09Z</time>
      </trkpt>
      <trkpt lat="44.63955" lon="6.06196">
        <ele>1504</ele>
        <time>2018-11-10T02:28:09Z</time>
      </trkpt>
      <trkpt lat="44.63955" lon="6.06196">
        <ele>1504</ele>
        <time>2018-11-10T02:29:09Z</time>
      </trkpt>
      <trkpt lat="44.63961" lon="6.06194">
        <ele>1504</ele>
        <time>2018-11-10T02:30:09Z</time>
      </trkpt>
      <trkpt lat="44.63963" lon="6.06196">
        <ele>1503</ele>
        <time>2018-11-10T02:31:09Z</time>
      </trkpt>
      <trkpt lat="44.63966" lon="6.06197">
        <ele>1502</ele>
        <time>2018-11-10T02:32:09Z</time>
      </trkpt>
      <trkpt lat="44.63969" lon="6.06199">
        <ele>1501</ele>
        <time>2018-11-10T02:33:09Z</time>
      </trkpt>
      <trkpt lat="44.63972" lon="6.06202">
        <ele>1500</ele>
        <time>2018-11-10T02:34:09Z</time>
      </trkpt>
      <trkpt lat="44.63975" lon="6.06198">
        <ele>1501</ele>
        <time>2018-11-10T02:35:09Z</time>
      </trkpt>
      <trkpt lat="44.63977" lon="6.06197">
        <ele>1501</ele>
        <time>2018-11-10T02:36:09Z</time>
      </trkpt>
      <trkpt lat="44.63986" lon="6.06194">
        <ele>1501</ele>
        <time>2018-11-10T02:37:09Z</time>
      </trkpt>
      <trkpt lat="44.6399" lon="6.06195">
        <ele>1500</ele>
        <time>2018-11-10T02:38:09Z</time>
      </trkpt>
      <trkpt lat="44.63996" lon="6.06194">
        <ele>1499</ele>
        <time>2018-11-10T02:39:09Z</time>
      </trkpt>
      <trkpt lat="44.64014" lon="6.06181">
        <ele>1500</ele>
        <time>2018-11-10T02:40:09Z</time>
      </trkpt>
      <trkpt lat="44.64019" lon="6.06174">
        <ele>1502</ele>
        <time>2018-11-10T02:41:09Z</time>
      </trkpt>
      <trkpt lat="44.64029" lon="6.06173">
        <ele>1500</ele>
        <time>2018-11-10T02:42:09Z</time>
      </trkpt>
      <trkpt lat="44.64047" lon="6.06176">
        <ele>1497</ele>
        <time>2018-11-10T02:43:09Z</time>
      </trkpt>
      <trkpt lat="44.64056" lon="6.06179">
        <ele>1495</ele>
        <time>2018-11-10T02:44:09Z</time>
      </trkpt>
      <trkpt lat="44.64075" lon="6.06183">
        <ele>1492</ele>
        <time>2018-11-10T02:45:09Z</time>
      </trkpt>
      <trkpt lat="44.6408" lon="6.06188">
        <ele>1490</ele>
        <time>2018-11-10T02:46:09Z</time>
      </trkpt>
      <trkpt lat="44.64095" lon="6.06199">
        <ele>1486</ele>
        <time>2018-11-10T02:47:09Z</time>
      </trkpt>
      <trkpt lat="44.64108" lon="6.06209">
        <ele>1483</ele>
        <time>2018-11-10T02:48:09Z</time>
      </trkpt>
      <trkpt lat="44.64123" lon="6.06217">
        <ele>1481</ele>
        <time>2018-11-10T02:49:09Z</time>
      </trkpt>
      <trkpt lat="44.64129" lon="6.06218">
        <ele>1481</ele>
        <time>2018-11-10T02:50:09Z</time>
      </trkpt>
      <trkpt lat="44.64141" lon="6.06226">
        <ele>1479</ele>
        <time>2018-11-10T02:51:09Z</time>
      </trkpt>
      <trkpt lat="44.64144" lon="6.06228">
        <ele>1478</ele>
        <time>2018-11-10T02:52:09Z</time>
      </trkpt>
      <trkpt lat="44.64146" lon="6.06233">
        <ele>1476</ele>
        <time>2018-11-10T02:53:09Z</time>
      </trkpt>
      <trkpt lat="44.64154" lon="6.0624">
        <ele>1474</ele>
        <time>2018-11-10T02:54:09Z</time>
      </trkpt>
      <trkpt lat="44.64164" lon="6.06248">
        <ele>1472</ele>
        <time>2018-11-10T02:55:09Z</time>
      </trkpt>
      <trkpt lat="44.64172" lon="6.06262">
        <ele>1467</ele>
        <time>2018-11-10T02:56:09Z</time>
      </trkpt>
      <trkpt lat="44.64176" lon="6.06265">
        <ele>1466</ele>
        <time>2018-11-10T02:57:09Z</time>
      </trkpt>
      <trkpt lat="44.64177" lon="6.06265">
        <ele>1466</ele>
        <time>2018-11-10T02:58:09Z</time>
      </trkpt>
      <trkpt lat="44.64182" lon="6.06265">
        <ele>1465</ele>
        <time>2018-11-10T02:59:09Z</time>
      </trkpt>
      <trkpt lat="44.6419" lon="6.06263">
        <ele>1465</ele>
        <time>2018-11-10T03:00:09Z</time>
      </trkpt>
      <trkpt lat="44.64195" lon="6.06263">
        <ele>1464</ele>
        <time>2018-11-10T03:01:09Z</time>
      </trkpt>
      <trkpt lat="44.64206" lon="6.06257">
        <ele>1464</ele>
        <time>2018-11-10T03:02:09Z</time>
      </trkpt>
      <trkpt lat="44.64216" lon="6.0625">
        <ele>1464</ele>
        <time>2018-11-10T03:03:09Z</time>
      </trkpt>
      <trkpt lat="44.64226" lon="6.06237">
        <ele>1466</ele>
        <time>2018-11-10T03:04:09Z</time>
      </trkpt>
      <trkpt lat="44.64229" lon="6.06233">
        <ele>1466</ele>
        <time>2018-11-10T03:05:09Z</time>
      </trkpt>
      <trkpt lat="44.64238" lon="6.06208">
        <ele>1471</ele>
        <time>2018-11-10T03:06:09Z</time>
      </trkpt>
      <trkpt lat="44.64242" lon="6.06205">
        <ele>1471</ele>
        <time>2018-11-10T03:07:09Z</time>
      </trkpt>
      <trkpt lat="44.64255" lon="6.06204">
        <ele>1469</ele>
        <time>2018-11-10T03:08:09Z</time>
      </trkpt>
      <trkpt lat="44.64273" lon="6.06203">
        <ele>1467</ele>
        <time>2018-11-10T03:09:09Z</time>
      </trkpt>
      <trkpt lat="44.64281" lon="6.06201">
        <ele>1466</ele>
        <time>2018-11-10T03:10:09Z</time>
      </trkpt>
      <trkpt lat="44.6429" lon="6.06201">
        <ele>1465</ele>
        <time>2018-11-10T03:11:09Z</time>
      </trkpt>
      <trkpt lat="44.64307" lon="6.06193">
        <ele>1464</ele>
        <time>2018-11-10T03:12:09Z</time>
      </trkpt>
      <trkpt lat="44.64311" lon="6.06193">
        <ele>1463</ele>
        <time>2018-11-10T03:13:09Z</time>
      </trkpt>
      <trkpt lat="44.64316" lon="6.06193">
        <ele>1463</ele>
        <time>2018-11-10T03:14:09Z</time>
      </trkpt>
      <trkpt lat="44.64325" lon="6.06196">
        <ele>1461</ele>
        <time>2018-11-10T03:15:09Z</time>
      </trkpt>
      <trkpt lat="44.64342" lon="6.06198">
        <ele>1457</ele>
        <time>2018-11-10T03:16:09Z</time>
      </trkpt>
      <trkpt lat="44.64348" lon="6.062">
        <ele>1456</ele>
        <time>2018-11-10T03:17:09Z</time>
      </trkpt>
      <trkpt lat="44.64356" lon="6.06196">
        <ele>1455</ele>
        <time>2018-11-10T03:18:09Z</time>
      </trkpt>
      <trkpt lat="44.64364" lon="6.06192">
        <ele>1455</ele>
        <time>2018-11-10T03:19:09Z</time>
      </trkpt>
      <trkpt lat="44.64366" lon="6.06186">
        <ele>1456</ele>
        <time>2018-11-10T03:20:09Z</time>
      </trkpt>
      <trkpt lat="44.64375" lon="6.06177">
        <ele>1457</ele>
        <time>2018-11-10T03:21:09Z</time>
      </trkpt>
      <trkpt lat="44.64383" lon="6.06175">
        <ele>1456</ele>
        <time>2018-11-10T03:22:09Z</time>
      </trkpt>
      <trkpt lat="44.64402" lon="6.06174">
        <ele>1453</ele>
        <time>2018-11-10T03:23:09Z</time>
      </trkpt>
      <trkpt lat="44.64408" lon="6.06174">
        <ele>1452</ele>
        <time>2018-11-10T03:24:09Z</time>
      </trkpt>
      <trkpt lat="44.6442" lon="6.06172">
        <ele>1450</ele>
        <time>2018-11-10T03:25:09Z</time>
      </trkpt>
      <trkpt lat="44.64424" lon="6.06172">
        <ele>1449</ele>
        <time>2018-11-10T03:26:09Z</time>
      </trkpt>
      <trkpt lat="44.64428" lon="6.06173">
        <ele>1448</ele>
        <time>2018-11-10T03:27:09Z</time>
      </trkpt>
      <trkpt lat="44.64444" lon="6.06178">
        <ele>1443</ele>
        <time>2018-11-10T03:28:09Z</time>
      </trkpt>
      <trkpt lat="44.64462" lon="6.06186">
        <ele>1437</ele>
        <time>2018-11-10T03:29:09Z</time>
      </trkpt>
      <trkpt lat="44.64495" lon="6.0619">
        <ele>1428</ele>
        <time>2018-11-10T03:30:09Z</time>
      </trkpt>
      <trkpt lat="44.64502" lon="6.06189">
        <ele>1427</ele>
        <time>2018-11-10T03:31:09Z</time>
      </trkpt>
      <trkpt lat="44.64508" lon="6.06181">
        <ele>1428</ele>
        <time>2018-11-10T03:32:09Z</time>
      </trkpt>
      <trkpt lat="44.64511" lon="6.06177">
        <ele>1428</ele>
        <time>2018-11-10T03:33:09Z</time>
      </trkpt>
      <trkpt lat="44.6452" lon="6.06177">
        <ele>1426</ele>
        <time>2018-11-10T03:34:09Z</time>
      </trkpt>
      <trkpt lat="44.64524" lon="6.06179">
        <ele>1425</ele>
        <time>2018-11-10T03:35:09Z</time>
      </trkpt>
      <trkpt lat="44.64535" lon="6.06176">
        <ele>1423</ele>
        <time>2018-11-10T03:36:09Z</time>
      </trkpt>
      <trkpt lat="44.6455" lon="6.06171">
        <ele>1421</ele>
        <time>2018-11-10T03:37:09Z</time>
      </trkpt>
      <trkpt lat="44.64558" lon="6.0617">
        <ele>1419</ele>
        <time>2018-11-10T03:38:09Z</time>
      </trkpt>
      <trkpt lat="44.64562" lon="6.06169">
        <ele>1418</ele>
        <time>2018-11-10T03:39:09Z</time>
      </trkpt>
      <trkpt lat="44.64574" lon="6.06162">
        <ele>1418</ele>
        <time>2018-11-10T03:40:09Z</time>
      </trkpt>
      <trkpt lat="44.64582" lon="6.06161">
        <ele>1416</ele>
        <time>2018-11-10T03:41:09Z</time>
      </trkpt>
      <trkpt lat="44.64594" lon="6.06157">
        <ele>1414</ele>
        <time>2018-11-10T03:42:09Z</time>
      </trkpt>
      <trkpt lat="44.64618" lon="6.06148">
        <ele>1409</ele>
        <time>2018-11-10T03:43:09Z</time>
      </trkpt>
      <trkpt lat="44.64628" lon="6.06144">
        <ele>1407</ele>
        <time>2018-11-10T03:44:09Z</time>
      </trkpt>
      <trkpt lat="44.64635" lon="6.06136">
        <ele>1407</ele>
        <time>2018-11-10T03:45:09Z</time>
      </trkpt>
      <trkpt lat="44.64639" lon="6.0613">
        <ele>1408</ele>
        <time>2018-11-10T03:46:09Z</time>
      </trkpt>
      <trkpt lat="44.6464" lon="6.06127">
        <ele>1408</ele>
        <time>2018-11-10T03:47:09Z</time>
      </trkpt>
      <trkpt lat="44.64645" lon="6.06111">
        <ele>1411</ele>
        <time>2018-11-10T03:48:09Z</time>
      </trkpt>
      <trkpt lat="44.64647" lon="6.06109">
        <ele>1411</ele>
        <time>2018-11-10T03:49:09Z</time>
      </trkpt>
      <trkpt lat="44.64668" lon="6.06101">
        <ele>1406</ele>
        <time>2018-11-10T03:50:09Z</time>
      </trkpt>
      <trkpt lat="44.64676" lon="6.06098">
        <ele>1404</ele>
        <time>2018-11-10T03:51:09Z</time>
      </trkpt>
      <trkpt lat="44.64686" lon="6.06085">
        <ele>1403</ele>
        <time>2018-11-10T03:52:09Z</time>
      </trkpt>
      <trkpt lat="44.64688" lon="6.06079">
        <ele>1404</ele>
        <time>2018-11-10T03:53:09Z</time>
      </trkpt>
      <trkpt lat="44.64693" lon="6.06074">
        <ele>1403</ele>
        <time>2018-11-10T03:54:09Z</time>
      </trkpt>
      <trkpt lat="44.64697" lon="6.06064">
        <ele>1403</ele>
        <time>2018-11-10T03:55:09Z</time>
      </trkpt>
      <trkpt lat="44.647" lon="6.06059">
        <ele>1403</ele>
        <time>2018-11-10T03:56:09Z</time>
      </trkpt>
      <trkpt lat="44.64714" lon="6.06052">
        <ele>1399</ele>
        <time>2018-11-10T03:57:09Z</time>
      </trkpt>
      <trkpt lat="44.6472" lon="6.06048">
        <ele>1398</ele>
        <time>2018-11-10T03:58:09Z</time>
      </trkpt>
      <trkpt lat="44.64725" lon="6.06042">
        <ele>1397</ele>
        <time>2018-11-10T03:59:09Z</time>
      </trkpt>
      <trkpt lat="44.64727" lon="6.06038">
        <ele>1397</ele>
        <time>2018-11-10T04:00:09Z</time>
      </trkpt>
      <trkpt lat="44.64731" lon="6.06031">
        <ele>1397</ele>
        <time>2018-11-10T04:01:09Z</time>
      </trkpt>
      <trkpt lat="44.6474" lon="6.0602">
        <ele>1396</ele>
        <time>2018-11-10T04:02:09Z</time>
      </trkpt>
      <trkpt lat="44.64748" lon="6.0602">
        <ele>1393</ele>
        <time>2018-11-10T04:03:09Z</time>
      </trkpt>
      <trkpt lat="44.64749" lon="6.06024">
        <ele>1391</ele>
        <time>2018-11-10T04:04:09Z</time>
      </trkpt>
      <trkpt lat="44.64748" lon="6.06026">
        <ele>1391</ele>
        <time>2018-11-10T04:05:09Z</time>
      </trkpt>
      <trkpt lat="44.64742" lon="6.06039">
        <ele>1391</ele>
        <time>2018-11-10T04:06:09Z</time>
      </trkpt>
      <trkpt lat="44.64741" lon="6.06044">
        <ele>1390</ele>
        <time>2018-11-10T04:07:09Z</time>
      </trkpt>
      <trkpt lat="44.64737" lon="6.06047">
        <ele>1391</ele>
        <time>2018-11-10T04:08:09Z</time>
      </trkpt>
      <trkpt lat="44.64734" lon="6.06051">
        <ele>1392</ele>
        <time>2018-11-10T04:09:09Z</time>
      </trkpt>
      <trkpt lat="44.64741" lon="6.06056">
        <ele>1388</ele>
        <time>2018-11-10T04:10:09Z</time>
      </trkpt>
      <trkpt lat="44.64751" lon="6.06055">
        <ele>1384</ele>
        <time>2018-11-10T04:11:09Z</time>
      </trkpt>
      <trkpt lat="44.64766" lon="6.06054">
        <ele>1378</ele>
        <time>2018-11-10T04:12:09Z</time>
      </trkpt>
      <trkpt lat="44.64773" lon="6.06055">
        <ele>1375</ele>
        <time>2018-11-10T04:13:09Z</time>
      </trkpt>
      <trkpt lat="44.64786" lon="6.06059">
        <ele>1369</ele>
        <time>2018-11-10T04:14:09Z</time>
      </trkpt>
      <trkpt lat="44.64792" lon="6.0606">
        <ele>1367</ele>
        <time>2018-11-10T04:15:09Z</time>
      </trkpt>
      <trkpt lat="44.64799" lon="6.06059">
        <ele>1364</ele>
        <time>2018-11-10T04:16:09Z</time>
      </trkpt>
      <trkpt lat="44.64796" lon="6.06071">
        <ele>1364</ele>
        <time>2018-11-10T04:17:09Z</time>
      </trkpt>
      <trkpt lat="44.64796" lon="6.06078">
        <ele>1363</ele>
        <time>2018-11-10T04:18:09Z</time>
      </trkpt>
      <trkpt lat="44.6479" lon="6.06094">
        <ele>1363</ele>
        <time>2018-11-10T04:19:09Z</time>
      </trkpt>
      <trkpt lat="44.64785" lon="6.06102">
        <ele>1363</ele>
        <time>2018-11-10T04:20:09Z</time>
      </trkpt>
      <trkpt lat="44.64781" lon="6.06124">
        <ele>1361</ele>
        <time>2018-11-10T04:21:09Z</time>
      </trkpt>
      <trkpt lat="44.64779" lon="6.06143">
        <ele>1358</ele>
        <time>2018-11-10T04:22:09Z</time>
      </trkpt>
      <trkpt lat="44.64777" lon="6.06148">
        <ele>1358</ele>
        <time>2018-11-10T04:23:09Z</time>
      </trkpt>
      <trkpt lat="44.64776" lon="6.06152">
        <ele>1357</ele>
        <time>2018-11-10T04:24:09Z</time>
      </trkpt>
      <trkpt lat="44.64772" lon="6.0617">
        <ele>1355</ele>
        <time>2018-11-10T04:25:09Z</time>
      </trkpt>
      <trkpt lat="44.64772" lon="6.06173">
        <ele>1355</ele>
        <time>2018-11-10T04:26:09Z</time>
      </trkpt>
      <trkpt lat="44.64751" lon="6.06218">
        <ele>1353</ele>
        <time>2018-11-10T04:27:09Z</time>
      </trkpt>
      <trkpt lat="44.64743" lon="6.06223">
        <ele>1354</ele>
        <time>2018-11-10T04:28:09Z</time>
      </trkpt>
      <trkpt lat="44.64737" lon="6.06261">
        <ele>1350</ele>
        <time>2018-11-10T04:29:09Z</time>
      </trkpt>
      <trkpt lat="44.64734" lon="6.06276">
        <ele>1348</ele>
        <time>2018-11-10T04:30:09Z</time>
      </trkpt>
      <trkpt lat="44.64733" lon="6.063">
        <ele>1345</ele>
        <time>2018-11-10T04:31:09Z</time>
      </trkpt>
      <trkpt lat="44.64735" lon="6.06337">
        <ele>1340</ele>
        <time>2018-11-10T04:32:09Z</time>
      </trkpt>
      <trkpt lat="44.64736" lon="6.06344">
        <ele>1339</ele>
        <time>2018-11-10T04:33:09Z</time>
      </trkpt>
      <trkpt lat="44.64735" lon="6.06365">
        <ele>1337</ele>
        <time>2018-11-10T04:34:09Z</time>
      </trkpt>
      <trkpt lat="44.64734" lon="6.06371">
        <ele>1336</ele>
        <time>2018-11-10T04:35:09Z</time>
      </trkpt>
      <trkpt lat="44.64737" lon="6.06375">
        <ele>1335</ele>
        <time>2018-11-10T04:36:09Z</time>
      </trkpt>
      <trkpt lat="44.64739" lon="6.0638">
        <ele>1334</ele>
        <time>2018-11-10T04:37:09Z</time>
      </trkpt>
      <trkpt lat="44.64744" lon="6.06398">
        <ele>1331</ele>
        <time>2018-11-10T04:38:09Z</time>
      </trkpt>
      <trkpt lat="44.64743" lon="6.06402">
        <ele>1331</ele>
        <time>2018-11-10T04:39:09Z</time>
      </trkpt>
      <trkpt lat="44.64746" lon="6.06407">
        <ele>1329</ele>
        <time>2018-11-10T04:40:09Z</time>
      </trkpt>
      <trkpt lat="44.64748" lon="6.06409">
        <ele>1328</ele>
        <time>2018-11-10T04:41:09Z</time>
      </trkpt>
      <trkpt lat="44.64767" lon="6.06432">
        <ele>1323</ele>
        <time>2018-11-10T04:42:09Z</time>
      </trkpt>
      <trkpt lat="44.64773" lon="6.06438">
        <ele>1322</ele>
        <time>2018-11-10T04:43:09Z</time>
      </trkpt>
      <trkpt lat="44.64777" lon="6.06445">
        <ele>1321</ele>
        <time>2018-11-10T04:44:09Z</time>
      </trkpt>
      <trkpt lat="44.64784" lon="6.06456">
        <ele>1319</ele>
        <time>2018-11-10T04:45:09Z</time>
      </trkpt>
      <trkpt lat="44.64793" lon="6.06466">
        <ele>1317</ele>
        <time>2018-11-10T04:46:09Z</time>
      </trkpt>
      <trkpt lat="44.64797" lon="6.06483">
        <ele>1315</ele>
        <time>2018-11-10T04:47:09Z</time>
      </trkpt>
      <trkpt lat="44.64817" lon="6.06498">
        <ele>1311</ele>
        <time>2018-11-10T04:48:09Z</time>
      </trkpt>
      <trkpt lat="44.64828" lon="6.06492">
        <ele>1310</ele>
        <time>2018-11-10T04:49:09Z</time>
      </trkpt>
      <trkpt lat="44.64837" lon="6.06498">
        <ele>1308</ele>
        <time>2018-11-10T04:50:09Z</time>
      </trkpt>
      <trkpt lat="44.64849" lon="6.06499">
        <ele>1306</ele>
        <time>2018-11-10T04:51:09Z</time>
      </trkpt>
      <trkpt lat="44.64853" lon="6.06495">
        <ele>1305</ele>
        <time>2018-11-10T04:52:09Z</time>
      </trkpt>
      <trkpt lat="44.64858" lon="6.06491">
        <ele>1305</ele>
        <time>2018-11-10T04:53:09Z</time>
      </trkpt>
      <trkpt lat="44.6486" lon="6.06488">
        <ele>1305</ele>
        <time>2018-11-10T04:54:09Z</time>
      </trkpt>
      <trkpt lat="44.64863" lon="6.06482">
        <ele>1304</ele>
        <time>2018-11-10T04:55:09Z</time>
      </trkpt>
      <trkpt lat="44.64866" lon="6.06479">
        <ele>1304</ele>
        <time>2018-11-10T04:56:09Z</time>
      </trkpt>
      <trkpt lat="44.64869" lon="6.06474">
        <ele>1304</ele>
        <time>2018-11-10T04:57:09Z</time>
      </trkpt>
      <trkpt lat="44.64875" lon="6.06458">
        <ele>1304</ele>
        <time>2018-11-10T04:58:09Z</time>
      </trkpt>
      <trkpt lat="44.64875" lon="6.06453">
        <ele>1304</ele>
        <time>2018-11-10T04:59:09Z</time>
      </trkpt>
      <trkpt lat="44.64879" lon="6.06442">
        <ele>1304</ele>
        <time>2018-11-10T05:00:09Z</time>
      </trkpt>
      <trkpt lat="44.6488" lon="6.06442">
        <ele>1304</ele>
        <time>2018-11-10T05:01:09Z</time>
      </trkpt>
      <trkpt lat="44.64883" lon="6.06428">
        <ele>1304</ele>
        <time>2018-11-10T05:02:09Z</time>
      </trkpt>
      <trkpt lat="44.64891" lon="6.06413">
        <ele>1304</ele>
        <time>2018-11-10T05:03:09Z</time>
      </trkpt>
      <trkpt lat="44.64892" lon="6.06411">
        <ele>1304</ele>
        <time>2018-11-10T05:04:09Z</time>
      </trkpt>
      <trkpt lat="44.64902" lon="6.06403">
        <ele>1302</ele>
        <time>2018-11-10T05:05:09Z</time>
      </trkpt>
      <trkpt lat="44.64912" lon="6.06395">
        <ele>1300</ele>
        <time>2018-11-10T05:06:09Z</time>
      </trkpt>
      <trkpt lat="44.64917" lon="6.0639">
        <ele>1300</ele>
        <time>2018-11-10T05:07:09Z</time>
      </trkpt>
      <trkpt lat="44.64926" lon="6.06386">
        <ele>1298</ele>
        <time>2018-11-10T05:08:09Z</time>
      </trkpt>
      <trkpt lat="44.64938" lon="6.06378">
        <ele>1296</ele>
        <time>2018-11-10T05:09:09Z</time>
      </trkpt>
      <trkpt lat="44.64939" lon="6.06376">
        <ele>1295</ele>
        <time>2018-11-10T05:10:09Z</time>
      </trkpt>
      <trkpt lat="44.64944" lon="6.06371">
        <ele>1295</ele>
        <time>2018-11-10T05:11:09Z</time>
      </trkpt>
      <trkpt lat="44.64947" lon="6.0637">
        <ele>1294</ele>
        <time>2018-11-10T05:12:09Z</time>
      </trkpt>
      <trkpt lat="44.64963" lon="6.06356">
        <ele>1291</ele>
        <time>2018-11-10T05:13:09Z</time>
      </trkpt>
      <trkpt lat="44.64965" lon="6.06353">
        <ele>1291</ele>
        <time>2018-11-10T05:14:09Z</time>
      </trkpt>
      <trkpt lat="44.64989" lon="6.06343">
        <ele>1286</ele>
        <time>2018-11-10T05:15:09Z</time>
      </trkpt>
      <trkpt lat="44.64991" lon="6.06343">
        <ele>1286</ele>
        <time>2018-11-10T05:16:09Z</time>
      </trkpt>
      <trkpt lat="44.65006" lon="6.06356">
        <ele>1282</ele>
        <time>2018-11-10T05:17:09Z</time>
      </trkpt>
      <trkpt lat="44.65006" lon="6.0636">
        <ele>1282</ele>
        <time>2018-11-10T05:18:09Z</time>
      </trkpt>
      <trkpt lat="44.65001" lon="6.06365">
        <ele>1282</ele>
        <time>2018-11-10T05:19:09Z</time>
      </trkpt>
      <trkpt lat="44.6499" lon="6.06381">
        <ele>1284</ele>
        <time>2018-11-10T05:20:09Z</time>
      </trkpt>
      <trkpt lat="44.64988" lon="6.06386">
        <ele>1284</ele>
        <time>2018-11-10T05:21:09Z</time>
      </trkpt>
      <trkpt lat="44.64978" lon="6.06406">
        <ele>1285</ele>
        <time>2018-11-10T05:22:09Z</time>
      </trkpt>
      <trkpt lat="44.64962" lon="6.06427">
        <ele>1287</ele>
        <time>2018-11-10T05:23:09Z</time>
      </trkpt>
      <trkpt lat="44.64956" lon="6.06437">
        <ele>1288</ele>
        <time>2018-11-10T05:24:09Z</time>
      </trkpt>
      <trkpt lat="44.6495" lon="6.06451">
        <ele>1288</ele>
        <time>2018-11-10T05:25:09Z</time>
      </trkpt>
      <trkpt lat="44.6495" lon="6.06455">
        <ele>1288</ele>
        <time>2018-11-10T05:26:09Z</time>
      </trkpt>
      <trkpt lat="44.64953" lon="6.06459">
        <ele>1287</ele>
        <time>2018-11-10T05:27:09Z</time>
      </trkpt>
      <trkpt lat="44.64955" lon="6.06467">
        <ele>1286</ele>
        <time>2018-11-10T05:28:09Z</time>
      </trkpt>
      <trkpt lat="44.64973" lon="6.06492">
        <ele>1280</ele>
        <time>2018-11-10T05:29:09Z</time>
      </trkpt>
      <trkpt lat="44.64982" lon="6.06504">
        <ele>1279</ele>
        <time>2018-11-10T05:30:09Z</time>
      </trkpt>
      <trkpt lat="44.64986" lon="6.06508">
        <ele>1278</ele>
        <time>2018-11-10T05:31:09Z</time>
      </trkpt>
      <trkpt lat="44.64992" lon="6.06511">
        <ele>1278</ele>
        <time>2018-11-10T05:32:09Z</time>
      </trkpt>
      <trkpt lat="44.65015" lon="6.06541">
        <ele>1278</ele>
        <time>2018-11-10T05:33:09Z</time>
      </trkpt>
      <trkpt lat="44.65019" lon="6.06548">
        <ele>1278</ele>
        <time>2018-11-10T05:34:09Z</time>
      </trkpt>
      <trkpt lat="44.65023" lon="6.0655">
        <ele>1277</ele>
        <time>2018-11-10T05:35:09Z</time>
      </trkpt>
      <trkpt lat="44.6503" lon="6.0656">
        <ele>1276</ele>
        <time>2018-11-10T05:36:09Z</time>
      </trkpt>
      <trkpt lat="44.65045" lon="6.06571">
        <ele>1273</ele>
        <time>2018-11-10T05:37:09Z</time>
      </trkpt>
      <trkpt lat="44.65048" lon="6.06575">
        <ele>1272</ele>
        <time>2018-11-10T05:38:09Z</time>
      </trkpt>
      <trkpt lat="44.65062" lon="6.06589">
        <ele>1269</ele>
        <time>2018-11-10T05:39:09Z</time>
      </trkpt>
      <trkpt lat="44.65068" lon="6.06593">
        <ele>1267</ele>
        <time>2018-11-10T05:40:09Z</time>
      </trkpt>
      <trkpt lat="44.65072" lon="6.06598">
        <ele>1266</ele>
        <time>2018-11-10T05:41:09Z</time>
      </trkpt>
      <trkpt lat="44.65088" lon="6.0661">
        <ele>1261</ele>
        <time>2018-11-10T05:42:09Z</time>
      </trkpt>
      <trkpt lat="44.65091" lon="6.06586">
        <ele>1257</ele>
        <time>2018-11-10T05:43:09Z</time>
      </trkpt>
      <trkpt lat="44.65091" lon="6.06584">
        <ele>1257</ele>
        <time>2018-11-10T05:44:09Z</time>
      </trkpt>
      <trkpt lat="44.65084" lon="6.06569">
        <ele>1259</ele>
        <time>2018-11-10T05:45:09Z</time>
      </trkpt>
      <trkpt lat="44.65082" lon="6.0656">
        <ele>1260</ele>
        <time>2018-11-10T05:46:09Z</time>
      </trkpt>
      <trkpt lat="44.65079" lon="6.0655">
        <ele>1260</ele>
        <time>2018-11-10T05:47:09Z</time>
      </trkpt>
      <trkpt lat="44.65078" lon="6.06542">
        <ele>1260</ele>
        <time>2018-11-10T05:48:09Z</time>
      </trkpt>
      <trkpt lat="44.6508" lon="6.06532">
        <ele>1259</ele>
        <time>2018-11-10T05:49:09Z</time>
      </trkpt>
      <trkpt lat="44.65083" lon="6.06518">
        <ele>1258</ele>
        <time>2018-11-10T05:50:09Z</time>
      </trkpt>
      <trkpt lat="44.65087" lon="6.06512">
        <ele>1256</ele>
        <time>2018-11-10T05:51:09Z</time>
      </trkpt>
      <trkpt lat="44.65096" lon="6.06502">
        <ele>1254</ele>
        <time>2018-11-10T05:52:09Z</time>
      </trkpt>
      <trkpt lat="44.65112" lon="6.06493">
        <ele>1251</ele>
        <time>2018-11-10T05:53:09Z</time>
      </trkpt>
      <trkpt lat="44.65122" lon="6.0649">
        <ele>1249</ele>
        <time>2018-11-10T05:54:09Z</time>
      </trkpt>
      <trkpt lat="44.65139" lon="6.06486">
        <ele>1246</ele>
        <time>2018-11-10T05:55:09Z</time>
      </trkpt>
      <trkpt lat="44.65161" lon="6.06484">
        <ele>1241</ele>
        <time>2018-11-10T05:56:09Z</time>
      </trkpt>
      <trkpt lat="44.65165" lon="6.06486">
        <ele>1239</ele>
        <time>2018-11-10T05:57:09Z</time>
      </trkpt>
      <trkpt lat="44.65172" lon="6.06487">
        <ele>1237</ele>
        <time>2018-11-10T05:58:09Z</time>
      </trkpt>
      <trkpt lat="44.65186" lon="6.06491">
        <ele>1233</ele>
        <time>2018-11-10T05:59:09Z</time>
      </trkpt>
      <trkpt lat="44.65189" lon="6.06492">
        <ele>1232</ele>
        <time>2018-11-10T06:00:09Z</time>
      </trkpt>
      <trkpt lat="44.65198" lon="6.06497">
        <ele>1229</ele>
        <time>2018-11-10T06:01:09Z</time>
      </trkpt>
      <trkpt lat="44.65206" lon="6.06498">
        <ele>1227</ele>
        <time>2018-11-10T06:02:09Z</time>
      </trkpt>
      <trkpt lat="44.65206" lon="6.06488">
        <ele>1228</ele>
        <time>2018-11-10T06:03:09Z</time>
      </trkpt>
      <trkpt lat="44.65208" lon="6.0648">
        <ele>1229</ele>
        <time>2018-11-10T06:04:09Z</time>
      </trkpt>
      <trkpt lat="44.65208" lon="6.06476">
        <ele>1229</ele>
        <time>2018-11-10T06:05:09Z</time>
      </trkpt>
      <trkpt lat="44.65213" lon="6.06462">
        <ele>1229</ele>
        <time>2018-11-10T06:06:09Z</time>
      </trkpt>
      <trkpt lat="44.65219" lon="6.06443">
        <ele>1229</ele>
        <time>2018-11-10T06:07:09Z</time>
      </trkpt>
      <trkpt lat="44.6522" lon="6.06438">
        <ele>1230</ele>
        <time>2018-11-10T06:08:09Z</time>
      </trkpt>
      <trkpt lat="44.65221" lon="6.06426">
        <ele>1231</ele>
        <time>2018-11-10T06:09:09Z</time>
      </trkpt>
      <trkpt lat="44.65225" lon="6.06417">
        <ele>1230</ele>
        <time>2018-11-10T06:10:09Z</time>
      </trkpt>
      <trkpt lat="44.65228" lon="6.06397">
        <ele>1229</ele>
        <time>2018-11-10T06:11:09Z</time>
      </trkpt>
      <trkpt lat="44.65231" lon="6.06384">
        <ele>1228</ele>
        <time>2018-11-10T06:12:09Z</time>
      </trkpt>
      <trkpt lat="44.65229" lon="6.06378">
        <ele>1228</ele>
        <time>2018-11-10T06:13:09Z</time>
      </trkpt>
      <trkpt lat="44.65226" lon="6.06367">
        <ele>1230</ele>
        <time>2018-11-10T06:14:09Z</time>
      </trkpt>
      <trkpt lat="44.65229" lon="6.06362">
        <ele>1228</ele>
        <time>2018-11-10T06:15:09Z</time>
      </trkpt>
      <trkpt lat="44.65233" lon="6.06353">
        <ele>1227</ele>
        <time>2018-11-10T06:16:09Z</time>
      </trkpt>
      <trkpt lat="44.65238" lon="6.06341">
        <ele>1225</ele>
        <time>2018-11-10T06:17:09Z</time>
      </trkpt>
      <trkpt lat="44.6526" lon="6.06331">
        <ele>1222</ele>
        <time>2018-11-10T06:18:09Z</time>
      </trkpt>
      <trkpt lat="44.65269" lon="6.0633">
        <ele>1222</ele>
        <time>2018-11-10T06:19:09Z</time>
      </trkpt>
      <trkpt lat="44.65279" lon="6.0633">
        <ele>1223</ele>
        <time>2018-11-10T06:20:09Z</time>
      </trkpt>
      <trkpt lat="44.65282" lon="6.06331">
        <ele>1223</ele>
        <time>2018-11-10T06:21:09Z</time>
      </trkpt>
      <trkpt lat="44.65291" lon="6.06332">
        <ele>1222</ele>
        <time>2018-11-10T06:22:09Z</time>
      </trkpt>
      <trkpt lat="44.65304" lon="6.06333">
        <ele>1222</ele>
        <time>2018-11-10T06:23:09Z</time>
      </trkpt>
      <trkpt lat="44.65314" lon="6.0634">
        <ele>1221</ele>
        <time>2018-11-10T06:24:09Z</time>
      </trkpt>
      <trkpt lat="44.65326" lon="6.06351">
        <ele>1219</ele>
        <time>2018-11-10T06:25:09Z</time>
      </trkpt>
      <trkpt lat="44.65331" lon="6.06357">
        <ele>1217</ele>
        <time>2018-11-10T06:26:09Z</time>
      </trkpt>
      <trkpt lat="44.65338" lon="6.0637">
        <ele>1214</ele>
        <time>2018-11-10T06:27:09Z</time>
      </trkpt>
      <trkpt lat="44.65341" lon="6.06377">
        <ele>1213</ele>
        <time>2018-11-10T06:28:09Z</time>
      </trkpt>
      <trkpt lat="44.65345" lon="6.06382">
        <ele>1212</ele>
        <time>2018-11-10T06:29:09Z</time>
      </trkpt>
      <trkpt lat="44.65353" lon="6.06389">
        <ele>1210</ele>
        <time>2018-11-10T06:30:09Z</time>
      </trkpt>
      <trkpt lat="44.65368" lon="6.06401">
        <ele>1208</ele>
        <time>2018-11-10T06:31:09Z</time>
      </trkpt>
      <trkpt lat="44.65372" lon="6.06403">
        <ele>1207</ele>
        <time>2018-11-10T06:32:09Z</time>
      </trkpt>
      <trkpt lat="44.65378" lon="6.06398">
        <ele>1209</ele>
        <time>2018-11-10T06:33:09Z</time>
      </trkpt>
      <trkpt lat="44.65379" lon="6.06395">
        <ele>1210</ele>
        <time>2018-11-10T06:34:09Z</time>
      </trkpt>
      <trkpt lat="44.65386" lon="6.06386">
        <ele>1212</ele>
        <time>2018-11-10T06:35:09Z</time>
      </trkpt>
      <trkpt lat="44.65385" lon="6.06383">
        <ele>1213</ele>
        <time>2018-11-10T06:36:09Z</time>
      </trkpt>
      <trkpt lat="44.65386" lon="6.06378">
        <ele>1214</ele>
        <time>2018-11-10T06:37:09Z</time>
      </trkpt>
      <trkpt lat="44.6539" lon="6.06372">
        <ele>1216</ele>
        <time>2018-11-10T06:38:09Z</time>
      </trkpt>
      <trkpt lat="44.65393" lon="6.06361">
        <ele>1219</ele>
        <time>2018-11-10T06:39:09Z</time>
      </trkpt>
      <trkpt lat="44.65407" lon="6.0634">
        <ele>1225</ele>
        <time>2018-11-10T06:40:09Z</time>
      </trkpt>
      <trkpt lat="44.65409" lon="6.06334">
        <ele>1226</ele>
        <time>2018-11-10T06:41:09Z</time>
      </trkpt>
      <trkpt lat="44.65423" lon="6.06316">
        <ele>1230</ele>
        <time>2018-11-10T06:42:09Z</time>
      </trkpt>
      <trkpt lat="44.6543" lon="6.06301">
        <ele>1232</ele>
        <time>2018-11-10T06:43:09Z</time>
      </trkpt>
      <trkpt lat="44.65429" lon="6.063">
        <ele>1232</ele>
        <time>2018-11-10T06:44:09Z</time>
      </trkpt>
      <trkpt lat="44.65439" lon="6.06276">
        <ele>1235</ele>
        <time>2018-11-10T06:45:09Z</time>
      </trkpt>
      <trkpt lat="44.65443" lon="6.0626">
        <ele>1238</ele>
        <time>2018-11-10T06:46:09Z</time>
      </trkpt>
      <trkpt lat="44.6545" lon="6.06253">
        <ele>1237</ele>
        <time>2018-11-10T06:47:09Z</time>
      </trkpt>
      <trkpt lat="44.65455" lon="6.06243">
        <ele>1237</ele>
        <time>2018-11-10T06:48:09Z</time>
      </trkpt>
      <trkpt lat="44.65457" lon="6.06235">
        <ele>1238</ele>
        <time>2018-11-10T06:49:09Z</time>
      </trkpt>
      <trkpt lat="44.65465" lon="6.06218">
        <ele>1237</ele>
        <time>2018-11-10T06:50:09Z</time>
      </trkpt>
      <trkpt lat="44.65467" lon="6.06214">
        <ele>1237</ele>
        <time>2018-11-10T06:51:09Z</time>
      </trkpt>
      <trkpt lat="44.65472" lon="6.06204">
        <ele>1237</ele>
        <time>2018-11-10T06:52:09Z</time>
      </trkpt>
      <trkpt lat="44.65473" lon="6.06194">
        <ele>1238</ele>
        <time>2018-11-10T06:53:09Z</time>
      </trkpt>
      <trkpt lat="44.6548" lon="6.06174">
        <ele>1237</ele>
        <time>2018-11-10T06:54:09Z</time>
      </trkpt>
      <trkpt lat="44.65484" lon="6.06158">
        <ele>1238</ele>
        <time>2018-11-10T06:55:09Z</time>
      </trkpt>
      <trkpt lat="44.65513" lon="6.06133">
        <ele>1232</ele>
        <time>2018-11-10T06:56:09Z</time>
      </trkpt>
      <trkpt lat="44.65515" lon="6.06131">
        <ele>1231</ele>
        <time>2018-11-10T06:57:09Z</time>
      </trkpt>
      <trkpt lat="44.65518" lon="6.06128">
        <ele>1231</ele>
        <time>2018-11-10T06:58:09Z</time>
      </trkpt>
      <trkpt lat="44.65529" lon="6.06123">
        <ele>1227</ele>
        <time>2018-11-10T06:59:09Z</time>
      </trkpt>
      <trkpt lat="44.65564" lon="6.06091">
        <ele>1220</ele>
        <time>2018-11-10T07:00:09Z</time>
      </trkpt>
      <trkpt lat="44.65581" lon="6.06079">
        <ele>1216</ele>
        <time>2018-11-10T07:01:09Z</time>
      </trkpt>
      <trkpt lat="44.65587" lon="6.06069">
        <ele>1216</ele>
        <time>2018-11-10T07:02:09Z</time>
      </trkpt>
      <trkpt lat="44.65598" lon="6.06057">
        <ele>1215</ele>
        <time>2018-11-10T07:03:09Z</time>
      </trkpt>
      <trkpt lat="44.65608" lon="6.06048">
        <ele>1214</ele>
        <time>2018-11-10T07:04:09Z</time>
      </trkpt>
      <trkpt lat="44.65615" lon="6.06036">
        <ele>1214</ele>
        <time>2018-11-10T07:05:09Z</time>
      </trkpt>
      <trkpt lat="44.65615" lon="6.06031">
        <ele>1215</ele>
        <time>2018-11-10T07:06:09Z</time>
      </trkpt>
      <trkpt lat="44.65617" lon="6.0602">
        <ele>1216</ele>
        <time>2018-11-10T07:07:09Z</time>
      </trkpt>
      <trkpt lat="44.65628" lon="6.06011">
        <ele>1214</ele>
        <time>2018-11-10T07:08:09Z</time>
      </trkpt>
      <trkpt lat="44.65643" lon="6.06">
        <ele>1211</ele>
        <time>2018-11-10T07:09:09Z</time>
      </trkpt>
      <trkpt lat="44.65658" lon="6.05989">
        <ele>1207</ele>
        <time>2018-11-10T07:10:09Z</time>
      </trkpt>
      <trkpt lat="44.65667" lon="6.05983">
        <ele>1205</ele>
        <time>2018-11-10T07:11:09Z</time>
      </trkpt>
      <trkpt lat="44.65675" lon="6.05978">
        <ele>1202</ele>
        <time>2018-11-10T07:12:09Z</time>
      </trkpt>
      <trkpt lat="44.65683" lon="6.05971">
        <ele>1201</ele>
        <time>2018-11-10T07:13:09Z</time>
      </trkpt>
      <trkpt lat="44.65682" lon="6.05972">
        <ele>1201</ele>
        <time>2018-11-10T07:14:09Z</time>
      </trkpt>
      <trkpt lat="44.65683" lon="6.05967">
        <ele>1201</ele>
        <time>2018-11-10T07:15:09Z</time>
      </trkpt>
      <trkpt lat="44.65691" lon="6.05966">
        <ele>1198</ele>
        <time>2018-11-10T07:16:09Z</time>
      </trkpt>
      <trkpt lat="44.65702" lon="6.05951">
        <ele>1196</ele>
        <time>2018-11-10T07:17:09Z</time>
      </trkpt>
      <trkpt lat="44.65709" lon="6.05944">
        <ele>1194</ele>
        <time>2018-11-10T07:18:09Z</time>
      </trkpt>
      <trkpt lat="44.65716" lon="6.05936">
        <ele>1193</ele>
        <time>2018-11-10T07:19:09Z</time>
      </trkpt>
      <trkpt lat="44.65719" lon="6.0593">
        <ele>1192</ele>
        <time>2018-11-10T07:20:09Z</time>
      </trkpt>
      <trkpt lat="44.65719" lon="6.05917">
        <ele>1194</ele>
        <time>2018-11-10T07:21:09Z</time>
      </trkpt>
      <trkpt lat="44.65717" lon="6.05909">
        <ele>1196</ele>
        <time>2018-11-10T07:22:09Z</time>
      </trkpt>
      <trkpt lat="44.6571" lon="6.05887">
        <ele>1201</ele>
        <time>2018-11-10T07:23:09Z</time>
      </trkpt>
      <trkpt lat="44.65709" lon="6.05882">
        <ele>1201</ele>
        <time>2018-11-10T07:24:09Z</time>
      </trkpt>
      <trkpt lat="44.65737" lon="6.0587">
        <ele>1192</ele>
        <time>2018-11-10T07:25:09Z</time>
      </trkpt>
      <trkpt lat="44.65758" lon="6.05876">
        <ele>1187</ele>
        <time>2018-11-10T07:26:09Z</time>
      </trkpt>
      <trkpt lat="44.65761" lon="6.05885">
        <ele>1186</ele>
        <time>2018-11-10T07:27:09Z</time>
      </trkpt>
      <trkpt lat="44.65766" lon="6.05897">
        <ele>1185</ele>
        <time>2018-11-10T07:28:09Z</time>
      </trkpt>
      <trkpt lat="44.65766" lon="6.05901">
        <ele>1184</ele>
        <time>2018-11-10T07:29:09Z</time>
      </trkpt>
      <trkpt lat="44.65768" lon="6.05904">
        <ele>1184</ele>
        <time>2018-11-10T07:30:09Z</time>
      </trkpt>
      <trkpt lat="44.65768" lon="6.05907">
        <ele>1184</ele>
        <time>2018-11-10T07:31:09Z</time>
      </trkpt>
      <trkpt lat="44.6577" lon="6.05911">
        <ele>1183</ele>
        <time>2018-11-10T07:32:09Z</time>
      </trkpt>
      <trkpt lat="44.65772" lon="6.05919">
        <ele>1182</ele>
        <time>2018-11-10T07:33:09Z</time>
      </trkpt>
      <trkpt lat="44.65774" lon="6.05924">
        <ele>1181</ele>
        <time>2018-11-10T07:34:09Z</time>
      </trkpt>
      <trkpt lat="44.65778" lon="6.05933">
        <ele>1180</ele>
        <time>2018-11-10T07:35:09Z</time>
      </trkpt>
      <trkpt lat="44.65779" lon="6.05938">
        <ele>1180</ele>
        <time>2018-11-10T07:36:09Z</time>
      </trkpt>
      <trkpt lat="44.65778" lon="6.05946">
        <ele>1178</ele>
        <time>2018-11-10T07:37:09Z</time>
      </trkpt>
      <trkpt lat="44.65783" lon="6.05966">
        <ele>1175</ele>
        <time>2018-11-10T07:38:09Z</time>
      </trkpt>
      <trkpt lat="44.65791" lon="6.05987">
        <ele>1172</ele>
        <time>2018-11-10T07:39:09Z</time>
      </trkpt>
      <trkpt lat="44.65804" lon="6.05999">
        <ele>1170</ele>
        <time>2018-11-10T07:40:09Z</time>
      </trkpt>
      <trkpt lat="44.65818" lon="6.06">
        <ele>1169</ele>
        <time>2018-11-10T07:41:09Z</time>
      </trkpt>
      <trkpt lat="44.65822" lon="6.05998">
        <ele>1170</ele>
        <time>2018-11-10T07:42:09Z</time>
      </trkpt>
      <trkpt lat="44.65823" lon="6.06007">
        <ele>1168</ele>
        <time>2018-11-10T07:43:09Z</time>
      </trkpt>
      <trkpt lat="44.65826" lon="6.06007">
        <ele>1168</ele>
        <time>2018-11-10T07:44:09Z</time>
      </trkpt>
      <trkpt lat="44.65825" lon="6.06007">
        <ele>1168</ele>
        <time>2018-11-10T07:45:09Z</time>
      </trkpt>
      <trkpt lat="44.65823" lon="6.06007">
        <ele>1168</ele>
        <time>2018-11-10T07:46:09Z</time>
      </trkpt>
      <trkpt lat="44.65826" lon="6.06005">
        <ele>1168</ele>
        <time>2018-11-10T07:47:09Z</time>
      </trkpt>
      <trkpt lat="44.65843" lon="6.06004">
        <ele>1169</ele>
        <time>2018-11-10T07:48:09Z</time>
      </trkpt>
      <trkpt lat="44.65853" lon="6.06006">
        <ele>1170</ele>
        <time>2018-11-10T07:49:09Z</time>
      </trkpt>
      <trkpt lat="44.65856" lon="6.06007">
        <ele>1170</ele>
        <time>2018-11-10T07:50:09Z</time>
      </trkpt>
      <trkpt lat="44.65868" lon="6.06018">
        <ele>1169</ele>
        <time>2018-11-10T07:51:09Z</time>
      </trkpt>
      <trkpt lat="44.65884" lon="6.06029">
        <ele>1167</ele>
        <time>2018-11-10T07:52:09Z</time>
      </trkpt>
      <trkpt lat="44.65889" lon="6.06031">
        <ele>1167</ele>
        <time>2018-11-10T07:53:09Z</time>
      </trkpt>
      <trkpt lat="44.65895" lon="6.06033">
        <ele>1167</ele>
        <time>2018-11-10T07:54:09Z</time>
      </trkpt>
      <trkpt lat="44.65906" lon="6.06034">
        <ele>1168</ele>
        <time>2018-11-10T07:55:09Z</time>
      </trkpt>
      <trkpt lat="44.65917" lon="6.06039">
        <ele>1167</ele>
        <time>2018-11-10T07:56:09Z</time>
      </trkpt>
      <trkpt lat="44.65925" lon="6.06039">
        <ele>1166</ele>
        <time>2018-11-10T07:57:09Z</time>
      </trkpt>
      <trkpt lat="44.65939" lon="6.06042">
        <ele>1164</ele>
        <time>2018-11-10T07:58:09Z</time>
      </trkpt>
      <trkpt lat="44.65952" lon="6.06049">
        <ele>1162</ele>
        <time>2018-11-10T07:59:09Z</time>
      </trkpt>
      <trkpt lat="44.65953" lon="6.0605">
        <ele>1162</ele>
        <time>2018-11-10T08:00:09Z</time>
      </trkpt>
      <trkpt lat="44.65974" lon="6.06062">
        <ele>1158</ele>
        <time>2018-11-10T08:01:09Z</time>
      </trkpt>
      <trkpt lat="44.65984" lon="6.06067">
        <ele>1157</ele>
        <time>2018-11-10T08:02:09Z</time>
      </trkpt>
      <trkpt lat="44.6599" lon="6.06055">
        <ele>1159</ele>
        <time>2018-11-10T08:03:09Z</time>
      </trkpt>
      <trkpt lat="44.65991" lon="6.06052">
        <ele>1159</ele>
        <time>2018-11-10T08:04:09Z</time>
      </trkpt>
      <trkpt lat="44.65999" lon="6.06042">
        <ele>1160</ele>
        <time>2018-11-10T08:05:09Z</time>
      </trkpt>
      <trkpt lat="44.6601" lon="6.06024">
        <ele>1162</ele>
        <time>2018-11-10T08:06:09Z</time>
      </trkpt>
      <trkpt lat="44.66016" lon="6.06018">
        <ele>1162</ele>
        <time>2018-11-10T08:07:09Z</time>
      </trkpt>
      <trkpt lat="44.66024" lon="6.06011">
        <ele>1162</ele>
        <time>2018-11-10T08:08:09Z</time>
      </trkpt>
      <trkpt lat="44.66028" lon="6.06005">
        <ele>1163</ele>
        <time>2018-11-10T08:09:09Z</time>
      </trkpt>
      <trkpt lat="44.66037" lon="6.06004">
        <ele>1162</ele>
        <time>2018-11-10T08:10:09Z</time>
      </trkpt>
      <trkpt lat="44.66043" lon="6.05998">
        <ele>1163</ele>
        <time>2018-11-10T08:11:09Z</time>
      </trkpt>
      <trkpt lat="44.66059" lon="6.05981">
        <ele>1163</ele>
        <time>2018-11-10T08:12:09Z</time>
      </trkpt>
      <trkpt lat="44.66074" lon="6.0597">
        <ele>1163</ele>
        <time>2018-11-10T08:13:09Z</time>
      </trkpt>
      <trkpt lat="44.66089" lon="6.05955">
        <ele>1163</ele>
        <time>2018-11-10T08:14:09Z</time>
      </trkpt>
      <trkpt lat="44.66103" lon="6.05936">
        <ele>1165</ele>
        <time>2018-11-10T08:15:09Z</time>
      </trkpt>
      <trkpt lat="44.66113" lon="6.05923">
        <ele>1167</ele>
        <time>2018-11-10T08:16:09Z</time>
      </trkpt>
      <trkpt lat="44.66124" lon="6.05915">
        <ele>1168</ele>
        <time>2018-11-10T08:17:09Z</time>
      </trkpt>
      <trkpt lat="44.66157" lon="6.05884">
        <ele>1173</ele>
        <time>2018-11-10T08:18:09Z</time>
      </trkpt>
      <trkpt lat="44.66168" lon="6.05877">
        <ele>1174</ele>
        <time>2018-11-10T08:19:09Z</time>
      </trkpt>
      <trkpt lat="44.6617" lon="6.05875">
        <ele>1174</ele>
        <time>2018-11-10T08:20:09Z</time>
      </trkpt>
      <trkpt lat="44.66178" lon="6.05868">
        <ele>1175</ele>
        <time>2018-11-10T08:21:09Z</time>
      </trkpt>
      <trkpt lat="44.66194" lon="6.05849">
        <ele>1178</ele>
        <time>2018-11-10T08:22:09Z</time>
      </trkpt>
      <trkpt lat="44.66197" lon="6.05844">
        <ele>1179</ele>
        <time>2018-11-10T08:23:09Z</time>
      </trkpt>
      <trkpt lat="44.66201" lon="6.0584">
        <ele>1180</ele>
        <time>2018-11-10T08:24:09Z</time>
      </trkpt>
      <trkpt lat="44.66211" lon="6.05832">
        <ele>1181</ele>
        <time>2018-11-10T08:25:09Z</time>
      </trkpt>
      <trkpt lat="44.66219" lon="6.05826">
        <ele>1183</ele>
        <time>2018-11-10T08:26:09Z</time>
      </trkpt>
      <trkpt lat="44.66231" lon="6.0582">
        <ele>1186</ele>
        <time>2018-11-10T08:27:09Z</time>
      </trkpt>
      <trkpt lat="44.66244" lon="6.05814">
        <ele>1188</ele>
        <time>2018-11-10T08:28:09Z</time>
      </trkpt>
      <trkpt lat="44.66249" lon="6.05813">
        <ele>1188</ele>
        <time>2018-11-10T08:29:09Z</time>
      </trkpt>
      <trkpt lat="44.66261" lon="6.05807">
        <ele>1189</ele>
        <time>2018-11-10T08:30:09Z</time>
      </trkpt>
      <trkpt lat="44.66265" lon="6.05805">
        <ele>1189</ele>
        <time>2018-11-10T08:31:09Z</time>
      </trkpt>
      <trkpt lat="44.66279" lon="6.058">
        <ele>1189</ele>
        <time>2018-11-10T08:32:09Z</time>
      </trkpt>
      <trkpt lat="44.66287" lon="6.05798">
        <ele>1189</ele>
        <time>2018-11-10T08:33:09Z</time>
      </trkpt>
      <trkpt lat="44.66301" lon="6.05794">
        <ele>1189</ele>
        <time>2018-11-10T08:34:09Z</time>
      </trkpt>
      <trkpt lat="44.66309" lon="6.0579">
        <ele>1189</ele>
        <time>2018-11-10T08:35:09Z</time>
      </trkpt>
      <trkpt lat="44.66322" lon="6.05786">
        <ele>1189</ele>
        <time>2018-11-10T08:36:09Z</time>
      </trkpt>
      <trkpt lat="44.66334" lon="6.05783">
        <ele>1189</ele>
        <time>2018-11-10T08:37:09Z</time>
      </trkpt>
      <trkpt lat="44.66352" lon="6.05783">
        <ele>1188</ele>
        <time>2018-11-10T08:38:09Z</time>
      </trkpt>
      <trkpt lat="44.66371" lon="6.05783">
        <ele>1187</ele>
        <time>2018-11-10T08:39:09Z</time>
      </trkpt>
      <trkpt lat="44.6639" lon="6.05784">
        <ele>1186</ele>
        <time>2018-11-10T08:40:09Z</time>
      </trkpt>
      <trkpt lat="44.66399" lon="6.05782">
        <ele>1186</ele>
        <time>2018-11-10T08:41:09Z</time>
      </trkpt>
      <trkpt lat="44.66413" lon="6.05778">
        <ele>1187</ele>
        <time>2018-11-10T08:42:09Z</time>
      </trkpt>
      <trkpt lat="44.66424" lon="6.05774">
        <ele>1187</ele>
        <time>2018-11-10T08:43:09Z</time>
      </trkpt>
      <trkpt lat="44.66439" lon="6.05764">
        <ele>1188</ele>
        <time>2018-11-10T08:44:09Z</time>
      </trkpt>
      <trkpt lat="44.66456" lon="6.05755">
        <ele>1188</ele>
        <time>2018-11-10T08:45:09Z</time>
      </trkpt>
      <trkpt lat="44.66468" lon="6.05748">
        <ele>1189</ele>
        <time>2018-11-10T08:46:09Z</time>
      </trkpt>
      <trkpt lat="44.66486" lon="6.05733">
        <ele>1191</ele>
        <time>2018-11-10T08:47:09Z</time>
      </trkpt>
      <trkpt lat="44.66495" lon="6.05726">
        <ele>1192</ele>
        <time>2018-11-10T08:48:09Z</time>
      </trkpt>
      <trkpt lat="44.66502" lon="6.05718">
        <ele>1193</ele>
        <time>2018-11-10T08:49:09Z</time>
      </trkpt>
      <trkpt lat="44.66512" lon="6.05705">
        <ele>1194</ele>
        <time>2018-11-10T08:50:09Z</time>
      </trkpt>
      <trkpt lat="44.66525" lon="6.05691">
        <ele>1195</ele>
        <time>2018-11-10T08:51:09Z</time>
      </trkpt>
      <trkpt lat="44.66529" lon="6.05688">
        <ele>1195</ele>
        <time>2018-11-10T08:52:09Z</time>
      </trkpt>
      <trkpt lat="44.6654" lon="6.05671">
        <ele>1197</ele>
        <time>2018-11-10T08:53:09Z</time>
      </trkpt>
      <trkpt lat="44.66545" lon="6.05663">
        <ele>1198</ele>
        <time>2018-11-10T08:54:09Z</time>
      </trkpt>
      <trkpt lat="44.66547" lon="6.05654">
        <ele>1201</ele>
        <time>2018-11-10T08:55:09Z</time>
      </trkpt>
      <trkpt lat="44.66554" lon="6.05639">
        <ele>1204</ele>
        <time>2018-11-10T08:56:09Z</time>
      </trkpt>
      <trkpt lat="44.66557" lon="6.05635">
        <ele>1205</ele>
        <time>2018-11-10T08:57:09Z</time>
      </trkpt>
      <trkpt lat="44.6657" lon="6.05623">
        <ele>1205</ele>
        <time>2018-11-10T08:58:09Z</time>
      </trkpt>
      <trkpt lat="44.66581" lon="6.05617">
        <ele>1204</ele>
        <time>2018-11-10T08:59:09Z</time>
      </trkpt>
      <trkpt lat="44.66589" lon="6.05617">
        <ele>1203</ele>
        <time>2018-11-10T09:00:09Z</time>
      </trkpt>
      <trkpt lat="44.666" lon="6.05618">
        <ele>1203</ele>
        <time>2018-11-10T09:01:09Z</time>
      </trkpt>
      <trkpt lat="44.6661" lon="6.05621">
        <ele>1201</ele>
        <time>2018-11-10T09:02:09Z</time>
      </trkpt>
      <trkpt lat="44.66616" lon="6.05618">
        <ele>1202</ele>
        <time>2018-11-10T09:03:09Z</time>
      </trkpt>
      <trkpt lat="44.66618" lon="6.05614">
        <ele>1203</ele>
        <time>2018-11-10T09:04:09Z</time>
      </trkpt>
      <trkpt lat="44.66617" lon="6.05604">
        <ele>1205</ele>
        <time>2018-11-10T09:05:09Z</time>
      </trkpt>
      <trkpt lat="44.66616" lon="6.05601">
        <ele>1206</ele>
        <time>2018-11-10T09:06:09Z</time>
      </trkpt>
      <trkpt lat="44.66617" lon="6.05591">
        <ele>1208</ele>
        <time>2018-11-10T09:07:09Z</time>
      </trkpt>
      <trkpt lat="44.66622" lon="6.05583">
        <ele>1209</ele>
        <time>2018-11-10T09:08:09Z</time>
      </trkpt>
      <trkpt lat="44.66622" lon="6.05583">
        <ele>1209</ele>
        <time>2018-11-10T09:09:09Z</time>
      </trkpt>
      <trkpt lat="44.66623" lon="6.05577">
        <ele>1211</ele>
        <time>2018-11-10T09:10:09Z</time>
      </trkpt>
      <trkpt lat="44.66624" lon="6.0557">
        <ele>1212</ele>
        <time>2018-11-10T09:11:09Z</time>
      </trkpt>
      <trkpt lat="44.66641" lon="6.05563">
        <ele>1212</ele>
        <time>2018-11-10T09:12:09Z</time>
      </trkpt>
      <trkpt lat="44.66652" lon="6.05553">
        <ele>1214</ele>
        <time>2018-11-10T09:13:09Z</time>
      </trkpt>
      <trkpt lat="44.6666" lon="6.05548">
        <ele>1214</ele>
        <time>2018-11-10T09:14:09Z</time>
      </trkpt>
      <trkpt lat="44.66666" lon="6.05545">
        <ele>1214</ele>
        <time>2018-11-10T09:15:09Z</time>
      </trkpt>
      <trkpt lat="44.66675" lon="6.05544">
        <ele>1211</ele>
        <time>2018-11-10T09:16:09Z</time>
      </trkpt>
      <trkpt lat="44.66691" lon="6.05553">
        <ele>1204</ele>
        <time>2018-11-10T09:17:09Z</time>
      </trkpt>
      <trkpt lat="44.66702" lon="6.05558">
        <ele>1200</ele>
        <time>2018-11-10T09:18:09Z</time>
      </trkpt>
      <trkpt lat="44.66661" lon="6.0564">
        <ele>1197</ele>
        <time>2019-05-29T11:18:07Z</time>
      </trkpt>
      <trkpt lat="44.66661" lon="6.0564">
        <ele>1197</ele>
        <time>2019-05-29T11:18:07Z</time>
      </trkpt>
      <trkpt lat="44.66661" lon="6.0564">
        <ele>1197</ele>
        <time>2019-05-29T11:18:07Z</time>
      </trkpt>
      <trkpt lat="44.66667" lon="6.05676">
        <ele>1186.6</ele>
        <time>2019-05-29T11:15:19Z</time>
      </trkpt>
      <trkpt lat="44.66609" lon="6.0569">
        <ele>1183</ele>
        <time>2019-05-29T11:14:54Z</time>
      </trkpt>
      <trkpt lat="44.66602" lon="6.05703">
        <ele>1181.3</ele>
        <time>2019-05-29T11:14:18Z</time>
      </trkpt>
      <trkpt lat="44.66587" lon="6.05746">
        <ele>1172.2</ele>
        <time>2019-05-29T11:14:05Z</time>
      </trkpt>
      <trkpt lat="44.66552" lon="6.05789">
        <ele>1167.6</ele>
        <time>2019-05-29T11:13:08Z</time>
      </trkpt>
      <trkpt lat="44.66477" lon="6.05851">
        <ele>1157.2</ele>
        <time>2019-05-29T11:12:13Z</time>
      </trkpt>
      <trkpt lat="44.66444" lon="6.05908">
        <ele>1151.1</ele>
        <time>2019-05-29T11:11:56Z</time>
      </trkpt>
      <trkpt lat="44.66443" lon="6.06011">
        <ele>1130.4</ele>
        <time>2019-05-29T11:11:27Z</time>
      </trkpt>
      <trkpt lat="44.66456" lon="6.06041">
        <ele>1128.8</ele>
        <time>2019-05-29T11:11:12Z</time>
      </trkpt>
      <trkpt lat="44.66475" lon="6.06055">
        <ele>1127.6</ele>
        <time>2019-05-29T11:11:05Z</time>
      </trkpt>
      <trkpt lat="44.66553" lon="6.06071">
        <ele>1119.7</ele>
        <time>2019-05-29T11:10:56Z</time>
      </trkpt>
      <trkpt lat="44.66567" lon="6.06076">
        <ele>1117.9</ele>
        <time>2019-05-29T11:10:40Z</time>
      </trkpt>
      <trkpt lat="44.66585" lon="6.06086">
        <ele>1112.8</ele>
        <time>2019-05-29T11:10:17Z</time>
      </trkpt>
      <trkpt lat="44.66605" lon="6.06081">
        <ele>1114.7</ele>
        <time>2019-05-29T11:09:52Z</time>
      </trkpt>
      <trkpt lat="44.6663" lon="6.06094">
        <ele>1105.3</ele>
        <time>2019-05-29T11:09:45Z</time>
      </trkpt>
      <trkpt lat="44.66651" lon="6.06118">
        <ele>1103.1</ele>
        <time>2019-05-29T11:08:14Z</time>
      </trkpt>
      <trkpt lat="44.6667" lon="6.06116">
        <ele>1099.1</ele>
        <time>2019-05-29T11:08:00Z</time>
      </trkpt>
      <trkpt lat="44.6669" lon="6.06138">
        <ele>1096.3</ele>
        <time>2019-05-29T11:07:44Z</time>
      </trkpt>
      <trkpt lat="44.6673" lon="6.06151">
        <ele>1092.4</ele>
        <time>2019-05-29T11:07:38Z</time>
      </trkpt>
      <trkpt lat="44.66767" lon="6.06162">
        <ele>1086.7</ele>
        <time>2019-05-29T11:07:29Z</time>
      </trkpt>
      <trkpt lat="44.66829" lon="6.06169">
        <ele>1079.9</ele>
        <time>2019-05-29T11:05:52Z</time>
      </trkpt>
      <trkpt lat="44.66895" lon="6.06186">
        <ele>1074.5</ele>
        <time>2019-05-29T11:01:16Z</time>
      </trkpt>
      <trkpt lat="44.66919" lon="6.06162">
        <ele>1075.2</ele>
        <time>2019-05-29T11:01:00Z</time>
      </trkpt>
      <trkpt lat="44.66987" lon="6.0616">
        <ele>1081</ele>
        <time>2019-05-29T11:00:27Z</time>
      </trkpt>
      <trkpt lat="44.66983" lon="6.06165">
        <ele>1077</ele>
        <time>2019-05-29T11:00:18Z</time>
      </trkpt>
      <trkpt lat="44.67036" lon="6.06228">
        <ele>1069</ele>
        <time>2019-05-29T11:00:11Z</time>
      </trkpt>
      <trkpt lat="44.67137" lon="6.0632">
        <ele>1058</ele>
        <time>2019-05-29T10:59:59Z</time>
      </trkpt>
      <trkpt lat="44.67163" lon="6.0638">
        <ele>1053</ele>
        <time>2019-05-29T10:59:30Z</time>
      </trkpt>
      <trkpt lat="44.67183" lon="6.06394">
        <ele>1050</ele>
        <time>2019-05-29T12:20:55Z</time>
      </trkpt>
      <trkpt lat="44.67268" lon="6.06462">
        <ele>1040</ele>
        <time>2019-05-29T12:20:59Z</time>
      </trkpt>
      <trkpt lat="44.67315" lon="6.06472">
        <ele>1036</ele>
        <time>2019-05-29T12:21:13Z</time>
      </trkpt>
      <trkpt lat="44.67337" lon="6.06463">
        <ele>1036</ele>
        <time>2019-05-29T12:21:37Z</time>
      </trkpt>
      <trkpt lat="44.67358" lon="6.06449">
        <ele>1034</ele>
        <time>2019-05-29T12:22:04Z</time>
      </trkpt>
      <trkpt lat="44.67381" lon="6.06452">
        <ele>1032</ele>
        <time>2019-05-29T12:22:17Z</time>
      </trkpt>
      <trkpt lat="44.67406" lon="6.06457">
        <ele>1028</ele>
        <time>2019-05-29T12:22:26Z</time>
      </trkpt>
      <trkpt lat="44.67447" lon="6.06487">
        <ele>1021</ele>
        <time>2019-05-29T12:22:36Z</time>
      </trkpt>
      <trkpt lat="44.67519" lon="6.06506">
        <ele>1016</ele>
        <time>2019-05-29T12:22:52Z</time>
      </trkpt>
      <trkpt lat="44.67586" lon="6.06543">
        <ele>1014</ele>
        <time>2019-05-29T12:23:30Z</time>
      </trkpt>
      <trkpt lat="44.6761" lon="6.06544">
        <ele>1011</ele>
        <time>2019-05-29T12:23:37Z</time>
      </trkpt>
      <trkpt lat="44.67631" lon="6.06566">
        <ele>1010</ele>
        <time>2019-05-29T12:28:09Z</time>
      </trkpt>
      <trkpt lat="44.6765" lon="6.06583">
        <ele>1009</ele>
        <time>2019-05-29T12:28:18Z</time>
      </trkpt>
      <trkpt lat="44.67696" lon="6.066">
        <ele>1008</ele>
        <time>2019-05-29T12:28:30Z</time>
      </trkpt>
      <trkpt lat="44.67717" lon="6.0658">
        <ele>1008</ele>
        <time>2019-05-29T12:28:40Z</time>
      </trkpt>
      <trkpt lat="44.67736" lon="6.06558">
        <ele>1009</ele>
        <time>2019-05-29T12:29:11Z</time>
      </trkpt>
      <trkpt lat="44.6775" lon="6.06546">
        <ele>1007</ele>
        <time>2019-05-29T12:29:55Z</time>
      </trkpt>
      <trkpt lat="44.67734" lon="6.06579">
        <ele>1005</ele>
        <time>2019-05-29T12:30:28Z</time>
      </trkpt>
      <trkpt lat="44.67655" lon="6.06671">
        <ele>999</ele>
        <time>2019-05-29T12:30:37Z</time>
      </trkpt>
      <trkpt lat="44.67609" lon="6.06757">
        <ele>995</ele>
        <time>2019-05-29T12:31:14Z</time>
      </trkpt>
      <trkpt lat="44.6759" lon="6.0682">
        <ele>992</ele>
        <time>2019-05-29T12:31:21Z</time>
      </trkpt>
      <trkpt lat="44.67574" lon="6.0693">
        <ele>987</ele>
        <time>2019-05-29T12:31:39Z</time>
      </trkpt>
      <trkpt lat="44.67497" lon="6.07151">
        <ele>980</ele>
        <time>2019-05-29T12:32:11Z</time>
      </trkpt>
      <trkpt lat="44.67485" lon="6.07206">
        <ele>975.2</ele>
        <time>2019-05-29T12:32:19Z</time>
      </trkpt>
      <trkpt lat="44.67479" lon="6.07249">
        <ele>973.9</ele>
        <time>2019-05-29T12:32:52Z</time>
      </trkpt>
      <trkpt lat="44.67487" lon="6.07266">
        <ele>972.3</ele>
        <time>2019-05-29T12:33:17Z</time>
      </trkpt>
      <trkpt lat="44.67517" lon="6.07279">
        <ele>969.5</ele>
        <time>2019-05-29T12:33:26Z</time>
      </trkpt>
      <trkpt lat="44.67648" lon="6.07441">
        <ele>965.3</ele>
        <time>2019-05-29T12:33:35Z</time>
      </trkpt>
      <trkpt lat="44.67655" lon="6.07459">
        <ele>966.4</ele>
        <time>2019-05-29T12:33:51Z</time>
      </trkpt>
      <trkpt lat="44.67642" lon="6.0748">
        <ele>967.3</ele>
        <time>2019-05-29T12:34:10Z</time>
      </trkpt>
      <trkpt lat="44.67637" lon="6.07487">
        <ele>967</ele>
        <time>2019-05-29T12:34:33Z</time>
      </trkpt>
      <trkpt lat="44.67607" lon="6.07534">
        <ele>972</ele>
        <time>2019-05-29T12:35:11Z</time>
      </trkpt>
      <trkpt lat="44.67588" lon="6.07552">
        <ele>972</ele>
        <time>2019-05-29T12:35:19Z</time>
      </trkpt>
      <trkpt lat="44.67514" lon="6.07585">
        <ele>970</ele>
        <time>2019-05-29T12:35:37Z</time>
      </trkpt>
      <trkpt lat="44.67389" lon="6.07722">
        <ele>972</ele>
        <time>2019-05-29T12:35:45Z</time>
      </trkpt>
      <trkpt lat="44.67317" lon="6.0776">
        <ele>970</ele>
        <time>2019-05-29T12:35:53Z</time>
      </trkpt>
      <trkpt lat="44.67293" lon="6.07758">
        <ele>971</ele>
        <time>2019-05-29T12:35:59Z</time>
      </trkpt>
      <trkpt lat="44.67269" lon="6.07746">
        <ele>971</ele>
        <time>2019-05-29T12:36:20Z</time>
      </trkpt>
      <trkpt lat="44.67247" lon="6.0776">
        <ele>971</ele>
        <time>2019-05-29T12:36:33Z</time>
      </trkpt>
      <trkpt lat="44.67224" lon="6.0777">
        <ele>971</ele>
        <time>2019-05-29T12:36:46Z</time>
      </trkpt>
      <trkpt lat="44.67199" lon="6.07778">
        <ele>969</ele>
        <time>2019-05-29T12:37:31Z</time>
      </trkpt>
      <trkpt lat="44.67176" lon="6.07789">
        <ele>969</ele>
        <time>2019-05-29T12:37:38Z</time>
      </trkpt>
      <trkpt lat="44.67085" lon="6.07832">
        <ele>970</ele>
        <time>2019-05-29T12:37:50Z</time>
      </trkpt>
      <trkpt lat="44.6698" lon="6.07913">
        <ele>971</ele>
        <time>2019-05-29T12:37:58Z</time>
      </trkpt>
      <trkpt lat="44.66961" lon="6.07931">
        <ele>971</ele>
        <time>2019-05-29T12:38:07Z</time>
      </trkpt>
      <trkpt lat="44.66941" lon="6.0799">
        <ele>973</ele>
        <time>2019-05-29T12:38:14Z</time>
      </trkpt>
      <trkpt lat="44.66933" lon="6.08021">
        <ele>973</ele>
        <time>2019-05-29T12:38:53Z</time>
      </trkpt>
      <trkpt lat="44.66918" lon="6.08046">
        <ele>973</ele>
        <time>2019-05-29T12:39:21Z</time>
      </trkpt>
      <trkpt lat="44.66895" lon="6.08052">
        <ele>973</ele>
        <time>2019-05-29T12:39:35Z</time>
      </trkpt>
      <trkpt lat="44.66867" lon="6.08107">
        <ele>973</ele>
        <time>2019-05-29T12:40:04Z</time>
      </trkpt>
      <trkpt lat="44.66847" lon="6.08232">
        <ele>975</ele>
        <time>2019-05-29T12:40:26Z</time>
      </trkpt>
      <trkpt lat="44.66839" lon="6.08264">
        <ele>975</ele>
        <time>2019-05-29T12:40:34Z</time>
      </trkpt>
      <trkpt lat="44.66797" lon="6.08385">
        <ele>975</ele>
        <time>2019-05-29T12:40:43Z</time>
      </trkpt>
      <trkpt lat="44.66767" lon="6.08476">
        <ele>976</ele>
        <time>2019-05-29T12:40:57Z</time>
      </trkpt>
      <trkpt lat="44.66757" lon="6.08505">
        <ele>976</ele>
        <time>2019-05-29T12:41:26Z</time>
      </trkpt>
      <trkpt lat="44.66765" lon="6.08537">
        <ele>976</ele>
        <time>2019-05-29T12:41:48Z</time>
      </trkpt>
      <trkpt lat="44.66756" lon="6.08568">
        <ele>979</ele>
        <time>2019-05-29T12:41:56Z</time>
      </trkpt>
      <trkpt lat="44.66715" lon="6.08603">
        <ele>978</ele>
        <time>2019-05-29T12:42:24Z</time>
      </trkpt>
      <trkpt lat="44.66706" lon="6.08633">
        <ele>978</ele>
        <time>2019-05-29T12:42:32Z</time>
      </trkpt>
      <trkpt lat="44.66682" lon="6.08634">
        <ele>979</ele>
        <time>2019-05-29T12:43:05Z</time>
      </trkpt>
      <trkpt lat="44.66667" lon="6.08659">
        <ele>979</ele>
        <time>2019-05-29T12:43:29Z</time>
      </trkpt>
      <trkpt lat="44.66633" lon="6.08705">
        <ele>979</ele>
        <time>2019-05-29T12:44:24Z</time>
      </trkpt>
      <trkpt lat="44.66618" lon="6.08732">
        <ele>979</ele>
        <time>2019-05-29T12:44:40Z</time>
      </trkpt>
      <trkpt lat="44.66597" lon="6.08747">
        <ele>978</ele>
        <time>2019-05-29T12:44:49Z</time>
      </trkpt>
      <trkpt lat="44.6658" lon="6.08769">
        <ele>979</ele>
        <time>2019-05-29T12:45:08Z</time>
      </trkpt>
      <trkpt lat="44.66521" lon="6.0883">
        <ele>979</ele>
        <time>2019-05-29T12:45:16Z</time>
      </trkpt>
      <trkpt lat="44.66484" lon="6.08873">
        <ele>979</ele>
        <time>2019-05-29T12:45:25Z</time>
      </trkpt>
      <trkpt lat="44.66444" lon="6.0891">
        <ele>979</ele>
        <time>2019-05-29T12:45:33Z</time>
      </trkpt>
      <trkpt lat="44.66427" lon="6.08934">
        <ele>979</ele>
        <time>2019-05-29T12:45:41Z</time>
      </trkpt>
      <trkpt lat="44.66411" lon="6.08958">
        <ele>981</ele>
        <time>2019-05-29T12:46:01Z</time>
      </trkpt>
      <trkpt lat="44.66387" lon="6.08962">
        <ele>981</ele>
        <time>2019-05-29T12:46:39Z</time>
      </trkpt>
      <trkpt lat="44.66365" lon="6.0895">
        <ele>981</ele>
        <time>2019-05-29T12:46:49Z</time>
      </trkpt>
      <trkpt lat="44.66343" lon="6.0894">
        <ele>982</ele>
        <time>2019-05-29T12:46:59Z</time>
      </trkpt>
      <trkpt lat="44.66319" lon="6.08941">
        <ele>982</ele>
        <time>2019-05-29T12:47:47Z</time>
      </trkpt>
      <trkpt lat="44.663" lon="6.08964">
        <ele>982</ele>
        <time>2019-05-29T12:47:55Z</time>
      </trkpt>
      <trkpt lat="44.66277" lon="6.08967">
        <ele>982</ele>
        <time>2019-05-29T12:48:06Z</time>
      </trkpt>
      <trkpt lat="44.66253" lon="6.08968">
        <ele>983</ele>
        <time>2019-05-29T12:48:44Z</time>
      </trkpt>
      <trkpt lat="44.66245" lon="6.09">
        <ele>983</ele>
        <time>2019-05-29T12:48:54Z</time>
      </trkpt>
      <trkpt lat="44.66222" lon="6.09011">
        <ele>984</ele>
        <time>2019-05-29T12:49:03Z</time>
      </trkpt>
      <trkpt lat="44.66154" lon="6.09039">
        <ele>985</ele>
        <time>2019-05-29T12:49:13Z</time>
      </trkpt>
      <trkpt lat="44.66135" lon="6.09056">
        <ele>987</ele>
        <time>2019-05-29T12:49:24Z</time>
      </trkpt>
      <trkpt lat="44.66096" lon="6.09091">
        <ele>986</ele>
        <time>2019-05-29T12:49:56Z</time>
      </trkpt>
      <trkpt lat="44.66039" lon="6.09157">
        <ele>988</ele>
        <time>2019-05-29T12:50:14Z</time>
      </trkpt>
      <trkpt lat="44.66024" lon="6.0918">
        <ele>989</ele>
        <time>2019-05-29T12:53:28Z</time>
      </trkpt>
      <trkpt lat="44.66013" lon="6.09211">
        <ele>990</ele>
        <time>2019-05-29T12:53:45Z</time>
      </trkpt>
      <trkpt lat="44.66004" lon="6.0924">
        <ele>994</ele>
        <time>2019-05-29T12:53:58Z</time>
      </trkpt>
      <trkpt lat="44.65994" lon="6.09269">
        <ele>991</ele>
        <time>2019-05-29T12:54:46Z</time>
      </trkpt>
      <trkpt lat="44.65984" lon="6.09369">
        <ele>991</ele>
        <time>2019-05-29T12:54:51Z</time>
      </trkpt>
      <trkpt lat="44.65971" lon="6.09398">
        <ele>991</ele>
        <time>2019-05-29T12:54:56Z</time>
      </trkpt>
      <trkpt lat="44.65918" lon="6.09515">
        <ele>991</ele>
        <time>2019-05-29T12:55:01Z</time>
      </trkpt>
      <trkpt lat="44.65906" lon="6.09544">
        <ele>992</ele>
        <time>2019-05-29T12:55:09Z</time>
      </trkpt>
      <trkpt lat="44.65865" lon="6.09624">
        <ele>991</ele>
        <time>2019-05-29T12:55:18Z</time>
      </trkpt>
      <trkpt lat="44.6584" lon="6.09718">
        <ele>992</ele>
        <time>2019-05-29T12:55:27Z</time>
      </trkpt>
      <trkpt lat="44.65841" lon="6.0975">
        <ele>994</ele>
        <time>2019-05-29T12:56:51Z</time>
      </trkpt>
      <trkpt lat="44.65818" lon="6.09813">
        <ele>994</ele>
        <time>2019-05-29T12:58:06Z</time>
      </trkpt>
      <trkpt lat="44.65812" lon="6.09844">
        <ele>994</ele>
        <time>2019-05-29T12:58:31Z</time>
      </trkpt>
      <trkpt lat="44.65793" lon="6.09906">
        <ele>995</ele>
        <time>2019-05-29T12:58:44Z</time>
      </trkpt>
      <trkpt lat="44.65784" lon="6.09938">
        <ele>996</ele>
        <time>2019-05-29T12:58:49Z</time>
      </trkpt>
      <trkpt lat="44.65778" lon="6.09971">
        <ele>995</ele>
        <time>2019-05-29T13:00:10Z</time>
      </trkpt>
      <trkpt lat="44.65776" lon="6.10007">
        <ele>996</ele>
        <time>2019-05-29T13:00:19Z</time>
      </trkpt>
      <trkpt lat="44.65773" lon="6.1004">
        <ele>996</ele>
        <time>2019-05-29T13:00:28Z</time>
      </trkpt>
      <trkpt lat="44.65802" lon="6.10098">
        <ele>999</ele>
        <time>2019-05-29T13:00:44Z</time>
      </trkpt>
      <trkpt lat="44.65824" lon="6.10087">
        <ele>999</ele>
        <time>2019-05-29T13:00:56Z</time>
      </trkpt>
      <trkpt lat="44.65848" lon="6.1009">
        <ele>1006</ele>
        <time>2019-05-29T13:01:08Z</time>
      </trkpt>
      <trkpt lat="44.65872" lon="6.1009">
        <ele>1006</ele>
        <time>2019-05-29T13:01:39Z</time>
      </trkpt>
      <trkpt lat="44.65918" lon="6.10088">
        <ele>1008</ele>
        <time>2019-05-29T13:02:06Z</time>
      </trkpt>
      <trkpt lat="44.65941" lon="6.10092">
        <ele>1009</ele>
        <time>2019-05-29T13:02:16Z</time>
      </trkpt>
      <trkpt lat="44.65964" lon="6.10093">
        <ele>1012</ele>
        <time>2019-05-29T13:02:30Z</time>
      </trkpt>
      <trkpt lat="44.66057" lon="6.10125">
        <ele>1020</ele>
        <time>2019-05-29T13:02:58Z</time>
      </trkpt>
      <trkpt lat="44.66079" lon="6.10137">
        <ele>1021</ele>
        <time>2019-05-29T13:04:11Z</time>
      </trkpt>
      <trkpt lat="44.66101" lon="6.10147">
        <ele>1023</ele>
        <time>2019-05-29T13:04:19Z</time>
      </trkpt>
      <trkpt lat="44.66124" lon="6.10159">
        <ele>1026</ele>
        <time>2019-05-29T13:04:28Z</time>
      </trkpt>
      <trkpt lat="44.66147" lon="6.10154">
        <ele>1029</ele>
        <time>2019-05-29T13:04:38Z</time>
      </trkpt>
      <trkpt lat="44.66165" lon="6.10131">
        <ele>1029</ele>
        <time>2019-05-29T13:04:59Z</time>
      </trkpt>
      <trkpt lat="44.66192" lon="6.10077">
        <ele>1033</ele>
        <time>2019-05-29T13:05:23Z</time>
      </trkpt>
      <trkpt lat="44.66219" lon="6.10021">
        <ele>1034</ele>
        <time>2019-05-29T13:05:57Z</time>
      </trkpt>
      <trkpt lat="44.66274" lon="6.09958">
        <ele>1031</ele>
        <time>2019-05-29T13:07:47Z</time>
      </trkpt>
      <trkpt lat="44.66271" lon="6.09924">
        <ele>1031</ele>
        <time>2019-05-29T13:07:58Z</time>
      </trkpt>
      <trkpt lat="44.66295" lon="6.09927">
        <ele>1030</ele>
        <time>2019-05-29T13:08:24Z</time>
      </trkpt>
      <trkpt lat="44.66315" lon="6.0991">
        <ele>1030</ele>
        <time>2019-05-29T13:08:44Z</time>
      </trkpt>
      <trkpt lat="44.66329" lon="6.09885">
        <ele>1029</ele>
        <time>2019-05-29T13:08:55Z</time>
      </trkpt>
      <trkpt lat="44.66335" lon="6.09852">
        <ele>1029</ele>
        <time>2019-05-29T13:09:13Z</time>
      </trkpt>
      <trkpt lat="44.66347" lon="6.09822">
        <ele>1029</ele>
        <time>2019-05-29T13:09:22Z</time>
      </trkpt>
      <trkpt lat="44.66372" lon="6.09814">
        <ele>1029</ele>
        <time>2019-05-29T13:09:31Z</time>
      </trkpt>
      <trkpt lat="44.66395" lon="6.09809">
        <ele>1030</ele>
        <time>2019-05-29T13:09:41Z</time>
      </trkpt>
      <trkpt lat="44.66439" lon="6.09734">
        <ele>1033</ele>
        <time>2019-05-29T13:10:13Z</time>
      </trkpt>
      <trkpt lat="44.66439" lon="6.09767">
        <ele>1034</ele>
        <time>2019-05-29T13:12:09Z</time>
      </trkpt>
      <trkpt lat="44.66436" lon="6.09901">
        <ele>1036</ele>
        <time>2019-05-29T13:13:03Z</time>
      </trkpt>
      <trkpt lat="44.66448" lon="6.09971">
        <ele>1036</ele>
        <time>2019-05-29T13:13:12Z</time>
      </trkpt>
      <trkpt lat="44.66452" lon="6.10003">
        <ele>1035</ele>
        <time>2019-05-29T13:13:26Z</time>
      </trkpt>
      <trkpt lat="44.66476" lon="6.1001">
        <ele>1038</ele>
        <time>2019-05-29T13:14:17Z</time>
      </trkpt>
      <trkpt lat="44.66494" lon="6.10033">
        <ele>1041</ele>
        <time>2019-05-29T13:14:25Z</time>
      </trkpt>
      <trkpt lat="44.665" lon="6.10064">
        <ele>1048</ele>
        <time>2019-05-29T13:14:40Z</time>
      </trkpt>
      <trkpt lat="44.6652" lon="6.10046">
        <ele>1050</ele>
        <time>2019-05-29T13:14:52Z</time>
      </trkpt>
      <trkpt lat="44.66527" lon="6.10016">
        <ele>1054</ele>
        <time>2019-05-29T13:15:05Z</time>
      </trkpt>
      <trkpt lat="44.6655" lon="6.10004">
        <ele>1060</ele>
        <time>2019-05-29T13:15:13Z</time>
      </trkpt>
      <trkpt lat="44.66566" lon="6.09981">
        <ele>1058</ele>
        <time>2019-05-29T13:15:29Z</time>
      </trkpt>
      <trkpt lat="44.66592" lon="6.09988">
        <ele>1061</ele>
        <time>2019-05-29T13:15:45Z</time>
      </trkpt>
      <trkpt lat="44.66615" lon="6.09981">
        <ele>1072</ele>
        <time>2019-05-29T13:15:50Z</time>
      </trkpt>
      <trkpt lat="44.66638" lon="6.09983">
        <ele>1072</ele>
        <time>2019-05-29T13:16:02Z</time>
      </trkpt>
      <trkpt lat="44.667" lon="6.09928">
        <ele>1080</ele>
        <time>2019-05-29T13:16:15Z</time>
      </trkpt>
      <trkpt lat="44.66708" lon="6.09939">
        <ele>1085</ele>
        <time>2019-05-29T13:16:21Z</time>
      </trkpt>
      <trkpt lat="44.66695" lon="6.09964">
        <ele>1086</ele>
        <time>2019-05-29T13:16:28Z</time>
      </trkpt>
      <trkpt lat="44.6669" lon="6.09995">
        <ele>1092</ele>
        <time>2019-05-29T13:16:36Z</time>
      </trkpt>
      <trkpt lat="44.6669" lon="6.10029">
        <ele>1093</ele>
        <time>2019-05-29T13:16:42Z</time>
      </trkpt>
      <trkpt lat="44.66698" lon="6.10092">
        <ele>1099</ele>
        <time>2019-05-29T13:17:10Z</time>
      </trkpt>
      <trkpt lat="44.66719" lon="6.10151">
        <ele>1109</ele>
        <time>2019-05-29T13:17:27Z</time>
      </trkpt>
      <trkpt lat="44.66751" lon="6.10198">
        <ele>1116</ele>
        <time>2019-05-29T13:17:34Z</time>
      </trkpt>
      <trkpt lat="44.66789" lon="6.10234">
        <ele>1123</ele>
        <time>2019-05-29T13:17:49Z</time>
      </trkpt>
      <trkpt lat="44.66807" lon="6.10252">
        <ele>1129</ele>
        <time>2019-05-29T13:18:05Z</time>
      </trkpt>
      <trkpt lat="44.66828" lon="6.10265">
        <ele>1129</ele>
        <time>2019-05-29T13:18:49Z</time>
      </trkpt>
      <trkpt lat="44.66874" lon="6.10277">
        <ele>1134</ele>
        <time>2019-05-29T13:19:04Z</time>
      </trkpt>
      <trkpt lat="44.66895" lon="6.10294">
        <ele>1136</ele>
        <time>2019-05-29T13:19:17Z</time>
      </trkpt>
      <trkpt lat="44.66926" lon="6.10344">
        <ele>1140</ele>
        <time>2019-05-29T13:19:27Z</time>
      </trkpt>
      <trkpt lat="44.66938" lon="6.10377">
        <ele>1145</ele>
        <time>2019-05-29T13:19:36Z</time>
      </trkpt>
      <trkpt lat="44.66945" lon="6.10409">
        <ele>1148</ele>
        <time>2019-05-29T13:19:58Z</time>
      </trkpt>
      <trkpt lat="44.66957" lon="6.10436">
        <ele>1153</ele>
        <time>2019-05-29T13:22:58Z</time>
      </trkpt>
      <trkpt lat="44.67045" lon="6.10324">
        <ele>1154.5</ele>
        <time>2018-11-13T06:55:09Z</time>
      </trkpt>
      <trkpt lat="44.6703" lon="6.10218">
        <ele>1154</ele>
        <time>2018-11-13T06:56:09Z</time>
      </trkpt>
      <trkpt lat="44.67136" lon="6.10088">
        <ele>1155</ele>
        <time>2018-11-13T06:57:09Z</time>
      </trkpt>
      <trkpt lat="44.67197" lon="6.10095">
        <ele>1154.3</ele>
        <time>2018-11-13T06:58:09Z</time>
      </trkpt>
      <trkpt lat="44.67274" lon="6.10227">
        <ele>1156.5</ele>
        <time>2018-11-13T06:59:09Z</time>
      </trkpt>
      <trkpt lat="44.67085" lon="6.10354">
        <ele>1159.9</ele>
        <time>2018-11-13T07:00:09Z</time>
      </trkpt>
      <trkpt lat="44.67046" lon="6.10273">
        <ele>1154.3</ele>
        <time>2018-11-13T07:01:09Z</time>
      </trkpt>
      <trkpt lat="44.6705" lon="6.10331">
        <ele>1154.7</ele>
        <time>2018-11-13T07:02:09Z</time>
      </trkpt>
      <trkpt lat="44.66979" lon="6.10442">
        <ele>1153.1</ele>
        <time>2018-11-13T07:03:09Z</time>
      </trkpt>
      <trkpt lat="44.66926" lon="6.10553">
        <ele>1157.1</ele>
        <time>2018-11-13T07:04:09Z</time>
      </trkpt>
      <trkpt lat="44.66899" lon="6.10647">
        <ele>1157.2</ele>
        <time>2018-11-13T07:05:09Z</time>
      </trkpt>
      <trkpt lat="44.66844" lon="6.10912">
        <ele>1162.9</ele>
        <time>2018-11-13T07:06:09Z</time>
      </trkpt>
      <trkpt lat="44.66859" lon="6.1098">
        <ele>1168.2</ele>
        <time>2018-11-13T07:07:09Z</time>
      </trkpt>
      <trkpt lat="44.66866" lon="6.11067">
        <ele>1173.2</ele>
        <time>2018-11-13T07:08:09Z</time>
      </trkpt>
      <trkpt lat="44.66824" lon="6.11237">
        <ele>1177.8</ele>
        <time>2018-11-13T07:09:09Z</time>
      </trkpt>
      <trkpt lat="44.66824" lon="6.11413">
        <ele>1186.1</ele>
        <time>2018-11-13T07:10:09Z</time>
      </trkpt>
      <trkpt lat="44.66839" lon="6.11447">
        <ele>1192.4</ele>
        <time>2018-11-13T07:11:09Z</time>
      </trkpt>
      <trkpt lat="44.66854" lon="6.11489">
        <ele>1193.5</ele>
        <time>2018-11-13T07:12:09Z</time>
      </trkpt>
      <trkpt lat="44.669" lon="6.11547">
        <ele>1201</ele>
        <time>2018-11-13T07:13:09Z</time>
      </trkpt>
      <trkpt lat="44.66909" lon="6.11562">
        <ele>1203</ele>
        <time>2018-11-13T07:14:09Z</time>
      </trkpt>
      <trkpt lat="44.66927" lon="6.11594">
        <ele>1207</ele>
        <time>2018-11-13T07:15:09Z</time>
      </trkpt>
      <trkpt lat="44.66931" lon="6.11632">
        <ele>1209</ele>
        <time>2018-11-13T07:16:09Z</time>
      </trkpt>
      <trkpt lat="44.6691" lon="6.11718">
        <ele>1209</ele>
        <time>2018-11-13T07:17:09Z</time>
      </trkpt>
      <trkpt lat="44.66873" lon="6.11819">
        <ele>1214</ele>
        <time>2018-11-13T07:18:09Z</time>
      </trkpt>
      <trkpt lat="44.6686" lon="6.11881">
        <ele>1216</ele>
        <time>2018-11-13T07:19:09Z</time>
      </trkpt>
      <trkpt lat="44.66771" lon="6.12009">
        <ele>1215</ele>
        <time>2018-11-13T07:20:09Z</time>
      </trkpt>
      <trkpt lat="44.66734" lon="6.12056">
        <ele>1213</ele>
        <time>2018-11-13T07:21:09Z</time>
      </trkpt>
      <trkpt lat="44.66704" lon="6.12081">
        <ele>1208</ele>
        <time>2018-11-13T07:22:09Z</time>
      </trkpt>
      <trkpt lat="44.66686" lon="6.12112">
        <ele>1204</ele>
        <time>2018-11-13T07:23:09Z</time>
      </trkpt>
      <trkpt lat="44.6668" lon="6.12153">
        <ele>1202</ele>
        <time>2018-11-13T07:24:09Z</time>
      </trkpt>
      <trkpt lat="44.66676" lon="6.12198">
        <ele>1200</ele>
        <time>2018-11-13T07:25:09Z</time>
      </trkpt>
      <trkpt lat="44.66665" lon="6.12236">
        <ele>1196</ele>
        <time>2018-11-13T07:26:09Z</time>
      </trkpt>
      <trkpt lat="44.66642" lon="6.1226">
        <ele>1189</ele>
        <time>2018-11-13T07:27:09Z</time>
      </trkpt>
      <trkpt lat="44.66624" lon="6.1237">
        <ele>1186</ele>
        <time>2018-11-13T07:28:09Z</time>
      </trkpt>
      <trkpt lat="44.66595" lon="6.12387">
        <ele>1180</ele>
        <time>2018-11-13T07:29:09Z</time>
      </trkpt>
      <trkpt lat="44.66571" lon="6.12427">
        <ele>1177</ele>
        <time>2018-11-13T07:45:09Z</time>
      </trkpt>
      <trkpt lat="44.66564" lon="6.12458">
        <ele>1177</ele>
        <time>2018-11-13T07:46:09Z</time>
      </trkpt>
      <trkpt lat="44.66545" lon="6.12472">
        <ele>1174</ele>
        <time>2018-11-13T07:47:09Z</time>
      </trkpt>
      <trkpt lat="44.66501" lon="6.12492">
        <ele>1167</ele>
        <time>2018-11-13T07:48:09Z</time>
      </trkpt>
      <trkpt lat="44.66465" lon="6.12534">
        <ele>1163</ele>
        <time>2018-11-13T07:49:09Z</time>
      </trkpt>
      <trkpt lat="44.66445" lon="6.12545">
        <ele>1161</ele>
        <time>2018-11-13T07:50:09Z</time>
      </trkpt>
      <trkpt lat="44.66428" lon="6.12543">
        <ele>1158</ele>
        <time>2018-11-13T07:51:09Z</time>
      </trkpt>
      <trkpt lat="44.66359" lon="6.12568">
        <ele>1152</ele>
        <time>2018-11-13T07:52:09Z</time>
      </trkpt>
      <trkpt lat="44.66327" lon="6.12585">
        <ele>1149</ele>
        <time>2018-11-13T07:53:09Z</time>
      </trkpt>
      <trkpt lat="44.66303" lon="6.12609">
        <ele>1146</ele>
        <time>2018-11-13T07:54:09Z</time>
      </trkpt>
      <trkpt lat="44.66272" lon="6.12648">
        <ele>1140</ele>
        <time>2018-11-13T07:55:09Z</time>
      </trkpt>
      <trkpt lat="44.6621" lon="6.12694">
        <ele>1129</ele>
        <time>2018-11-13T07:56:09Z</time>
      </trkpt>
      <trkpt lat="44.66205" lon="6.12696">
        <ele>1128</ele>
        <time>2018-11-13T07:57:09Z</time>
      </trkpt>
      <trkpt lat="44.66198" lon="6.12694">
        <ele>1127</ele>
        <time>2018-11-13T07:58:09Z</time>
      </trkpt>
      <trkpt lat="44.66176" lon="6.12694">
        <ele>1123</ele>
        <time>2018-11-13T07:59:09Z</time>
      </trkpt>
      <trkpt lat="44.66144" lon="6.12688">
        <ele>1119</ele>
        <time>2018-11-13T08:00:09Z</time>
      </trkpt>
      <trkpt lat="44.66137" lon="6.12693">
        <ele>1119</ele>
        <time>2018-11-13T08:01:09Z</time>
      </trkpt>
      <trkpt lat="44.6613" lon="6.12713">
        <ele>1117</ele>
        <time>2018-11-13T08:02:09Z</time>
      </trkpt>
      <trkpt lat="44.66105" lon="6.1276">
        <ele>1114</ele>
        <time>2018-11-13T08:03:09Z</time>
      </trkpt>
      <trkpt lat="44.66072" lon="6.12786">
        <ele>1111</ele>
        <time>2018-11-13T08:04:09Z</time>
      </trkpt>
      <trkpt lat="44.66037" lon="6.12796">
        <ele>1108</ele>
        <time>2018-11-13T08:05:09Z</time>
      </trkpt>
      <trkpt lat="44.66012" lon="6.12806">
        <ele>1106</ele>
        <time>2018-11-13T08:06:09Z</time>
      </trkpt>
      <trkpt lat="44.66013" lon="6.12823">
        <ele>1107</ele>
        <time>2018-11-13T08:07:09Z</time>
      </trkpt>
      <trkpt lat="44.6602" lon="6.12858">
        <ele>1107</ele>
        <time>2018-11-13T08:08:09Z</time>
      </trkpt>
      <trkpt lat="44.66014" lon="6.12936">
        <ele>1107</ele>
        <time>2018-11-13T08:09:09Z</time>
      </trkpt>
      <trkpt lat="44.66001" lon="6.12979">
        <ele>1107</ele>
        <time>2018-11-13T08:10:09Z</time>
      </trkpt>
      <trkpt lat="44.6597" lon="6.13036">
        <ele>1106</ele>
        <time>2018-11-13T08:11:09Z</time>
      </trkpt>
      <trkpt lat="44.65949" lon="6.13057">
        <ele>1104</ele>
        <time>2018-11-13T08:12:09Z</time>
      </trkpt>
      <trkpt lat="44.65926" lon="6.13091">
        <ele>1104</ele>
        <time>2018-11-13T08:13:09Z</time>
      </trkpt>
      <trkpt lat="44.65896" lon="6.13141">
        <ele>1103</ele>
        <time>2018-11-13T08:14:09Z</time>
      </trkpt>
      <trkpt lat="44.65894" lon="6.13154">
        <ele>1104</ele>
        <time>2018-11-13T08:15:09Z</time>
      </trkpt>
      <trkpt lat="44.65895" lon="6.13185">
        <ele>1105</ele>
        <time>2018-11-13T08:16:09Z</time>
      </trkpt>
      <trkpt lat="44.65894" lon="6.1322">
        <ele>1105</ele>
        <time>2018-11-13T08:17:09Z</time>
      </trkpt>
      <trkpt lat="44.65888" lon="6.13241">
        <ele>1105</ele>
        <time>2018-11-13T08:18:09Z</time>
      </trkpt>
      <trkpt lat="44.65847" lon="6.13307">
        <ele>1100</ele>
        <time>2018-11-13T08:19:09Z</time>
      </trkpt>
      <trkpt lat="44.65845" lon="6.13322">
        <ele>1100</ele>
        <time>2018-11-13T08:20:09Z</time>
      </trkpt>
      <trkpt lat="44.65849" lon="6.13346">
        <ele>1101</ele>
        <time>2018-11-13T08:21:09Z</time>
      </trkpt>
      <trkpt lat="44.65852" lon="6.13376">
        <ele>1106</ele>
        <time>2018-11-13T08:22:09Z</time>
      </trkpt>
      <trkpt lat="44.65813" lon="6.13433">
        <ele>1106</ele>
        <time>2018-11-13T08:23:09Z</time>
      </trkpt>
      <trkpt lat="44.65798" lon="6.13469">
        <ele>1109</ele>
        <time>2018-11-13T08:24:09Z</time>
      </trkpt>
      <trkpt lat="44.65785" lon="6.13503">
        <ele>1110</ele>
        <time>2018-11-13T08:25:09Z</time>
      </trkpt>
      <trkpt lat="44.65765" lon="6.13544">
        <ele>1109</ele>
        <time>2018-11-13T08:26:09Z</time>
      </trkpt>
      <trkpt lat="44.65757" lon="6.13584">
        <ele>1112</ele>
        <time>2018-11-13T08:27:09Z</time>
      </trkpt>
      <trkpt lat="44.65757" lon="6.13622">
        <ele>1117</ele>
        <time>2018-11-13T08:28:09Z</time>
      </trkpt>
      <trkpt lat="44.65752" lon="6.13645">
        <ele>1118</ele>
        <time>2018-11-13T08:29:09Z</time>
      </trkpt>
      <trkpt lat="44.65753" lon="6.13658">
        <ele>1120</ele>
        <time>2018-11-13T08:30:09Z</time>
      </trkpt>
      <trkpt lat="44.65766" lon="6.13659">
        <ele>1124</ele>
        <time>2018-11-13T08:55:09Z</time>
      </trkpt>
      <trkpt lat="44.65822" lon="6.13582">
        <ele>1132</ele>
        <time>2018-11-13T08:56:09Z</time>
      </trkpt>
      <trkpt lat="44.65832" lon="6.13549">
        <ele>1131</ele>
        <time>2018-11-13T08:57:09Z</time>
      </trkpt>
      <trkpt lat="44.6584" lon="6.13541">
        <ele>1133</ele>
        <time>2018-11-13T08:58:09Z</time>
      </trkpt>
      <trkpt lat="44.65845" lon="6.13552">
        <ele>1135</ele>
        <time>2018-11-13T08:59:09Z</time>
      </trkpt>
      <trkpt lat="44.65842" lon="6.1357">
        <ele>1137</ele>
        <time>2018-11-13T09:00:09Z</time>
      </trkpt>
      <trkpt lat="44.65805" lon="6.13706">
        <ele>1145</ele>
        <time>2018-11-13T09:01:09Z</time>
      </trkpt>
      <trkpt lat="44.65795" lon="6.13733">
        <ele>1147</ele>
        <time>2018-11-13T09:02:09Z</time>
      </trkpt>
      <trkpt lat="44.65776" lon="6.13767">
        <ele>1147</ele>
        <time>2018-11-13T09:03:09Z</time>
      </trkpt>
      <trkpt lat="44.65747" lon="6.1385">
        <ele>1151</ele>
        <time>2018-11-13T09:04:09Z</time>
      </trkpt>
      <trkpt lat="44.65752" lon="6.1389">
        <ele>1154</ele>
        <time>2018-11-13T09:05:09Z</time>
      </trkpt>
      <trkpt lat="44.65805" lon="6.13965">
        <ele>1162</ele>
        <time>2018-11-13T09:06:09Z</time>
      </trkpt>
      <trkpt lat="44.65822" lon="6.14003">
        <ele>1163</ele>
        <time>2018-11-13T09:07:09Z</time>
      </trkpt>
      <trkpt lat="44.65784" lon="6.14038">
        <ele>1158</ele>
        <time>2018-11-13T09:08:09Z</time>
      </trkpt>
      <trkpt lat="44.65775" lon="6.14044">
        <ele>1157.5</ele>
        <time>2018-11-13T09:09:09Z</time>
      </trkpt>
      <trkpt lat="44.65737" lon="6.14035">
        <ele>1147.7</ele>
        <time>2018-11-13T09:10:09Z</time>
      </trkpt>
      <trkpt lat="44.65712" lon="6.14047">
        <ele>1145.6</ele>
        <time>2018-11-13T09:11:09Z</time>
      </trkpt>
      <trkpt lat="44.65704" lon="6.14068">
        <ele>1144.9</ele>
        <time>2018-11-13T09:12:09Z</time>
      </trkpt>
      <trkpt lat="44.65671" lon="6.14099">
        <ele>1141.5</ele>
        <time>2018-11-13T09:13:09Z</time>
      </trkpt>
      <trkpt lat="44.65646" lon="6.14119">
        <ele>1131.1</ele>
        <time>2018-11-13T09:14:09Z</time>
      </trkpt>
      <trkpt lat="44.65623" lon="6.14151">
        <ele>1128.6</ele>
        <time>2018-11-13T09:15:09Z</time>
      </trkpt>
      <trkpt lat="44.65604" lon="6.14099">
        <ele>1125.2</ele>
        <time>2018-11-13T09:16:09Z</time>
      </trkpt>
      <trkpt lat="44.65604" lon="6.14012">
        <ele>1120.7</ele>
        <time>2018-11-13T09:17:09Z</time>
      </trkpt>
      <trkpt lat="44.65596" lon="6.14008">
        <ele>1117.9</ele>
        <time>2018-11-13T09:18:09Z</time>
      </trkpt>
      <trkpt lat="44.65581" lon="6.14041">
        <ele>1108.8</ele>
        <time>2018-11-13T09:19:09Z</time>
      </trkpt>
      <trkpt lat="44.65559" lon="6.14066">
        <ele>1109</ele>
        <time>2018-11-13T09:20:09Z</time>
      </trkpt>
      <trkpt lat="44.65528" lon="6.14145">
        <ele>1106.9</ele>
        <time>2018-11-13T09:21:09Z</time>
      </trkpt>
      <trkpt lat="44.65526" lon="6.14232">
        <ele>1105.6</ele>
        <time>2018-11-13T09:22:09Z</time>
      </trkpt>
      <trkpt lat="44.65554" lon="6.14282">
        <ele>1107.7</ele>
        <time>2018-11-13T09:23:09Z</time>
      </trkpt>
      <trkpt lat="44.65556" lon="6.143">
        <ele>1107.6</ele>
        <time>2018-11-13T09:24:09Z</time>
      </trkpt>
      <trkpt lat="44.65573" lon="6.14331">
        <ele>1112.3</ele>
        <time>2018-11-13T09:25:09Z</time>
      </trkpt>
      <trkpt lat="44.65578" lon="6.14384">
        <ele>1110.9</ele>
        <time>2018-11-13T09:26:09Z</time>
      </trkpt>
      <trkpt lat="44.65565" lon="6.14487">
        <ele>1116.2</ele>
        <time>2018-11-13T09:27:09Z</time>
      </trkpt>
      <trkpt lat="44.65558" lon="6.14563">
        <ele>1118</ele>
        <time>2018-11-13T09:28:09Z</time>
      </trkpt>
      <trkpt lat="44.65571" lon="6.14609">
        <ele>1122.6</ele>
        <time>2018-11-13T09:29:09Z</time>
      </trkpt>
      <trkpt lat="44.65561" lon="6.14673">
        <ele>1128</ele>
        <time>2018-11-13T09:30:09Z</time>
      </trkpt>
      <trkpt lat="44.65541" lon="6.1471">
        <ele>1123</ele>
        <time>2018-11-13T09:31:09Z</time>
      </trkpt>
      <trkpt lat="44.65523" lon="6.14732">
        <ele>1117</ele>
        <time>2018-11-13T09:32:09Z</time>
      </trkpt>
      <trkpt lat="44.65529" lon="6.14755">
        <ele>1121</ele>
        <time>2018-11-13T09:33:09Z</time>
      </trkpt>
      <trkpt lat="44.6554" lon="6.14893">
        <ele>1127</ele>
        <time>2018-11-13T09:34:09Z</time>
      </trkpt>
      <trkpt lat="44.65554" lon="6.14974">
        <ele>1129</ele>
        <time>2018-11-13T09:35:09Z</time>
      </trkpt>
      <trkpt lat="44.6555" lon="6.15008">
        <ele>1128</ele>
        <time>2018-11-13T09:36:09Z</time>
      </trkpt>
      <trkpt lat="44.65534" lon="6.15042">
        <ele>1126</ele>
        <time>2018-11-13T09:37:09Z</time>
      </trkpt>
      <trkpt lat="44.65514" lon="6.15105">
        <ele>1127</ele>
        <time>2018-11-13T09:38:09Z</time>
      </trkpt>
      <trkpt lat="44.65489" lon="6.15214">
        <ele>1133</ele>
        <time>2018-11-13T09:39:09Z</time>
      </trkpt>
      <trkpt lat="44.65487" lon="6.1529">
        <ele>1134</ele>
        <time>2018-11-13T09:40:09Z</time>
      </trkpt>
      <trkpt lat="44.65483" lon="6.15347">
        <ele>1132</ele>
        <time>2018-11-13T09:41:09Z</time>
      </trkpt>
      <trkpt lat="44.65485" lon="6.15388">
        <ele>1130</ele>
        <time>2018-11-13T09:42:09Z</time>
      </trkpt>
      <trkpt lat="44.65471" lon="6.15415">
        <ele>1126</ele>
        <time>2018-11-13T09:43:09Z</time>
      </trkpt>
      <trkpt lat="44.65451" lon="6.15421">
        <ele>1121</ele>
        <time>2018-11-13T09:44:09Z</time>
      </trkpt>
      <trkpt lat="44.65428" lon="6.15441">
        <ele>1116</ele>
        <time>2018-11-13T09:45:09Z</time>
      </trkpt>
      <trkpt lat="44.65383" lon="6.15515">
        <ele>1108</ele>
        <time>2018-11-13T09:46:09Z</time>
      </trkpt>
      <trkpt lat="44.65368" lon="6.15534">
        <ele>1105</ele>
        <time>2018-11-13T09:47:09Z</time>
      </trkpt>
      <trkpt lat="44.65353" lon="6.15572">
        <ele>1101</ele>
        <time>2018-11-13T09:48:09Z</time>
      </trkpt>
      <trkpt lat="44.65352" lon="6.15639">
        <ele>1100</ele>
        <time>2018-11-13T09:49:09Z</time>
      </trkpt>
      <trkpt lat="44.6536" lon="6.15697">
        <ele>1101</ele>
        <time>2018-11-13T09:50:09Z</time>
      </trkpt>
      <trkpt lat="44.65382" lon="6.15764">
        <ele>1104</ele>
        <time>2018-11-13T09:51:09Z</time>
      </trkpt>
      <trkpt lat="44.65386" lon="6.15789">
        <ele>1103</ele>
        <time>2018-11-13T09:52:09Z</time>
      </trkpt>
      <trkpt lat="44.65379" lon="6.15814">
        <ele>1101</ele>
        <time>2018-11-13T09:53:09Z</time>
      </trkpt>
      <trkpt lat="44.65378" lon="6.15841">
        <ele>1099</ele>
        <time>2018-11-13T09:54:09Z</time>
      </trkpt>
      <trkpt lat="44.65382" lon="6.1587">
        <ele>1098</ele>
        <time>2018-11-13T09:55:09Z</time>
      </trkpt>
      <trkpt lat="44.65378" lon="6.15934">
        <ele>1093</ele>
        <time>2018-11-13T09:56:09Z</time>
      </trkpt>
      <trkpt lat="44.65364" lon="6.15982">
        <ele>1090</ele>
        <time>2018-11-13T09:57:09Z</time>
      </trkpt>
      <trkpt lat="44.6539" lon="6.16004">
        <ele>1091</ele>
        <time>2018-11-13T09:58:09Z</time>
      </trkpt>
      <trkpt lat="44.65418" lon="6.1601">
        <ele>1094</ele>
        <time>2018-11-13T09:59:09Z</time>
      </trkpt>
      <trkpt lat="44.65432" lon="6.16021">
        <ele>1097</ele>
        <time>2018-11-13T10:00:09Z</time>
      </trkpt>
      <trkpt lat="44.65438" lon="6.16068">
        <ele>1098</ele>
        <time>2018-11-13T10:01:09Z</time>
      </trkpt>
      <trkpt lat="44.65455" lon="6.16081">
        <ele>1101</ele>
        <time>2018-11-13T10:02:09Z</time>
      </trkpt>
      <trkpt lat="44.65472" lon="6.16088">
        <ele>1105</ele>
        <time>2018-11-13T10:03:09Z</time>
      </trkpt>
      <trkpt lat="44.65469" lon="6.16112">
        <ele>1106</ele>
        <time>2018-11-13T10:04:09Z</time>
      </trkpt>
      <trkpt lat="44.65459" lon="6.16145">
        <ele>1107</ele>
        <time>2018-11-13T10:05:09Z</time>
      </trkpt>
      <trkpt lat="44.65476" lon="6.16167">
        <ele>1112</ele>
        <time>2018-11-13T10:06:09Z</time>
      </trkpt>
      <trkpt lat="44.65465" lon="6.16191">
        <ele>1111</ele>
        <time>2018-11-13T10:07:09Z</time>
      </trkpt>
      <trkpt lat="44.65446" lon="6.16219">
        <ele>1108</ele>
        <time>2018-11-13T10:08:09Z</time>
      </trkpt>
      <trkpt lat="44.65446" lon="6.1624">
        <ele>1108</ele>
        <time>2018-11-13T10:09:09Z</time>
      </trkpt>
      <trkpt lat="44.65468" lon="6.16341">
        <ele>1110</ele>
        <time>2018-11-13T10:10:09Z</time>
      </trkpt>
      <trkpt lat="44.65464" lon="6.16476">
        <ele>1101</ele>
        <time>2018-11-13T10:11:09Z</time>
      </trkpt>
      <trkpt lat="44.6546" lon="6.16498">
        <ele>1098</ele>
        <time>2018-11-13T10:12:09Z</time>
      </trkpt>
      <trkpt lat="44.65447" lon="6.16625">
        <ele>1090</ele>
        <time>2018-11-13T10:13:09Z</time>
      </trkpt>
      <trkpt lat="44.65459" lon="6.16686">
        <ele>1091</ele>
        <time>2018-11-13T10:14:09Z</time>
      </trkpt>
      <trkpt lat="44.65455" lon="6.16718">
        <ele>1089</ele>
        <time>2018-11-13T10:15:09Z</time>
      </trkpt>
      <trkpt lat="44.65448" lon="6.16718">
        <ele>1088.7</ele>
        <time>2018-11-13T10:16:09Z</time>
      </trkpt>
      <trkpt lat="44.65434" lon="6.16736">
        <ele>1087.1</ele>
        <time>2018-11-13T10:17:09Z</time>
      </trkpt>
      <trkpt lat="44.65335" lon="6.16787">
        <ele>1078.4</ele>
        <time>2018-11-13T10:18:09Z</time>
      </trkpt>
      <trkpt lat="44.65277" lon="6.16817">
        <ele>1071.5</ele>
        <time>2018-11-13T10:19:09Z</time>
      </trkpt>
      <trkpt lat="44.65279" lon="6.16828">
        <ele>1071.5</ele>
        <time>2018-11-13T10:20:09Z</time>
      </trkpt>
      <trkpt lat="44.65259" lon="6.16934">
        <ele>1066.3</ele>
        <time>2018-11-13T10:21:09Z</time>
      </trkpt>
      <trkpt lat="44.65253" lon="6.16984">
        <ele>1064.9</ele>
        <time>2018-11-13T10:22:09Z</time>
      </trkpt>
      <trkpt lat="44.65257" lon="6.17008">
        <ele>1063.9</ele>
        <time>2018-11-13T10:23:09Z</time>
      </trkpt>
      <trkpt lat="44.6527" lon="6.17047">
        <ele>1063.4</ele>
        <time>2018-11-13T10:24:09Z</time>
      </trkpt>
      <trkpt lat="44.65289" lon="6.17206">
        <ele>1063.7</ele>
        <time>2018-11-13T10:25:09Z</time>
      </trkpt>
      <trkpt lat="44.65294" lon="6.17261">
        <ele>1064.7</ele>
        <time>2018-11-13T10:26:09Z</time>
      </trkpt>
      <trkpt lat="44.65297" lon="6.17337">
        <ele>1065.8</ele>
        <time>2018-11-13T10:27:09Z</time>
      </trkpt>
      <trkpt lat="44.65303" lon="6.17402">
        <ele>1066.7</ele>
        <time>2018-11-13T10:28:09Z</time>
      </trkpt>
      <trkpt lat="44.65294" lon="6.17443">
        <ele>1067.9</ele>
        <time>2018-11-14T17:38:09Z</time>
      </trkpt>
      <trkpt lat="44.65295" lon="6.17462">
        <ele>1068.1</ele>
        <time>2018-11-14T17:39:09Z</time>
      </trkpt>
      <trkpt lat="44.65308" lon="6.17503">
        <ele>1069.4</ele>
        <time>2018-11-14T17:40:09Z</time>
      </trkpt>
      <trkpt lat="44.65314" lon="6.17558">
        <ele>1068.9</ele>
        <time>2018-11-14T17:41:09Z</time>
      </trkpt>
      <trkpt lat="44.65327" lon="6.17611">
        <ele>1069.3</ele>
        <time>2018-11-14T17:42:09Z</time>
      </trkpt>
      <trkpt lat="44.65341" lon="6.17641">
        <ele>1074.4</ele>
        <time>2018-11-14T17:43:09Z</time>
      </trkpt>
      <trkpt lat="44.6535" lon="6.1767">
        <ele>1075.7</ele>
        <time>2018-11-14T17:44:09Z</time>
      </trkpt>
      <trkpt lat="44.6535" lon="6.17693">
        <ele>1077</ele>
        <time>2018-11-14T17:45:09Z</time>
      </trkpt>
      <trkpt lat="44.65258" lon="6.17693">
        <ele>1068.9</ele>
        <time>2018-11-14T17:46:09Z</time>
      </trkpt>
      <trkpt lat="44.65109" lon="6.17316">
        <ele>1064</ele>
        <time>2018-11-14T17:47:09Z</time>
      </trkpt>
      <trkpt lat="44.6498" lon="6.17316">
        <ele>1062.2</ele>
        <time>2018-11-14T17:48:09Z</time>
      </trkpt>
      <trkpt lat="44.6477" lon="6.17414">
        <ele>1063.8</ele>
        <time>2018-11-14T17:49:09Z</time>
      </trkpt>
      <trkpt lat="44.64827" lon="6.17654">
        <ele>1067.1</ele>
        <time>2018-11-14T17:50:09Z</time>
      </trkpt>
      <trkpt lat="44.64683" lon="6.17707">
        <ele>1066.4</ele>
        <time>2018-11-14T17:51:09Z</time>
      </trkpt>
      <trkpt lat="44.64651" lon="6.17776">
        <ele>1068.4</ele>
        <time>2018-11-14T17:52:09Z</time>
      </trkpt>
      <trkpt lat="44.64561" lon="6.17867">
        <ele>1068.8</ele>
        <time>2018-11-14T17:53:09Z</time>
      </trkpt>
      <trkpt lat="44.64472" lon="6.1793">
        <ele>1074.6</ele>
        <time>2018-11-14T17:54:09Z</time>
      </trkpt>
      <trkpt lat="44.6437" lon="6.18278">
        <ele>1118.3</ele>
        <time>2018-11-14T17:55:09Z</time>
      </trkpt>
      <trkpt lat="44.64373" lon="6.18529">
        <ele>1156.8</ele>
        <time>2018-11-14T17:56:09Z</time>
      </trkpt>
      <trkpt lat="44.64318" lon="6.18477">
        <ele>1171.2</ele>
        <time>2018-11-14T17:57:09Z</time>
      </trkpt>
      <trkpt lat="44.64277" lon="6.18352">
        <ele>1161</ele>
        <time>2018-11-14T17:58:09Z</time>
      </trkpt>
      <trkpt lat="44.64189" lon="6.18279">
        <ele>1167.3</ele>
        <time>2018-11-14T17:59:09Z</time>
      </trkpt>
      <trkpt lat="44.64156" lon="6.18267">
        <ele>1177.1</ele>
        <time>2018-11-14T18:00:09Z</time>
      </trkpt>
      <trkpt lat="44.64125" lon="6.18189">
        <ele>1172.4</ele>
        <time>2018-11-14T18:01:09Z</time>
      </trkpt>
      <trkpt lat="44.64058" lon="6.18178">
        <ele>1186.4</ele>
        <time>2018-11-14T18:02:09Z</time>
      </trkpt>
      <trkpt lat="44.64076" lon="6.18134">
        <ele>1180</ele>
        <time>2018-11-14T18:03:09Z</time>
      </trkpt>
      <trkpt lat="44.64021" lon="6.18037">
        <ele>1178</ele>
        <time>2018-11-14T18:04:09Z</time>
      </trkpt>
      <trkpt lat="44.64023" lon="6.17995">
        <ele>1175</ele>
        <time>2018-11-14T18:05:09Z</time>
      </trkpt>
      <trkpt lat="44.64021" lon="6.17958">
        <ele>1173</ele>
        <time>2018-11-14T18:06:09Z</time>
      </trkpt>
      <trkpt lat="44.63991" lon="6.17872">
        <ele>1175</ele>
        <time>2018-11-14T18:07:09Z</time>
      </trkpt>
      <trkpt lat="44.63985" lon="6.17819">
        <ele>1174</ele>
        <time>2018-11-14T18:08:09Z</time>
      </trkpt>
      <trkpt lat="44.63968" lon="6.17711">
        <ele>1175</ele>
        <time>2018-11-14T18:09:09Z</time>
      </trkpt>
      <trkpt lat="44.63935" lon="6.17662">
        <ele>1185</ele>
        <time>2018-11-14T18:10:09Z</time>
      </trkpt>
      <trkpt lat="44.6393" lon="6.17637">
        <ele>1183</ele>
        <time>2018-11-14T18:11:09Z</time>
      </trkpt>
      <trkpt lat="44.63936" lon="6.17564">
        <ele>1174</ele>
        <time>2018-11-14T18:12:09Z</time>
      </trkpt>
      <trkpt lat="44.63928" lon="6.17477">
        <ele>1173</ele>
        <time>2018-11-14T18:13:09Z</time>
      </trkpt>
      <trkpt lat="44.63883" lon="6.17253">
        <ele>1169</ele>
        <time>2018-11-14T18:14:09Z</time>
      </trkpt>
      <trkpt lat="44.63859" lon="6.1717">
        <ele>1170</ele>
        <time>2018-11-14T18:15:09Z</time>
      </trkpt>
      <trkpt lat="44.63827" lon="6.16984">
        <ele>1171</ele>
        <time>2018-11-14T18:16:09Z</time>
      </trkpt>
      <trkpt lat="44.63802" lon="6.16961">
        <ele>1175</ele>
        <time>2018-11-14T18:17:09Z</time>
      </trkpt>
      <trkpt lat="44.63761" lon="6.16942">
        <ele>1182</ele>
        <time>2018-11-14T18:18:09Z</time>
      </trkpt>
      <trkpt lat="44.63761" lon="6.16919">
        <ele>1182</ele>
        <time>2018-11-14T18:19:09Z</time>
      </trkpt>
      <trkpt lat="44.63772" lon="6.16868">
        <ele>1180</ele>
        <time>2018-11-14T18:20:09Z</time>
      </trkpt>
      <trkpt lat="44.63767" lon="6.16819">
        <ele>1182</ele>
        <time>2018-11-14T18:21:09Z</time>
      </trkpt>
      <trkpt lat="44.63748" lon="6.16773">
        <ele>1184</ele>
        <time>2018-11-14T18:22:09Z</time>
      </trkpt>
      <trkpt lat="44.63729" lon="6.16662">
        <ele>1177</ele>
        <time>2018-11-14T18:23:09Z</time>
      </trkpt>
      <trkpt lat="44.63702" lon="6.16593">
        <ele>1184</ele>
        <time>2018-11-14T18:24:09Z</time>
      </trkpt>
      <trkpt lat="44.63678" lon="6.16515">
        <ele>1186</ele>
        <time>2018-11-14T18:25:09Z</time>
      </trkpt>
      <trkpt lat="44.63675" lon="6.16434">
        <ele>1176</ele>
        <time>2018-11-14T18:26:09Z</time>
      </trkpt>
      <trkpt lat="44.6366" lon="6.16362">
        <ele>1173</ele>
        <time>2018-11-14T18:27:09Z</time>
      </trkpt>
      <trkpt lat="44.63643" lon="6.16304">
        <ele>1174</ele>
        <time>2018-11-14T18:28:09Z</time>
      </trkpt>
      <trkpt lat="44.63634" lon="6.16257">
        <ele>1173</ele>
        <time>2018-11-14T18:29:09Z</time>
      </trkpt>
      <trkpt lat="44.63616" lon="6.16228">
        <ele>1174</ele>
        <time>2018-11-14T18:30:09Z</time>
      </trkpt>
      <trkpt lat="44.63607" lon="6.16221">
        <ele>1176</ele>
        <time>2018-11-14T18:31:09Z</time>
      </trkpt>
      <trkpt lat="44.63585" lon="6.16178">
        <ele>1177</ele>
        <time>2018-11-14T18:32:09Z</time>
      </trkpt>
      <trkpt lat="44.63577" lon="6.16099">
        <ele>1176</ele>
        <time>2018-11-14T18:33:09Z</time>
      </trkpt>
      <trkpt lat="44.63565" lon="6.16051">
        <ele>1177</ele>
        <time>2018-11-14T18:34:09Z</time>
      </trkpt>
      <trkpt lat="44.63555" lon="6.15995">
        <ele>1178</ele>
        <time>2018-11-14T18:35:09Z</time>
      </trkpt>
      <trkpt lat="44.63542" lon="6.15906">
        <ele>1177</ele>
        <time>2018-11-14T18:36:09Z</time>
      </trkpt>
      <trkpt lat="44.63538" lon="6.15858">
        <ele>1177</ele>
        <time>2018-11-14T18:37:09Z</time>
      </trkpt>
      <trkpt lat="44.63525" lon="6.15801">
        <ele>1179</ele>
        <time>2018-11-14T18:38:09Z</time>
      </trkpt>
      <trkpt lat="44.63526" lon="6.15772">
        <ele>1178</ele>
        <time>2018-11-14T18:39:09Z</time>
      </trkpt>
      <trkpt lat="44.63524" lon="6.15734">
        <ele>1177</ele>
        <time>2018-11-14T18:40:09Z</time>
      </trkpt>
      <trkpt lat="44.63531" lon="6.15661">
        <ele>1173</ele>
        <time>2018-11-14T18:41:09Z</time>
      </trkpt>
      <trkpt lat="44.63561" lon="6.15579">
        <ele>1158</ele>
        <time>2018-11-14T18:42:09Z</time>
      </trkpt>
      <trkpt lat="44.63569" lon="6.15517">
        <ele>1154</ele>
        <time>2018-11-14T18:43:09Z</time>
      </trkpt>
      <trkpt lat="44.63615" lon="6.15377">
        <ele>1133</ele>
        <time>2018-11-14T18:44:09Z</time>
      </trkpt>
      <trkpt lat="44.63633" lon="6.1534">
        <ele>1127</ele>
        <time>2018-11-14T18:45:09Z</time>
      </trkpt>
      <trkpt lat="44.63647" lon="6.15329">
        <ele>1123</ele>
        <time>2018-11-14T18:46:09Z</time>
      </trkpt>
      <trkpt lat="44.63703" lon="6.15318">
        <ele>1111</ele>
        <time>2018-11-14T18:47:09Z</time>
      </trkpt>
      <trkpt lat="44.63733" lon="6.1533">
        <ele>1106</ele>
        <time>2018-11-14T19:38:09Z</time>
      </trkpt>
      <trkpt lat="44.63746" lon="6.14924">
        <ele>1104</ele>
        <time>2018-11-14T19:39:09Z</time>
      </trkpt>
      <trkpt lat="44.63743" lon="6.14848">
        <ele>1101</ele>
        <time>2018-11-14T19:40:09Z</time>
      </trkpt>
      <trkpt lat="44.6376" lon="6.14774">
        <ele>1097</ele>
        <time>2018-11-14T19:41:09Z</time>
      </trkpt>
      <trkpt lat="44.63759" lon="6.1473">
        <ele>1098</ele>
        <time>2018-11-14T19:42:09Z</time>
      </trkpt>
      <trkpt lat="44.63771" lon="6.14647">
        <ele>1099</ele>
        <time>2018-11-14T19:43:09Z</time>
      </trkpt>
      <trkpt lat="44.63792" lon="6.14606">
        <ele>1098</ele>
        <time>2018-11-14T19:44:09Z</time>
      </trkpt>
      <trkpt lat="44.63813" lon="6.1459">
        <ele>1096</ele>
        <time>2018-11-14T19:45:09Z</time>
      </trkpt>
      <trkpt lat="44.63847" lon="6.14548">
        <ele>1092</ele>
        <time>2018-11-14T19:46:09Z</time>
      </trkpt>
      <trkpt lat="44.63866" lon="6.14501">
        <ele>1090</ele>
        <time>2018-11-14T19:47:09Z</time>
      </trkpt>
      <trkpt lat="44.63864" lon="6.14442">
        <ele>1088</ele>
        <time>2018-11-14T19:48:09Z</time>
      </trkpt>
      <trkpt lat="44.63841" lon="6.1438">
        <ele>1086</ele>
        <time>2018-11-14T19:49:09Z</time>
      </trkpt>
      <trkpt lat="44.63868" lon="6.14336">
        <ele>1081</ele>
        <time>2018-11-14T19:50:09Z</time>
      </trkpt>
      <trkpt lat="44.63837" lon="6.14277">
        <ele>1080.7</ele>
        <time>2018-11-14T20:13:09Z</time>
      </trkpt>
      <trkpt lat="44.63857" lon="6.14247">
        <ele>1080.5</ele>
        <time>2018-11-14T20:14:09Z</time>
      </trkpt>
      <trkpt lat="44.63975" lon="6.14081">
        <ele>1075.4</ele>
        <time>2018-11-14T20:15:09Z</time>
      </trkpt>
      <trkpt lat="44.64001" lon="6.14062">
        <ele>1068.1</ele>
        <time>2018-11-14T20:16:09Z</time>
      </trkpt>
      <trkpt lat="44.64015" lon="6.14025">
        <ele>1067.9</ele>
        <time>2018-11-14T20:17:09Z</time>
      </trkpt>
      <trkpt lat="44.64165" lon="6.1383">
        <ele>1058.1</ele>
        <time>2018-11-14T20:18:09Z</time>
      </trkpt>
      <trkpt lat="44.64246" lon="6.13673">
        <ele>1053.6</ele>
        <time>2018-11-14T20:19:09Z</time>
      </trkpt>
      <trkpt lat="44.64221" lon="6.13656">
        <ele>1058.2</ele>
        <time>2018-11-14T20:20:09Z</time>
      </trkpt>
      <trkpt lat="44.64217" lon="6.13641">
        <ele>1059.1</ele>
        <time>2018-11-14T20:21:09Z</time>
      </trkpt>
      <trkpt lat="44.64239" lon="6.13577">
        <ele>1057.8</ele>
        <time>2018-11-14T20:22:09Z</time>
      </trkpt>
      <trkpt lat="44.64251" lon="6.13497">
        <ele>1057.5</ele>
        <time>2018-11-14T20:23:09Z</time>
      </trkpt>
      <trkpt lat="44.64259" lon="6.13477">
        <ele>1055.6</ele>
        <time>2018-11-14T20:24:09Z</time>
      </trkpt>
      <trkpt lat="44.64261" lon="6.13454">
        <ele>1055.5</ele>
        <time>2018-11-14T20:25:09Z</time>
      </trkpt>
      <trkpt lat="44.64242" lon="6.13495">
        <ele>1060.4</ele>
        <time>2018-11-14T20:26:09Z</time>
      </trkpt>
      <trkpt lat="44.64229" lon="6.13569">
        <ele>1060.3</ele>
        <time>2018-11-14T20:27:09Z</time>
      </trkpt>
      <trkpt lat="44.64214" lon="6.13603">
        <ele>1060</ele>
        <time>2018-11-14T20:28:09Z</time>
      </trkpt>
      <trkpt lat="44.64196" lon="6.13628">
        <ele>1061.2</ele>
        <time>2018-11-14T20:29:09Z</time>
      </trkpt>
      <trkpt lat="44.64155" lon="6.13646">
        <ele>1068</ele>
        <time>2018-11-14T20:30:09Z</time>
      </trkpt>
      <trkpt lat="44.64137" lon="6.13643">
        <ele>1070</ele>
        <time>2018-11-14T20:31:09Z</time>
      </trkpt>
      <trkpt lat="44.64119" lon="6.13635">
        <ele>1072</ele>
        <time>2018-11-14T20:32:09Z</time>
      </trkpt>
      <trkpt lat="44.64096" lon="6.13625">
        <ele>1074</ele>
        <time>2018-11-14T20:33:09Z</time>
      </trkpt>
      <trkpt lat="44.64096" lon="6.13623">
        <ele>1074</ele>
        <time>2018-11-14T20:34:09Z</time>
      </trkpt>
      <trkpt lat="44.64078" lon="6.136">
        <ele>1075</ele>
        <time>2018-11-14T20:35:09Z</time>
      </trkpt>
      <trkpt lat="44.6407" lon="6.13588">
        <ele>1076</ele>
        <time>2018-11-14T20:36:09Z</time>
      </trkpt>
      <trkpt lat="44.64061" lon="6.1355">
        <ele>1079</ele>
        <time>2018-11-14T20:37:09Z</time>
      </trkpt>
      <trkpt lat="44.64059" lon="6.13521">
        <ele>1081</ele>
        <time>2018-11-14T20:38:09Z</time>
      </trkpt>
      <trkpt lat="44.64061" lon="6.13483">
        <ele>1082</ele>
        <time>2018-11-14T20:39:09Z</time>
      </trkpt>
      <trkpt lat="44.64065" lon="6.13474">
        <ele>1082</ele>
        <time>2018-11-14T20:40:09Z</time>
      </trkpt>
      <trkpt lat="44.64064" lon="6.13472">
        <ele>1082</ele>
        <time>2018-11-14T20:41:09Z</time>
      </trkpt>
      <trkpt lat="44.64064" lon="6.13457">
        <ele>1083</ele>
        <time>2018-11-14T20:42:09Z</time>
      </trkpt>
      <trkpt lat="44.64074" lon="6.1339">
        <ele>1086</ele>
        <time>2018-11-14T20:43:09Z</time>
      </trkpt>
      <trkpt lat="44.64073" lon="6.13362">
        <ele>1087</ele>
        <time>2018-11-14T20:44:09Z</time>
      </trkpt>
      <trkpt lat="44.64091" lon="6.13237">
        <ele>1089</ele>
        <time>2018-11-14T20:45:09Z</time>
      </trkpt>
      <trkpt lat="44.64103" lon="6.1317">
        <ele>1087</ele>
        <time>2018-11-14T20:46:09Z</time>
      </trkpt>
      <trkpt lat="44.64111" lon="6.13066">
        <ele>1089</ele>
        <time>2018-11-14T20:47:09Z</time>
      </trkpt>
      <trkpt lat="44.64124" lon="6.12951">
        <ele>1089</ele>
        <time>2018-11-14T20:48:09Z</time>
      </trkpt>
      <trkpt lat="44.64127" lon="6.12871">
        <ele>1088</ele>
        <time>2018-11-14T20:49:09Z</time>
      </trkpt>
      <trkpt lat="44.64135" lon="6.12784">
        <ele>1087</ele>
        <time>2018-11-14T20:50:09Z</time>
      </trkpt>
      <trkpt lat="44.64132" lon="6.12762">
        <ele>1088</ele>
        <time>2018-11-14T20:51:09Z</time>
      </trkpt>
      <trkpt lat="44.6414" lon="6.12663">
        <ele>1088</ele>
        <time>2018-11-14T20:52:09Z</time>
      </trkpt>
      <trkpt lat="44.64156" lon="6.12501">
        <ele>1082</ele>
        <time>2018-11-14T20:53:09Z</time>
      </trkpt>
      <trkpt lat="44.64161" lon="6.12434">
        <ele>1087</ele>
        <time>2018-11-14T20:54:09Z</time>
      </trkpt>
      <trkpt lat="44.64178" lon="6.12252">
        <ele>1099</ele>
        <time>2018-11-14T20:55:09Z</time>
      </trkpt>
      <trkpt lat="44.64192" lon="6.12105">
        <ele>1104</ele>
        <time>2018-11-14T20:56:09Z</time>
      </trkpt>
      <trkpt lat="44.6419" lon="6.12078">
        <ele>1105</ele>
        <time>2018-11-14T20:57:09Z</time>
      </trkpt>
      <trkpt lat="44.64198" lon="6.12041">
        <ele>1101</ele>
        <time>2018-11-14T20:58:09Z</time>
      </trkpt>
      <trkpt lat="44.64214" lon="6.11932">
        <ele>1098</ele>
        <time>2018-11-14T20:59:09Z</time>
      </trkpt>
      <trkpt lat="44.64213" lon="6.11891">
        <ele>1099</ele>
        <time>2018-11-14T21:00:09Z</time>
      </trkpt>
      <trkpt lat="44.64207" lon="6.11832">
        <ele>1101</ele>
        <time>2018-11-14T21:01:09Z</time>
      </trkpt>
      <trkpt lat="44.64199" lon="6.11797">
        <ele>1102</ele>
        <time>2018-11-14T21:02:09Z</time>
      </trkpt>
      <trkpt lat="44.64176" lon="6.11749">
        <ele>1105</ele>
        <time>2018-11-14T21:03:09Z</time>
      </trkpt>
      <trkpt lat="44.64157" lon="6.11723">
        <ele>1107</ele>
        <time>2018-11-14T21:04:09Z</time>
      </trkpt>
      <trkpt lat="44.64128" lon="6.11692">
        <ele>1111</ele>
        <time>2018-11-14T21:05:09Z</time>
      </trkpt>
      <trkpt lat="44.64111" lon="6.11679">
        <ele>1113</ele>
        <time>2018-11-14T21:06:09Z</time>
      </trkpt>
      <trkpt lat="44.63947" lon="6.11608">
        <ele>1124</ele>
        <time>2018-11-14T21:07:09Z</time>
      </trkpt>
      <trkpt lat="44.6393" lon="6.116">
        <ele>1125</ele>
        <time>2018-11-14T21:08:09Z</time>
      </trkpt>
      <trkpt lat="44.63903" lon="6.11594">
        <ele>1126</ele>
        <time>2018-11-14T21:09:09Z</time>
      </trkpt>
      <trkpt lat="44.6386" lon="6.11595">
        <ele>1130</ele>
      </trkpt>
      <trkpt lat="44.63819" lon="6.1161">
        <ele>1134</ele>
      </trkpt>
      <trkpt lat="44.63807" lon="6.11612">
        <ele>1136</ele>
      </trkpt>
      <trkpt lat="44.6382" lon="6.1158">
        <ele>1136</ele>
      </trkpt>
      <trkpt lat="44.63851" lon="6.11516">
        <ele>1136</ele>
      </trkpt>
      <trkpt lat="44.63856" lon="6.11486">
        <ele>1138</ele>
      </trkpt>
      <trkpt lat="44.6384" lon="6.11477">
        <ele>1141</ele>
      </trkpt>
      <trkpt lat="44.63795" lon="6.11512">
        <ele>1144</ele>
      </trkpt>
      <trkpt lat="44.63775" lon="6.11526">
        <ele>1147</ele>
      </trkpt>
      <trkpt lat="44.63758" lon="6.1153">
        <ele>1149</ele>
      </trkpt>
      <trkpt lat="44.63737" lon="6.11521">
        <ele>1153</ele>
      </trkpt>
      <trkpt lat="44.6374" lon="6.11502">
        <ele>1153</ele>
      </trkpt>
      <trkpt lat="44.63749" lon="6.11487">
        <ele>1153</ele>
      </trkpt>
      <trkpt lat="44.63756" lon="6.11461">
        <ele>1154</ele>
      </trkpt>
      <trkpt lat="44.63746" lon="6.11448">
        <ele>1155</ele>
      </trkpt>
      <trkpt lat="44.63734" lon="6.11446">
        <ele>1157</ele>
      </trkpt>
      <trkpt lat="44.63714" lon="6.11449">
        <ele>1158</ele>
      </trkpt>
      <trkpt lat="44.63621" lon="6.11401">
        <ele>1172</ele>
      </trkpt>
      <trkpt lat="44.63593" lon="6.11392">
        <ele>1176</ele>
      </trkpt>
      <trkpt lat="44.63575" lon="6.1139">
        <ele>1178</ele>
      </trkpt>
      <trkpt lat="44.63575" lon="6.11389">
        <ele>1178</ele>
      </trkpt>
      <trkpt lat="44.63529" lon="6.11387">
        <ele>1184</ele>
      </trkpt>
      <trkpt lat="44.63501" lon="6.11395">
        <ele>1187</ele>
      </trkpt>
      <trkpt lat="44.63472" lon="6.11411">
        <ele>1191</ele>
      </trkpt>
      <trkpt lat="44.63436" lon="6.1142">
        <ele>1195</ele>
      </trkpt>
      <trkpt lat="44.63415" lon="6.11434">
        <ele>1198</ele>
      </trkpt>
      <trkpt lat="44.63378" lon="6.1145">
        <ele>1201</ele>
      </trkpt>
      <trkpt lat="44.63361" lon="6.11449">
        <ele>1203</ele>
      </trkpt>
      <trkpt lat="44.63332" lon="6.11451">
        <ele>1205</ele>
      </trkpt>
      <trkpt lat="44.63321" lon="6.11459">
        <ele>1206</ele>
      </trkpt>
      <trkpt lat="44.63312" lon="6.11494">
        <ele>1207</ele>
      </trkpt>
      <trkpt lat="44.63301" lon="6.11513">
        <ele>1208</ele>
      </trkpt>
      <trkpt lat="44.63273" lon="6.11554">
        <ele>1211</ele>
      </trkpt>
      <trkpt lat="44.63248" lon="6.11571">
        <ele>1213</ele>
      </trkpt>
      <trkpt lat="44.63226" lon="6.11575">
        <ele>1215</ele>
      </trkpt>
      <trkpt lat="44.63209" lon="6.11574">
        <ele>1216</ele>
      </trkpt>
      <trkpt lat="44.63209" lon="6.11574">
        <ele>1216</ele>
      </trkpt>
      <trkpt lat="44.63193" lon="6.11568">
        <ele>1217</ele>
      </trkpt>
      <trkpt lat="44.63156" lon="6.11548">
        <ele>1221</ele>
      </trkpt>
      <trkpt lat="44.63112" lon="6.11523">
        <ele>1225</ele>
      </trkpt>
      <trkpt lat="44.6313" lon="6.11484">
        <ele>1224</ele>
      </trkpt>
      <trkpt lat="44.63135" lon="6.11462">
        <ele>1224</ele>
      </trkpt>
      <trkpt lat="44.63135" lon="6.11461">
        <ele>1224</ele>
      </trkpt>
      <trkpt lat="44.63122" lon="6.11443">
        <ele>1226</ele>
      </trkpt>
      <trkpt lat="44.63101" lon="6.11428">
        <ele>1229</ele>
      </trkpt>
      <trkpt lat="44.63068" lon="6.11399">
        <ele>1233</ele>
      </trkpt>
      <trkpt lat="44.6301" lon="6.11326">
        <ele>1239</ele>
      </trkpt>
      <trkpt lat="44.6298" lon="6.11279">
        <ele>1241</ele>
      </trkpt>
      <trkpt lat="44.6295" lon="6.11238">
        <ele>1244</ele>
      </trkpt>
      <trkpt lat="44.62943" lon="6.11219">
        <ele>1246</ele>
      </trkpt>
      <trkpt lat="44.62944" lon="6.11204">
        <ele>1246</ele>
      </trkpt>
      <trkpt lat="44.62962" lon="6.11201">
        <ele>1245</ele>
      </trkpt>
      <trkpt lat="44.62977" lon="6.11191">
        <ele>1245</ele>
      </trkpt>
      <trkpt lat="44.62991" lon="6.11193">
        <ele>1244</ele>
      </trkpt>
      <trkpt lat="44.62998" lon="6.11173">
        <ele>1245</ele>
      </trkpt>
      <trkpt lat="44.62948" lon="6.11121">
        <ele>1249</ele>
      </trkpt>
      <trkpt lat="44.62885" lon="6.11052">
        <ele>1252</ele>
      </trkpt>
      <trkpt lat="44.62873" lon="6.11043">
        <ele>1252</ele>
      </trkpt>
      <trkpt lat="44.62845" lon="6.11009">
        <ele>1254</ele>
      </trkpt>
      <trkpt lat="44.62835" lon="6.11006">
        <ele>1255</ele>
      </trkpt>
      <trkpt lat="44.62827" lon="6.10992">
        <ele>1256</ele>
      </trkpt>
      <trkpt lat="44.62817" lon="6.10981">
        <ele>1257</ele>
      </trkpt>
      <trkpt lat="44.62781" lon="6.10962">
        <ele>1262</ele>
      </trkpt>
      <trkpt lat="44.62763" lon="6.1095">
        <ele>1264</ele>
      </trkpt>
      <trkpt lat="44.62741" lon="6.10938">
        <ele>1266</ele>
      </trkpt>
      <trkpt lat="44.62726" lon="6.10931">
        <ele>1267</ele>
      </trkpt>
      <trkpt lat="44.62716" lon="6.1092">
        <ele>1267</ele>
      </trkpt>
      <trkpt lat="44.62709" lon="6.10905">
        <ele>1268</ele>
      </trkpt>
      <trkpt lat="44.627" lon="6.10851">
        <ele>1270</ele>
      </trkpt>
      <trkpt lat="44.62692" lon="6.10824">
        <ele>1270</ele>
      </trkpt>
      <trkpt lat="44.62665" lon="6.10776">
        <ele>1271</ele>
      </trkpt>
      <trkpt lat="44.62614" lon="6.10702">
        <ele>1276</ele>
      </trkpt>
      <trkpt lat="44.62573" lon="6.10637">
        <ele>1282</ele>
      </trkpt>
      <trkpt lat="44.62556" lon="6.10621">
        <ele>1284</ele>
      </trkpt>
      <trkpt lat="44.62541" lon="6.10595">
        <ele>1286</ele>
      </trkpt>
      <trkpt lat="44.62524" lon="6.10583">
        <ele>1289</ele>
      </trkpt>
      <trkpt lat="44.62465" lon="6.10521">
        <ele>1291</ele>
      </trkpt>
      <trkpt lat="44.62322" lon="6.10426">
        <ele>1290</ele>
      </trkpt>
      <trkpt lat="44.62274" lon="6.10423">
        <ele>1291</ele>
      </trkpt>
      <trkpt lat="44.62173" lon="6.10352">
        <ele>1284</ele>
      </trkpt>
      <trkpt lat="44.62135" lon="6.10335">
        <ele>1281</ele>
      </trkpt>
      <trkpt lat="44.62102" lon="6.10294">
        <ele>1278</ele>
      </trkpt>
      <trkpt lat="44.62061" lon="6.10273">
        <ele>1277</ele>
      </trkpt>
      <trkpt lat="44.62018" lon="6.10259">
        <ele>1276</ele>
      </trkpt>
      <trkpt lat="44.61971" lon="6.10233">
        <ele>1277</ele>
      </trkpt>
      <trkpt lat="44.61927" lon="6.10232">
        <ele>1278</ele>
      </trkpt>
      <trkpt lat="44.61884" lon="6.10222">
        <ele>1280</ele>
      </trkpt>
      <trkpt lat="44.61834" lon="6.10213">
        <ele>1282</ele>
      </trkpt>
      <trkpt lat="44.61765" lon="6.10195">
        <ele>1278</ele>
      </trkpt>
      <trkpt lat="44.61765" lon="6.10194">
        <ele>1278</ele>
      </trkpt>
      <trkpt lat="44.6174" lon="6.10166">
        <ele>1277</ele>
      </trkpt>
      <trkpt lat="44.61731" lon="6.10133">
        <ele>1277</ele>
      </trkpt>
      <trkpt lat="44.61718" lon="6.10006">
        <ele>1277</ele>
      </trkpt>
      <trkpt lat="44.61719" lon="6.10005">
        <ele>1277</ele>
      </trkpt>
      <trkpt lat="44.61699" lon="6.09938">
        <ele>1275</ele>
      </trkpt>
      <trkpt lat="44.61696" lon="6.09937">
        <ele>1275</ele>
      </trkpt>
      <trkpt lat="44.61696" lon="6.09937">
        <ele>1275</ele>
      </trkpt>
      <trkpt lat="44.61696" lon="6.09937">
        <ele>1275</ele>
      </trkpt>
      <trkpt lat="44.61697" lon="6.09938">
        <ele>1275</ele>
      </trkpt>
      <trkpt lat="44.61693" lon="6.09883">
        <ele>1275</ele>
      </trkpt>
      <trkpt lat="44.61725" lon="6.09854">
        <ele>1276</ele>
      </trkpt>
      <trkpt lat="44.61728" lon="6.09813">
        <ele>1276</ele>
      </trkpt>
      <trkpt lat="44.61726" lon="6.09771">
        <ele>1277</ele>
      </trkpt>
      <trkpt lat="44.61733" lon="6.09752">
        <ele>1277</ele>
      </trkpt>
      <trkpt lat="44.61733" lon="6.09754">
        <ele>1277</ele>
      </trkpt>
      <trkpt lat="44.61739" lon="6.09754">
        <ele>1277</ele>
      </trkpt>
      <trkpt lat="44.61739" lon="6.09754">
        <ele>1277</ele>
      </trkpt>
      <trkpt lat="44.61766" lon="6.09759">
        <ele>1278</ele>
      </trkpt>
      <trkpt lat="44.61784" lon="6.09761">
        <ele>1278</ele>
      </trkpt>
      <trkpt lat="44.61792" lon="6.0974">
        <ele>1278</ele>
      </trkpt>
      <trkpt lat="44.61791" lon="6.09667">
        <ele>1278</ele>
      </trkpt>
      <trkpt lat="44.61799" lon="6.09649">
        <ele>1277</ele>
      </trkpt>
      <trkpt lat="44.61785" lon="6.09514">
        <ele>1273.3</ele>
      </trkpt>
      <trkpt lat="44.61814" lon="6.09486">
        <ele>1270.1</ele>
      </trkpt>
      <trkpt lat="44.6182" lon="6.09356">
        <ele>1267.4</ele>
      </trkpt>
      <trkpt lat="44.61783" lon="6.0925">
        <ele>1274.9</ele>
      </trkpt>
      <trkpt lat="44.61773" lon="6.09248">
        <ele>1278</ele>
      </trkpt>
      <trkpt lat="44.61745" lon="6.09248">
        <ele>1282</ele>
      </trkpt>
      <trkpt lat="44.61718" lon="6.09244">
        <ele>1284</ele>
      </trkpt>
      <trkpt lat="44.61682" lon="6.09248">
        <ele>1287</ele>
      </trkpt>
      <trkpt lat="44.61668" lon="6.09265">
        <ele>1286</ele>
      </trkpt>
      <trkpt lat="44.61614" lon="6.09351">
        <ele>1278</ele>
      </trkpt>
      <trkpt lat="44.61614" lon="6.09351">
        <ele>1278</ele>
      </trkpt>
      <trkpt lat="44.61586" lon="6.09371">
        <ele>1276</ele>
      </trkpt>
      <trkpt lat="44.61565" lon="6.09399">
        <ele>1272</ele>
      </trkpt>
      <trkpt lat="44.61552" lon="6.09424">
        <ele>1271</ele>
      </trkpt>
      <trkpt lat="44.61513" lon="6.09462">
        <ele>1274</ele>
      </trkpt>
      <trkpt lat="44.61418" lon="6.09532">
        <ele>1293</ele>
      </trkpt>
      <trkpt lat="44.61391" lon="6.09573">
        <ele>1294</ele>
      </trkpt>
      <trkpt lat="44.61391" lon="6.09659">
        <ele>1299</ele>
      </trkpt>
      <trkpt lat="44.61384" lon="6.09667">
        <ele>1299</ele>
      </trkpt>
      <trkpt lat="44.61365" lon="6.09668">
        <ele>1298</ele>
      </trkpt>
      <trkpt lat="44.61218" lon="6.09657">
        <ele>1288</ele>
      </trkpt>
      <trkpt lat="44.61173" lon="6.09651">
        <ele>1288</ele>
      </trkpt>
      <trkpt lat="44.61115" lon="6.09647">
        <ele>1288</ele>
      </trkpt>
      <trkpt lat="44.61083" lon="6.09633">
        <ele>1288</ele>
      </trkpt>
      <trkpt lat="44.61063" lon="6.09617">
        <ele>1287</ele>
      </trkpt>
      <trkpt lat="44.61034" lon="6.09602">
        <ele>1287</ele>
      </trkpt>
      <trkpt lat="44.60993" lon="6.09632">
        <ele>1285</ele>
      </trkpt>
      <trkpt lat="44.60974" lon="6.09635">
        <ele>1284</ele>
      </trkpt>
      <trkpt lat="44.60907" lon="6.09615">
        <ele>1280</ele>
      </trkpt>
      <trkpt lat="44.60849" lon="6.09608">
        <ele>1277</ele>
      </trkpt>
      <trkpt lat="44.60814" lon="6.09595">
        <ele>1277</ele>
      </trkpt>
      <trkpt lat="44.60788" lon="6.09546">
        <ele>1275</ele>
      </trkpt>
      <trkpt lat="44.6078" lon="6.0954">
        <ele>1275</ele>
      </trkpt>
      <trkpt lat="44.60743" lon="6.09524">
        <ele>1275</ele>
      </trkpt>
      <trkpt lat="44.60743" lon="6.09523">
        <ele>1275</ele>
      </trkpt>
      <trkpt lat="44.60716" lon="6.09477">
        <ele>1275</ele>
      </trkpt>
      <trkpt lat="44.60698" lon="6.0942">
        <ele>1276</ele>
      </trkpt>
      <trkpt lat="44.60665" lon="6.09279">
        <ele>1280</ele>
      </trkpt>
      <trkpt lat="44.60666" lon="6.09279">
        <ele>1281</ele>
      </trkpt>
      <trkpt lat="44.60662" lon="6.09258">
        <ele>1281</ele>
      </trkpt>
      <trkpt lat="44.60664" lon="6.09233">
        <ele>1283</ele>
      </trkpt>
      <trkpt lat="44.60664" lon="6.09234">
        <ele>1282</ele>
      </trkpt>
      <trkpt lat="44.60658" lon="6.09233">
        <ele>1281</ele>
      </trkpt>
      <trkpt lat="44.60658" lon="6.09232">
        <ele>1281</ele>
      </trkpt>
      <trkpt lat="44.60661" lon="6.09199">
        <ele>1284</ele>
      </trkpt>
      <trkpt lat="44.60657" lon="6.09129">
        <ele>1289</ele>
      </trkpt>
      <trkpt lat="44.60657" lon="6.09123">
        <ele>1290</ele>
      </trkpt>
      <trkpt lat="44.60651" lon="6.09057">
        <ele>1293</ele>
      </trkpt>
      <trkpt lat="44.6065" lon="6.08992">
        <ele>1293</ele>
      </trkpt>
      <trkpt lat="44.60631" lon="6.08954">
        <ele>1288</ele>
      </trkpt>
      <trkpt lat="44.60581" lon="6.08838">
        <ele>1280</ele>
      </trkpt>
      <trkpt lat="44.60558" lon="6.0878">
        <ele>1280</ele>
      </trkpt>
      <trkpt lat="44.60551" lon="6.08709">
        <ele>1281</ele>
      </trkpt>
      <trkpt lat="44.60549" lon="6.08638">
        <ele>1284</ele>
      </trkpt>
      <trkpt lat="44.60555" lon="6.0861">
        <ele>1286</ele>
      </trkpt>
      <trkpt lat="44.60572" lon="6.08593">
        <ele>1287</ele>
      </trkpt>
      <trkpt lat="44.60648" lon="6.0855">
        <ele>1286</ele>
      </trkpt>
      <trkpt lat="44.60683" lon="6.08541">
        <ele>1286</ele>
      </trkpt>
      <trkpt lat="44.60718" lon="6.08513">
        <ele>1287</ele>
      </trkpt>
      <trkpt lat="44.60789" lon="6.08472">
        <ele>1289</ele>
      </trkpt>
      <trkpt lat="44.60866" lon="6.08443">
        <ele>1290</ele>
      </trkpt>
      <trkpt lat="44.60893" lon="6.08437">
        <ele>1290</ele>
      </trkpt>
      <trkpt lat="44.60928" lon="6.08409">
        <ele>1288</ele>
      </trkpt>
      <trkpt lat="44.60959" lon="6.08367">
        <ele>1283</ele>
      </trkpt>
      <trkpt lat="44.61031" lon="6.0831">
        <ele>1275</ele>
      </trkpt>
      <trkpt lat="44.61041" lon="6.08297">
        <ele>1274</ele>
      </trkpt>
      <trkpt lat="44.61042" lon="6.08282">
        <ele>1272</ele>
      </trkpt>
      <trkpt lat="44.61026" lon="6.08272">
        <ele>1270</ele>
      </trkpt>
      <trkpt lat="44.60953" lon="6.08207">
        <ele>1267</ele>
      </trkpt>
      <trkpt lat="44.609" lon="6.08174">
        <ele>1262</ele>
      </trkpt>
      <trkpt lat="44.60901" lon="6.08156">
        <ele>1259</ele>
      </trkpt>
      <trkpt lat="44.60907" lon="6.08141">
        <ele>1257</ele>
      </trkpt>
      <trkpt lat="44.6095" lon="6.08136">
        <ele>1257</ele>
      </trkpt>
      <trkpt lat="44.61015" lon="6.0814">
        <ele>1259</ele>
      </trkpt>
      <trkpt lat="44.61032" lon="6.08141">
        <ele>1259</ele>
      </trkpt>
      <trkpt lat="44.6108" lon="6.08136">
        <ele>1258</ele>
      </trkpt>
      <trkpt lat="44.61159" lon="6.08124">
        <ele>1259</ele>
      </trkpt>
      <trkpt lat="44.61186" lon="6.08122">
        <ele>1258</ele>
      </trkpt>
      <trkpt lat="44.61253" lon="6.08132">
        <ele>1258</ele>
      </trkpt>
      <trkpt lat="44.61314" lon="6.08137">
        <ele>1256</ele>
      </trkpt>
      <trkpt lat="44.61357" lon="6.08149">
        <ele>1259</ele>
      </trkpt>
      <trkpt lat="44.61381" lon="6.08157">
        <ele>1261</ele>
      </trkpt>
      <trkpt lat="44.61406" lon="6.08188">
        <ele>1267</ele>
      </trkpt>
      <trkpt lat="44.61447" lon="6.08199">
        <ele>1269</ele>
      </trkpt>
      <trkpt lat="44.61497" lon="6.08223">
        <ele>1271</ele>
      </trkpt>
      <trkpt lat="44.61536" lon="6.08242">
        <ele>1271</ele>
      </trkpt>
      <trkpt lat="44.61587" lon="6.08278">
        <ele>1269</ele>
      </trkpt>
      <trkpt lat="44.61656" lon="6.08318">
        <ele>1264</ele>
      </trkpt>
      <trkpt lat="44.6167" lon="6.08316">
        <ele>1263</ele>
      </trkpt>
      <trkpt lat="44.61728" lon="6.08336">
        <ele>1262</ele>
      </trkpt>
      <trkpt lat="44.61788" lon="6.08398">
        <ele>1261</ele>
      </trkpt>
      <trkpt lat="44.61855" lon="6.0838">
        <ele>1258</ele>
      </trkpt>
      <trkpt lat="44.61909" lon="6.08359">
        <ele>1256</ele>
      </trkpt>
      <trkpt lat="44.61984" lon="6.08338">
        <ele>1253</ele>
      </trkpt>
      <trkpt lat="44.62012" lon="6.08325">
        <ele>1252</ele>
      </trkpt>
      <trkpt lat="44.62055" lon="6.08346">
        <ele>1252</ele>
      </trkpt>
    </trkseg>
  </trk>
</gpx>